Provisional Data: Sing Sing Creek near Big Flats, NY


Please select a monitoring station.
Please select start date.
Please select start date.

Toggle Unit: C/F Toggle Unit: C/F
Sample Time Temperature (C) Temperature (F) Specific Conductivity (mS/cm) pH   Turbidity (NTU+) DO (mg/L)
3/23/2021 12:00:00 AM 7.25 45.05 0.314 8.65 15.46 11.22
3/23/2021 12:15:00 AM 7.19 44.942 0.315 8.63 15.82 11.2
3/23/2021 12:30:00 AM 7.13 44.834 0.315 8.62 15.9 11.19
3/23/2021 12:45:00 AM 7.06 44.708 0.315 8.63 16.07 11.18
3/23/2021 1:00:00 AM 7 44.6 0.314 8.62 16.04 11.18
3/23/2021 1:15:00 AM 6.94 44.492 0.314 8.62 15.82 11.18
3/23/2021 1:30:00 AM 6.87 44.366 0.314 8.62 15.83 11.19
3/23/2021 1:45:00 AM 6.81 44.258 0.314 8.6 15.8 11.19
3/23/2021 2:00:00 AM 6.74 44.132 0.314 8.61 15.9 11.2
3/23/2021 2:15:00 AM 6.67 44.006 0.314 8.6 15.83 11.21
3/23/2021 2:30:00 AM 6.6 43.88 0.315 8.58 16.17 11.2
3/23/2021 2:45:00 AM 6.53 43.754 0.313 8.6 15.6 11.22
3/23/2021 3:00:00 AM 6.47 43.646 0.315 8.59 15.7 11.23
3/23/2021 3:15:00 AM 6.41 43.538 0.316 8.59 15.89 11.23
3/23/2021 3:30:00 AM 6.34 43.412 0.314 8.59 16.56 11.26
3/23/2021 3:45:00 AM 6.28 43.304 0.315 8.55 15.78 11.27
3/23/2021 4:00:00 AM 6.21 43.178 0.315 8.57 15.91 11.29
3/23/2021 4:15:00 AM 6.15 43.07 0.315 8.59 15.96 11.3
3/23/2021 4:30:00 AM 6.07 42.926 0.314 8.56 15.97 11.32
3/23/2021 4:45:00 AM 6.01 42.818 0.315 8.58 16.03 11.34
3/23/2021 5:00:00 AM 5.93 42.674 0.315 8.58 16.01 11.36
3/23/2021 5:15:00 AM 5.86 42.548 0.316 8.57 15.96 11.38
3/23/2021 5:30:00 AM 5.77 42.386 0.316 8.53 15.89 11.41
3/23/2021 5:45:00 AM 5.69 42.242 0.316 8.58 16.24 11.44
3/23/2021 6:00:00 AM 5.6 42.08 0.315 8.57 16.22 11.48
3/23/2021 6:15:00 AM 5.52 41.936 0.315 8.56 16.19 11.51
3/23/2021 6:30:00 AM 5.43 41.774 0.317 8.57 16.23 11.53
3/23/2021 6:45:00 AM 5.34 41.612 0.316 8.53 16.23 11.56
3/23/2021 7:00:00 AM 5.25 41.45 0.317 8.54 16.34 11.58
3/23/2021 7:15:00 AM 5.16 41.288 0.317 8.57 16.49 11.61
3/23/2021 7:30:00 AM 5.06 41.108 0.317 8.56 16.42 11.66
3/23/2021 7:45:00 AM 4.97 40.946 0.317 8.56 16.64 11.72
3/23/2021 8:00:00 AM 4.89 40.802 0.318 8.55 18.32 11.76
3/23/2021 8:15:00 AM 4.8 40.64 0.318 8.56 16.97 11.82
3/23/2021 8:30:00 AM 4.71 40.478 0.319 8.56 16.72 11.89
3/23/2021 8:45:00 AM 4.62 40.316 0.318 8.56 17.97 11.95
3/23/2021 9:00:00 AM 4.54 40.172 0.319 8.55 20.86 11.99
3/23/2021 9:15:00 AM 4.46 40.028 0.32 8.56 16.62 12.08
3/23/2021 9:30:00 AM 4.4 39.92 0.32 8.51 16.3 12.17
3/23/2021 9:45:00 AM 4.34 39.812 0.319 8.55 16.23 12.25
3/23/2021 10:00:00 AM 4.31 39.758 0.318 8.5 16.52 12.33
3/23/2021 10:15:00 AM 4.3 39.74 0.32 8.55 16.27 12.41
3/23/2021 10:30:00 AM 4.29 39.722 0.32 8.54 16.18 12.5
3/23/2021 10:45:00 AM 4.3 39.74 0.32 8.55 16.02 12.57
3/23/2021 11:00:00 AM 4.32 39.776 0.321 8.55 16.19 12.65
3/23/2021 11:15:00 AM 4.39 39.902 0.32 8.53 16.29 12.73
3/23/2021 11:30:00 AM 4.49 40.082 0.32 8.58 15.91 12.83
3/23/2021 11:45:00 AM 4.64 40.352 0.321 8.59 15.87 12.92
3/23/2021 12:00:00 PM 4.8 40.64 0.32 8.6 15.67 13
3/23/2021 12:15:00 PM 4.97 40.946 0.321 8.63 15.5 13.06
3/23/2021 12:30:00 PM 5.18 41.324 0.32 8.64 15.75 13.12
3/23/2021 12:45:00 PM 5.4 41.72 0.32 8.62 15.81 13.19
3/23/2021 1:00:00 PM 5.63 42.134 0.32 8.69 15.59 13.23
3/23/2021 1:15:00 PM 5.84 42.512 0.319 8.7 15.85 13.24
3/23/2021 1:30:00 PM 6.05 42.89 0.32 8.72 15.5 13.27
3/23/2021 1:45:00 PM 6.3 43.34 0.319 8.73 15.29 13.3
3/23/2021 2:00:00 PM 6.53 43.754 0.319 8.76 15.29 13.31
3/23/2021 2:15:00 PM 6.73 44.114 0.32 8.77 15.29 13.32
3/23/2021 2:30:00 PM 6.92 44.456 0.319 8.79 15.23 13.32
3/23/2021 2:45:00 PM 7.08 44.744 0.32 8.8 14.78 13.28
3/23/2021 3:00:00 PM 7.25 45.05 0.32 8.8 15.01 13.28
3/23/2021 3:15:00 PM 7.43 45.374 0.32 8.84 15.22 13.27
3/23/2021 3:30:00 PM 7.55 45.59 0.32 8.85 14.91 13.25
3/23/2021 3:45:00 PM 7.68 45.824 0.321 8.84 17.5 13.21
3/23/2021 4:00:00 PM 7.78 46.004 0.32 8.89 15.21 13.17
3/23/2021 4:15:00 PM 7.86 46.148 0.32 8.86 15.06 13.15
3/23/2021 4:30:00 PM 7.93 46.274 0.322 8.9 15.13 13.12
3/23/2021 4:45:00 PM 7.98 46.364 0.322 8.9 15.07 13.07
3/23/2021 5:00:00 PM 8.02 46.436 0.321 8.92 15.01 13.03
3/23/2021 5:15:00 PM 8.07 46.526 0.322 8.91 15.01 12.97
3/23/2021 5:30:00 PM 8.1 46.58 0.321 8.92 14.96 12.91
3/23/2021 5:45:00 PM 8.12 46.616 0.321 8.92 15 12.86
3/23/2021 6:00:00 PM 8.14 46.652 0.321 8.92 14.89 12.8
3/23/2021 6:15:00 PM 8.17 46.706 0.321 8.94 14.98 12.74
3/23/2021 6:30:00 PM 8.17 46.706 0.323 8.93 14.86 12.67
3/23/2021 6:45:00 PM 8.17 46.706 0.323 8.92 14.78 12.56
3/23/2021 7:00:00 PM 8.18 46.724 0.323 8.91 14.92 12.46
3/23/2021 7:15:00 PM 8.17 46.706 0.325 8.9 15.47 12.35
3/23/2021 7:30:00 PM 8.17 46.706 0.323 8.89 16.41 12.26
3/23/2021 7:45:00 PM 8.16 46.688 0.324 8.88 15.39 12.14
3/23/2021 8:00:00 PM 8.14 46.652 0.323 8.87 15.12 12.07
3/23/2021 8:15:00 PM 8.12 46.616 0.323 8.83 15.02 11.99
3/23/2021 8:30:00 PM 8.09 46.562 0.324 8.84 15.26 11.88
3/23/2021 8:45:00 PM 8.07 46.526 0.324 8.82 13.74 11.81
3/23/2021 9:00:00 PM 8.04 46.472 0.324 8.8 13.52 11.72
3/23/2021 9:15:00 PM 8.01 46.418 0.325 8.81 13.42 11.67
3/23/2021 9:30:00 PM 7.98 46.364 0.325 8.77 13.38 11.58
3/23/2021 9:45:00 PM 7.95 46.31 0.324 8.78 13.45 11.51
3/23/2021 10:00:00 PM 7.92 46.256 0.325 8.78 13.44 11.45
3/23/2021 10:15:00 PM 7.9 46.22 0.324 8.77 13.66 11.39
3/23/2021 10:30:00 PM 7.88 46.184 0.325 8.76 13.42 11.33
3/23/2021 10:45:00 PM 7.85 46.13 0.327 8.75 13.56 11.28
3/23/2021 11:00:00 PM 7.82 46.076 0.325 8.74 13.4 11.22
3/23/2021 11:15:00 PM 7.79 46.022 0.326 8.72 13.84 11.2
3/23/2021 11:30:00 PM 7.76 45.968 0.327 8.7 13.52 11.14
3/23/2021 11:45:00 PM 7.73 45.914 0.326 8.72 13.49 11.1
3/24/2021 12:00:00 AM 7.69 45.842 0.327 8.71 13.57 11.08
3/24/2021 12:15:00 AM 7.66 45.788 0.326 8.7 13.44 11.06
3/24/2021 12:30:00 AM 7.62 45.716 0.326 8.7 13.54 11.04
3/24/2021 12:45:00 AM 7.58 45.644 0.326 8.69 13.47 11
3/24/2021 1:00:00 AM 7.54 45.572 0.326 8.69 13.64 11.01
3/24/2021 1:15:00 AM 7.51 45.518 0.328 8.65 13.53 11
3/24/2021 1:30:00 AM 7.49 45.482 0.326 8.67 13.59 10.99
3/24/2021 1:45:00 AM 7.46 45.428 0.327 8.66 13.55 10.98
3/24/2021 2:00:00 AM 7.44 45.392 0.327 8.67 13.5 10.97
3/24/2021 2:15:00 AM 7.41 45.338 0.326 8.63 13.59 10.98
3/24/2021 2:30:00 AM 7.39 45.302 0.326 8.67 13.4 10.97
3/24/2021 2:45:00 AM 7.37 45.266 0.327 8.66 13.43 10.97
3/24/2021 3:00:00 AM 7.35 45.23 0.328 8.66 13.37 10.96
3/24/2021 3:15:00 AM 7.34 45.212 0.327 8.63 13.61 10.97
3/24/2021 3:30:00 AM 7.31 45.158 0.327 8.66 13.28 10.97
3/24/2021 3:45:00 AM 7.3 45.14 0.327 8.66 13.76 10.97
3/24/2021 4:00:00 AM 7.29 45.122 0.327 8.66 13.63 10.97
3/24/2021 4:15:00 AM 7.27 45.086 0.328 8.63 16.1 10.95
3/24/2021 4:30:00 AM 7.26 45.068 0.328 8.65 13.89 10.97
3/24/2021 4:45:00 AM 7.25 45.05 0.328 8.65 13.69 10.96
3/24/2021 5:00:00 AM 7.23 45.014 0.328 8.65 13.63 10.97
3/24/2021 5:15:00 AM 7.22 44.996 0.329 8.65 13.46 10.97
3/24/2021 5:30:00 AM 7.21 44.978 0.327 8.65 13.67 10.97
3/24/2021 5:45:00 AM 7.2 44.96 0.329 8.63 13.68 10.96
3/24/2021 6:00:00 AM 7.19 44.942 0.327 8.65 13.69 10.99
3/24/2021 6:15:00 AM 7.17 44.906 0.329 8.65 13.53 11
3/24/2021 6:30:00 AM 7.16 44.888 0.328 8.65 13.5 11
3/24/2021 6:45:00 AM 7.15 44.87 0.331 8.64 13.68 11
3/24/2021 7:00:00 AM 7.13 44.834 0.329 8.65 13.81 11
3/24/2021 7:15:00 AM 7.12 44.816 0.329 8.65 14.18 11.02
3/24/2021 7:30:00 AM 7.1 44.78 0.329 8.65 13.2 11.03
3/24/2021 7:45:00 AM 7.07 44.726 0.329 8.64 13.48 11.03
3/24/2021 8:00:00 AM 7.05 44.69 0.329 8.65 14.89 11.05
3/24/2021 8:15:00 AM 7.03 44.654 0.329 8.65 13.56 11.07
3/24/2021 8:30:00 AM 7 44.6 0.329 8.65 13.73 11.11
3/24/2021 8:45:00 AM 6.98 44.564 0.329 8.64 13.44 11.14
3/24/2021 9:00:00 AM 6.96 44.528 0.329 8.65 13.41 11.16
3/24/2021 9:15:00 AM 6.94 44.492 0.329 8.64 13.71 11.21
3/24/2021 9:30:00 AM 6.91 44.438 0.331 8.66 13.36 11.21
3/24/2021 9:45:00 AM 6.89 44.402 0.328 8.67 13.21 11.33
3/24/2021 10:00:00 AM 6.87 44.366 0.329 8.63 13.32 11.36
3/24/2021 10:15:00 AM 6.86 44.348 0.329 8.68 13.32 11.45
3/24/2021 10:30:00 AM 6.84 44.312 0.328 8.67 13.47 11.48
3/24/2021 10:45:00 AM 6.83 44.294 0.328 8.66 13.73 11.56
3/24/2021 11:00:00 AM 6.82 44.276 0.329 8.69 13.59 11.63
3/24/2021 11:15:00 AM 6.81 44.258 0.332 8.7 13.71 11.68
3/24/2021 11:30:00 AM 6.8 44.24 0.334 8.68 14.59 11.76
3/24/2021 11:45:00 AM 6.81 44.258 0.329 8.72 13.87 11.85
3/24/2021 12:00:00 PM 6.82 44.276 0.334 8.73 14.73 11.92
3/24/2021 12:15:00 PM 6.82 44.276 0.331 8.73 14.34 11.99
3/24/2021 12:30:00 PM 6.85 44.33 0.328 8.75 14.57 12.07
3/24/2021 12:45:00 PM 6.88 44.384 0.327 8.73 14.91 12.15
3/24/2021 1:00:00 PM 6.91 44.438 0.326 8.77 14.5 12.2
3/24/2021 1:15:00 PM 6.92 44.456 0.327 8.78 14.88 12.27
3/24/2021 1:30:00 PM 6.94 44.492 0.327 8.79 15.33 12.33
3/24/2021 1:45:00 PM 6.95 44.51 0.326 8.78 15.04 12.37
3/24/2021 2:00:00 PM 6.96 44.528 0.325 8.81 15 12.41
3/24/2021 2:15:00 PM 6.98 44.564 0.325 8.81 14.83 12.45
3/24/2021 2:30:00 PM 7 44.6 0.322 8.8 14.59 12.47
3/24/2021 2:45:00 PM 7.05 44.69 0.321 8.85 14.65 12.52
3/24/2021 3:00:00 PM 7.1 44.78 0.321 8.85 14.57 12.53
3/24/2021 3:15:00 PM 7.15 44.87 0.321 8.86 14.66 12.57
3/24/2021 3:30:00 PM 7.19 44.942 0.321 8.86 14.89 12.59
3/24/2021 3:45:00 PM 7.25 45.05 0.322 8.87 15.2 12.6
3/24/2021 4:00:00 PM 7.33 45.194 0.322 8.89 14.96 12.63
3/24/2021 4:15:00 PM 7.37 45.266 0.324 8.88 14.63 12.6
3/24/2021 4:30:00 PM 7.41 45.338 0.326 8.9 15.91 12.57
3/24/2021 4:45:00 PM 7.46 45.428 0.33 8.89 15.51 12.53
3/24/2021 5:00:00 PM 7.51 45.518 0.333 8.89 16.99 12.5
3/24/2021 5:15:00 PM 7.56 45.608 0.333 8.9 16 12.46
3/24/2021 5:30:00 PM 7.62 45.716 0.33 8.87 16.02 12.42
3/24/2021 5:45:00 PM 7.65 45.77 0.329 8.89 14.94 12.38
3/24/2021 6:00:00 PM 7.67 45.806 0.328 8.86 16.01 12.35
3/24/2021 6:15:00 PM 7.68 45.824 0.33 8.88 16.75 12.34
3/24/2021 6:30:00 PM 7.68 45.824 0.335 8.84 16.76 12.28
3/24/2021 6:45:00 PM 7.68 45.824 0.341 8.82 16.71 12.23
3/24/2021 7:00:00 PM 7.67 45.806 0.348 8.8 18.09 12.15
3/24/2021 7:15:00 PM 7.68 45.824 0.351 8.8 19.12 12.05
3/24/2021 7:30:00 PM 7.7 45.86 0.356 8.79 18.93 11.97
3/24/2021 7:45:00 PM 7.74 45.932 0.359 8.79 19.8 11.89
3/24/2021 8:00:00 PM 7.76 45.968 0.357 8.76 20 11.77
3/24/2021 8:15:00 PM 7.79 46.022 0.35 8.74 21.16 11.7
3/24/2021 8:30:00 PM 7.81 46.058 0.343 8.74 21.31 11.63
3/24/2021 8:45:00 PM 7.82 46.076 0.329 8.72 21.45 11.58
3/24/2021 9:00:00 PM 7.81 46.058 0.318 8.67 25.22 11.54
3/24/2021 9:15:00 PM 7.79 46.022 0.309 8.68 18.85 11.5
3/24/2021 9:30:00 PM 7.75 45.95 0.302 8.63 22.02 11.48
3/24/2021 9:45:00 PM 7.71 45.878 0.295 8.65 22.14 11.45
3/24/2021 10:00:00 PM 7.66 45.788 0.289 8.59 21.55 11.43
3/24/2021 10:15:00 PM 7.61 45.698 0.283 8.6 21.6 11.42
3/24/2021 10:30:00 PM 7.57 45.626 0.279 8.6 22.45 11.38
3/24/2021 10:45:00 PM 7.54 45.572 0.275 8.59 23.57 11.36
3/24/2021 11:00:00 PM 7.5 45.5 0.271 8.54 22.83 11.34
3/24/2021 11:15:00 PM 7.47 45.446 0.269 8.56 24.83 11.33
3/24/2021 11:30:00 PM 7.43 45.374 0.267 8.56 24.12 11.32
3/24/2021 11:45:00 PM 7.4 45.32 0.265 8.53 23.63 11.3
3/25/2021 12:00:00 AM 7.37 45.266 0.266 8.55 23.08 11.29
3/25/2021 12:15:00 AM 7.35 45.23 0.266 8.55 24.35 11.27
3/25/2021 12:30:00 AM 7.33 45.194 0.267 8.55 24.69 11.26
3/25/2021 12:45:00 AM 7.32 45.176 0.27 8.52 23.94 11.25
3/25/2021 1:00:00 AM 7.3 45.14 0.272 8.53 24.46 11.25
3/25/2021 1:15:00 AM 7.29 45.122 0.274 8.54 24.21 11.24
3/25/2021 1:30:00 AM 7.28 45.104 0.276 8.56 23.09 11.22
3/25/2021 1:45:00 AM 7.27 45.086 0.279 8.56 21.88 11.22
3/25/2021 2:00:00 AM 7.26 45.068 0.28 8.57 22.26 11.2
3/25/2021 2:15:00 AM 7.25 45.05 0.283 8.54 22.1 11.19
3/25/2021 2:30:00 AM 7.23 45.014 0.282 8.57 21.92 11.2
3/25/2021 2:45:00 AM 7.22 44.996 0.284 8.57 20.99 11.18
3/25/2021 3:00:00 AM 7.2 44.96 0.285 8.56 21.79 11.19
3/25/2021 3:15:00 AM 7.18 44.924 0.285 8.57 20.82 11.18
3/25/2021 3:30:00 AM 7.15 44.87 0.286 8.57 21.18 11.18
3/25/2021 3:45:00 AM 7.13 44.834 0.287 8.57 20.86 11.18
3/25/2021 4:00:00 AM 7.11 44.798 0.288 8.55 20.56 11.18
3/25/2021 4:15:00 AM 7.09 44.762 0.288 8.57 20.83 11.18
3/25/2021 4:30:00 AM 7.07 44.726 0.289 8.55 20.4 11.18
3/25/2021 4:45:00 AM 7.06 44.708 0.29 8.55 19.83 11.18
3/25/2021 5:00:00 AM 7.04 44.672 0.292 8.54 18.81 11.18
3/25/2021 5:15:00 AM 7.01 44.618 0.29 8.51 20.13 11.18
3/25/2021 5:30:00 AM 6.99 44.582 0.292 8.54 19.39 11.19
3/25/2021 5:45:00 AM 6.96 44.528 0.292 8.51 19.27 11.19
3/25/2021 6:00:00 AM 6.93 44.474 0.292 8.55 19.05 11.21
3/25/2021 6:15:00 AM 6.9 44.42 0.294 8.54 19.38 11.2
3/25/2021 6:30:00 AM 6.87 44.366 0.294 8.5 19.35 11.21
3/25/2021 6:45:00 AM 6.84 44.312 0.294 8.53 19.7 11.21
3/25/2021 7:00:00 AM 6.81 44.258 0.295 8.51 20.88 11.23
3/25/2021 7:15:00 AM 6.78 44.204 0.298 8.52 19.59 11.2
3/25/2021 7:30:00 AM 6.76 44.168 0.296 8.54 19.96 11.24
3/25/2021 7:45:00 AM 6.73 44.114 0.298 8.52 1.52 11.2
3/25/2021 8:00:00 AM 6.71 44.078 0.264 8.53 17.87 11.26
3/25/2021 8:15:00 AM 6.69 44.042 0.286 8.53 17.28 11.27
3/25/2021 8:30:00 AM 6.67 44.006 0.261 8.51 17.21 11.29
3/25/2021 8:45:00 AM 6.65 43.97 0.26 8.52 17.05 11.36
3/25/2021 9:00:00 AM 6.63 43.934 0.283 8.53 17.05 11.38
3/25/2021 9:15:00 AM 6.62 43.916 0.281 8.55 16.37 11.43
3/25/2021 9:30:00 AM 6.62 43.916 0.294 8.55 16.89 11.48
3/25/2021 9:45:00 AM 6.62 43.916 0.295 8.57 17.31 11.54
3/25/2021 10:00:00 AM 6.66 43.988 0.296 8.56 16.02 11.58
3/25/2021 10:15:00 AM 6.7 44.06 0.299 8.57 15.87 11.67
3/25/2021 10:30:00 AM 6.73 44.114 0.297 8.59 15.67 11.73
3/25/2021 10:45:00 AM 6.79 44.222 0.296 8.58 15.33 11.81
3/25/2021 11:00:00 AM 6.9 44.42 0.281 8.62 15.29 11.91
3/25/2021 11:15:00 AM 7.05 44.69 0.291 8.59 16.66 11.98
3/25/2021 11:30:00 AM 7.2 44.96 0.307 8.63 16.01 12.05
3/25/2021 11:45:00 AM 7.37 45.266 0.305 8.65 14.89 12.14
3/25/2021 12:00:00 PM 7.57 45.626 0.301 8.67 15.27 12.25
3/25/2021 12:15:00 PM 7.78 46.004 0.303 8.7 19.12 12.3
3/25/2021 12:30:00 PM 8.02 46.436 0.303 8.72 14.87 12.35
3/25/2021 12:45:00 PM 8.27 46.886 0.304 8.75 15.08 12.41
3/25/2021 1:00:00 PM 8.53 47.354 0.302 8.77 14.85 12.44
3/25/2021 1:15:00 PM 8.76 47.768 0.304 8.8 14.38 12.47
3/25/2021 1:30:00 PM 9.02 48.236 0.302 8.83 14.68 12.51
3/25/2021 1:45:00 PM 9.25 48.65 0.305 8.84 14.48 12.5
3/25/2021 2:00:00 PM 9.5 49.1 0.305 8.87 15.1 12.54
3/25/2021 2:15:00 PM 9.7 49.46 0.304 8.9 14.71 12.56
3/25/2021 2:30:00 PM 9.93 49.874 0.304 8.92 14.68 12.58
3/25/2021 2:45:00 PM 10.15 50.27 0.304 8.93 14.21 12.57
3/25/2021 3:00:00 PM 10.33 50.594 0.305 8.93 53.14 12.47
3/25/2021 3:15:00 PM 10.51 50.918 0.303 8.96 22.74 12.5
3/25/2021 3:30:00 PM 10.65 51.17 0.305 8.97 14.22 12.53
3/25/2021 3:45:00 PM 10.79 51.422 0.304 9 14.21 12.47
3/25/2021 4:00:00 PM 10.9 51.62 0.304 8.99 14.61 12.43
3/25/2021 4:15:00 PM 11.01 51.818 0.305 9.01 14.51 12.41
3/25/2021 4:30:00 PM 11.08 51.944 0.305 9.03 13.97 12.38
3/25/2021 4:45:00 PM 11.16 52.088 0.304 9.06 13.77 12.36
3/25/2021 5:00:00 PM 11.21 52.178 0.305 9.04 13.98 12.29
3/25/2021 5:15:00 PM 11.26 52.268 0.305 9.07 13.76 12.23
3/25/2021 5:30:00 PM 11.3 52.34 0.305 9.05 13.65 12.12
3/25/2021 5:45:00 PM 11.33 52.394 0.307 9.05 13.86 12.05
3/25/2021 6:00:00 PM 11.36 52.448 0.305 9.06 13.54 11.98
3/25/2021 6:15:00 PM 11.38 52.484 0.307 9.05 13.66 11.85
3/25/2021 6:30:00 PM 11.4 52.52 0.308 9.04 13.64 11.75
3/25/2021 6:45:00 PM 11.42 52.556 0.309 9.03 14.4 11.64
3/25/2021 7:00:00 PM 11.44 52.592 0.309 9.03 13.88 11.55
3/25/2021 7:15:00 PM 11.43 52.574 0.309 9.02 13.76 11.43
3/25/2021 7:30:00 PM 11.42 52.556 0.309 9 13.91 11.32
3/25/2021 7:45:00 PM 11.41 52.538 0.309 8.99 13.75 11.2
3/25/2021 8:00:00 PM 11.4 52.52 0.311 8.97 13.92 11.08
3/25/2021 8:15:00 PM 11.38 52.484 0.31 8.96 13.72 11
3/25/2021 8:30:00 PM 11.36 52.448 0.31 8.94 14.09 10.88
3/25/2021 8:45:00 PM 11.35 52.43 0.311 8.91 13.88 10.79
3/25/2021 9:00:00 PM 11.34 52.412 0.312 8.91 13.86 10.71
3/25/2021 9:15:00 PM 11.33 52.394 0.312 8.91 14.02 10.62
3/25/2021 9:30:00 PM 11.31 52.358 0.311 8.89 14.2 10.55
3/25/2021 9:45:00 PM 11.3 52.34 0.313 8.88 14.41 10.46
3/25/2021 10:00:00 PM 11.3 52.34 0.312 8.86 14.47 10.39
3/25/2021 10:15:00 PM 11.29 52.322 0.313 8.84 14.6 10.32
3/25/2021 10:30:00 PM 11.27 52.286 0.313 8.83 14.37 10.27
3/25/2021 10:45:00 PM 11.26 52.268 0.312 8.84 14.16 10.21
3/25/2021 11:00:00 PM 11.25 52.25 0.312 8.82 14.04 10.16
3/25/2021 11:15:00 PM 11.25 52.25 0.312 8.82 14.18 10.11
3/25/2021 11:30:00 PM 11.25 52.25 0.313 8.81 13.96 10.07
3/25/2021 11:45:00 PM 11.25 52.25 0.313 8.82 14.21 10.03
3/26/2021 12:00:00 AM 11.24 52.232 0.314 8.81 15.58 10.01
3/26/2021 12:15:00 AM 11.25 52.25 0.313 8.81 14.18 9.96
3/26/2021 12:30:00 AM 11.25 52.25 0.314 8.8 14.16 9.94
3/26/2021 12:45:00 AM 11.25 52.25 0.313 8.79 14.51 9.92
3/26/2021 1:00:00 AM 11.25 52.25 0.314 8.8 14.28 9.91
3/26/2021 1:15:00 AM 11.25 52.25 0.314 8.79 13.36 9.88
3/26/2021 1:30:00 AM 11.25 52.25 0.314 8.79 13.97 9.86
3/26/2021 1:45:00 AM 11.24 52.232 0.316 8.78 14.04 9.84
3/26/2021 2:00:00 AM 11.24 52.232 0.314 8.76 14 9.83
3/26/2021 2:15:00 AM 11.22 52.196 0.315 8.76 13.64 9.81
3/26/2021 2:30:00 AM 11.21 52.178 0.316 8.76 13.78 9.79
3/26/2021 2:45:00 AM 11.2 52.16 0.316 8.77 14.07 9.79
3/26/2021 3:00:00 AM 11.19 52.142 0.317 8.76 15.89 9.79
3/26/2021 3:15:00 AM 11.18 52.124 0.318 8.76 13.96 9.78
3/26/2021 3:30:00 AM 11.17 52.106 0.317 8.76 14.12 9.76
3/26/2021 3:45:00 AM 11.15 52.07 0.317 8.76 14.21 9.77
3/26/2021 4:00:00 AM 11.12 52.016 0.317 8.76 14.09 9.76
3/26/2021 4:15:00 AM 11.1 51.98 0.318 8.75 13.87 9.76
3/26/2021 4:30:00 AM 11.07 51.926 0.318 8.76 14.14 9.77
3/26/2021 4:45:00 AM 11.03 51.854 0.319 8.75 13.79 9.77
3/26/2021 5:00:00 AM 11 51.8 0.32 8.75 13.67 9.77
3/26/2021 5:15:00 AM 10.96 51.728 0.32 8.75 13.81 9.76
3/26/2021 5:30:00 AM 10.92 51.656 0.321 8.75 13.86 9.77
3/26/2021 5:45:00 AM 10.87 51.566 0.321 8.75 14.12 9.79
3/26/2021 6:00:00 AM 10.82 51.476 0.322 8.74 14.06 9.8
3/26/2021 6:15:00 AM 10.76 51.368 0.322 8.76 13.94 9.81
3/26/2021 6:30:00 AM 10.71 51.278 0.322 8.75 13.98 9.83
3/26/2021 6:45:00 AM 10.66 51.188 0.324 8.75 14.14 9.83
3/26/2021 7:00:00 AM 10.62 51.116 0.324 8.76 13.94 9.86
3/26/2021 7:15:00 AM 10.56 51.008 0.327 8.74 14.53 9.88
3/26/2021 7:30:00 AM 10.51 50.918 0.331 8.76 15.24 9.87
3/26/2021 7:45:00 AM 10.48 50.864 0.333 8.76 14.14 9.9
3/26/2021 8:00:00 AM 10.44 50.792 0.333 8.76 13.25 9.94
3/26/2021 8:15:00 AM 10.42 50.756 0.331 8.76 15.82 9.95
3/26/2021 8:30:00 AM 10.39 50.702 0.329 8.77 13.3 10.03
3/26/2021 8:45:00 AM 10.35 50.63 0.33 8.76 20.65 10.02
3/26/2021 9:00:00 AM 10.32 50.576 0.326 8.78 13.55 10.16
3/26/2021 9:15:00 AM 10.3 50.54 0.327 8.78 12.74 10.2
3/26/2021 9:30:00 AM 10.3 50.54 0.326 8.77 12.67 10.28
3/26/2021 9:45:00 AM 10.28 50.504 0.324 8.79 13.05 10.34
3/26/2021 10:00:00 AM 10.3 50.54 0.324 8.82 12.7 10.45
3/26/2021 10:15:00 AM 10.35 50.63 0.323 8.84 12.06 10.55
3/26/2021 10:30:00 AM 10.37 50.666 0.325 8.82 12.12 10.6
3/26/2021 10:45:00 AM 10.4 50.72 0.323 8.84 12.65 10.68
3/26/2021 11:00:00 AM 10.39 50.702 0.324 8.86 12.54 10.75
3/26/2021 11:15:00 AM 10.48 50.864 0.325 8.88 12.64 10.85
3/26/2021 11:30:00 AM 10.63 51.134 0.324 8.91 13.07 10.97
3/26/2021 11:45:00 AM 10.74 51.332 0.325 8.91 12.59 11.05
3/26/2021 12:00:00 PM 10.82 51.476 0.325 8.92 12.6 11.18
3/26/2021 12:15:00 PM 10.92 51.656 0.326 8.95 12.49 11.23
3/26/2021 12:30:00 PM 10.98 51.764 0.327 8.97 12.62 11.3
3/26/2021 12:45:00 PM 11.01 51.818 0.324 8.98 12.9 11.34
3/26/2021 1:00:00 PM 11.08 51.944 0.325 9.01 12.82 11.39
3/26/2021 1:15:00 PM 11.2 52.16 0.326 9.02 12.59 11.47
3/26/2021 1:30:00 PM 11.28 52.304 0.325 9.06 12.38 11.56
3/26/2021 1:45:00 PM 11.36 52.448 0.325 9.07 14.06 11.57
3/26/2021 2:00:00 PM 11.43 52.574 0.325 9.09 11.77 11.62
3/26/2021 2:15:00 PM 11.46 52.628 0.325 9.11 11.39 11.65
3/26/2021 2:30:00 PM 11.49 52.682 0.326 9.13 10.78 11.67
3/26/2021 2:45:00 PM 11.53 52.754 0.326 9.14 12.76 11.68
3/26/2021 3:00:00 PM 11.57 52.826 0.326 9.15 11.8 11.72
3/26/2021 3:15:00 PM 11.56 52.808 0.327 9.18 11.82 11.74
3/26/2021 3:30:00 PM 11.52 52.736 0.328 9.19 11.6 11.73
3/26/2021 3:45:00 PM 11.47 52.646 0.33 9.17 12.64 11.7
3/26/2021 4:00:00 PM 11.42 52.556 0.332 9.18 11.97 11.66
3/26/2021 4:15:00 PM 11.39 52.502 0.332 9.19 12.28 11.71
3/26/2021 4:30:00 PM 11.39 52.502 0.331 9.2 12.69 11.71
3/26/2021 4:45:00 PM 11.38 52.484 0.331 9.2 11 11.69
3/26/2021 5:00:00 PM 11.33 52.394 0.329 9.19 10.97 11.65
3/26/2021 5:15:00 PM 11.27 52.286 0.329 9.19 11.15 11.57
3/26/2021 5:30:00 PM 11.22 52.196 0.328 9.16 11.15 11.52
3/26/2021 5:45:00 PM 11.17 52.106 0.325 9.14 10.78 11.46
3/26/2021 6:00:00 PM 11.12 52.016 0.324 9.14 11.12 11.41
3/26/2021 6:15:00 PM 11.06 51.908 0.323 9.12 11.11 11.34
3/26/2021 6:30:00 PM 11 51.8 0.322 9.12 11.08 11.28
3/26/2021 6:45:00 PM 10.93 51.674 0.321 9.1 11.4 11.21
3/26/2021 7:00:00 PM 10.87 51.566 0.321 9.07 11.29 11.12
3/26/2021 7:15:00 PM 10.82 51.476 0.32 9.07 13.24 11.07
3/26/2021 7:30:00 PM 10.78 51.404 0.32 9.04 11.47 11
3/26/2021 7:45:00 PM 10.73 51.314 0.318 9.04 11.23 10.96
3/26/2021 8:00:00 PM 10.69 51.242 0.319 9.02 12.86 10.88
3/26/2021 8:15:00 PM 10.65 51.17 0.318 9 11.56 10.82
3/26/2021 8:30:00 PM 10.61 51.098 0.318 8.98 18.32 10.76
3/26/2021 8:45:00 PM 10.57 51.026 0.317 8.98 11.75 10.71
3/26/2021 9:00:00 PM 10.53 50.954 0.317 8.96 11.84 10.66
3/26/2021 9:15:00 PM 10.49 50.882 0.317 8.94 11.4 10.61
3/26/2021 9:30:00 PM 10.45 50.81 0.317 8.94 11.68 10.56
3/26/2021 9:45:00 PM 10.4 50.72 0.318 8.91 11.53 10.51
3/26/2021 10:00:00 PM 10.36 50.648 0.318 8.91 11.85 10.47
3/26/2021 10:15:00 PM 10.32 50.576 0.319 8.9 11.96 10.43
3/26/2021 10:30:00 PM 10.27 50.486 0.32 8.87 11.95 10.4
3/26/2021 10:45:00 PM 10.22 50.396 0.319 8.89 12.2 10.37
3/26/2021 11:00:00 PM 10.15 50.27 0.321 8.87 11.66 10.33
3/26/2021 11:15:00 PM 10.08 50.144 0.32 8.87 11.7 10.31
3/26/2021 11:30:00 PM 10.01 50.018 0.32 8.86 11.64 10.3
3/26/2021 11:45:00 PM 9.94 49.892 0.321 8.85 11.82 10.28
3/27/2021 12:00:00 AM 9.87 49.766 0.322 8.85 11.84 10.27
3/27/2021 12:15:00 AM 9.8 49.64 0.322 8.86 11.87 10.27
3/27/2021 12:30:00 AM 9.73 49.514 0.323 8.85 11.95 10.26
3/27/2021 12:45:00 AM 9.67 49.406 0.323 8.84 11.78 10.25
3/27/2021 1:00:00 AM 9.61 49.298 0.325 8.84 11.81 10.25
3/27/2021 1:15:00 AM 9.54 49.172 0.325 8.84 11.86 10.25
3/27/2021 1:30:00 AM 9.5 49.1 0.325 8.83 11.86 10.25
3/27/2021 1:45:00 AM 9.45 49.01 0.326 8.84 11.6 10.26
3/27/2021 2:00:00 AM 9.41 48.938 0.327 8.83 11.52 10.27
3/27/2021 2:15:00 AM 9.36 48.848 0.328 8.82 11.66 10.26
3/27/2021 2:30:00 AM 9.32 48.776 0.328 8.84 11.83 10.27
3/27/2021 2:45:00 AM 9.28 48.704 0.329 8.83 11.82 10.29
3/27/2021 3:00:00 AM 9.24 48.632 0.329 8.82 11.5 10.28
3/27/2021 3:15:00 AM 9.19 48.542 0.329 8.83 11.32 10.29
3/27/2021 3:30:00 AM 9.16 48.488 0.329 8.82 11.49 10.29
3/27/2021 3:45:00 AM 9.12 48.416 0.33 8.81 12.08 10.3
3/27/2021 4:00:00 AM 9.08 48.344 0.331 8.82 12.79 10.29
3/27/2021 4:15:00 AM 9.03 48.254 0.33 8.82 12.03 10.3
3/27/2021 4:30:00 AM 8.99 48.182 0.331 8.81 11.49 10.3
3/27/2021 4:45:00 AM 8.95 48.11 0.331 8.81 11.57 10.32
3/27/2021 5:00:00 AM 8.91 48.038 0.332 8.82 11.47 10.34
3/27/2021 5:15:00 AM 8.87 47.966 0.332 8.81 11.56 10.35
3/27/2021 5:30:00 AM 8.83 47.894 0.332 8.81 11.22 10.36
3/27/2021 5:45:00 AM 8.78 47.804 0.332 8.81 11.42 10.38
3/27/2021 6:00:00 AM 8.74 47.732 0.333 8.79 11.48 10.38
3/27/2021 6:15:00 AM 8.7 47.66 0.333 8.8 11.91 10.4
3/27/2021 6:30:00 AM 8.65 47.57 0.333 8.8 11.41 10.41
3/27/2021 6:45:00 AM 8.61 47.498 0.333 8.81 11.35 10.45
3/27/2021 7:00:00 AM 8.57 47.426 0.333 8.79 11.79 10.45
3/27/2021 7:15:00 AM 8.52 47.336 0.335 8.79 12.61 10.48
3/27/2021 7:30:00 AM 8.48 47.264 0.336 8.82 11.36 10.5
3/27/2021 7:45:00 AM 8.44 47.192 0.335 8.81 12.58 10.52
3/27/2021 8:00:00 AM 8.4 47.12 0.336 8.8 12.18 10.52
3/27/2021 8:15:00 AM 8.36 47.048 0.337 8.8 14.42 10.55
3/27/2021 8:30:00 AM 8.33 46.994 0.336 8.83 12.61 10.66
3/27/2021 8:45:00 AM 8.29 46.922 0.337 8.83 13.33 10.72
3/27/2021 9:00:00 AM 8.27 46.886 0.338 8.84 12.36 10.82
3/27/2021 9:15:00 AM 8.24 46.832 0.338 8.85 11.95 10.88
3/27/2021 9:30:00 AM 8.22 46.796 0.338 8.84 11.87 10.95
3/27/2021 9:45:00 AM 8.19 46.742 0.338 8.87 11.65 11.03
3/27/2021 10:00:00 AM 8.19 46.742 0.338 8.87 11.83 11.13
3/27/2021 10:15:00 AM 8.19 46.742 0.338 8.88 11.77 11.24
3/27/2021 10:30:00 AM 8.22 46.796 0.339 8.9 11.67 11.38
3/27/2021 10:45:00 AM 8.24 46.832 0.338 8.92 11.59 11.5
3/27/2021 11:00:00 AM 8.32 46.976 0.339 8.92 11.78 11.55
3/27/2021 11:15:00 AM 8.42 47.156 0.339 8.92 11.47 11.6
3/27/2021 11:30:00 AM 8.5 47.3 0.34 8.93 11.57 11.72
3/27/2021 11:45:00 AM 8.62 47.516 0.339 8.97 11.19 11.84
3/27/2021 12:00:00 PM 8.73 47.714 0.339 8.98 11.19 11.94
3/27/2021 12:15:00 PM 8.77 47.786 0.34 8.99 11.06 12.04
3/27/2021 12:30:00 PM 8.8 47.84 0.34 9 10.98 12.11
3/27/2021 12:45:00 PM 8.89 48.002 0.34 9.01 11.6 12.19
3/27/2021 1:00:00 PM 9.12 48.416 0.339 9.04 11.21 12.27
3/27/2021 1:15:00 PM 9.25 48.65 0.339 9.07 11.25 12.32
3/27/2021 1:30:00 PM 9.4 48.92 0.339 9.09 11.11 12.41
3/27/2021 1:45:00 PM 9.6 49.28 0.338 9.13 11 12.52
3/27/2021 2:00:00 PM 9.81 49.658 0.338 9.13 10.88 12.57
3/27/2021 2:15:00 PM 9.97 49.946 0.339 9.14 10.94 12.6
3/27/2021 2:30:00 PM 10.14 50.252 0.339 9.16 11.39 12.64
3/27/2021 2:45:00 PM 10.33 50.594 0.339 9.17 11.22 12.65
3/27/2021 3:00:00 PM 10.47 50.846 0.339 9.2 11.2 12.66
3/27/2021 3:15:00 PM 10.61 51.098 0.339 9.2 11.21 12.67
3/27/2021 3:30:00 PM 10.75 51.35 0.341 9.21 10.75 12.65
3/27/2021 3:45:00 PM 10.86 51.548 0.34 9.21 11.72 12.65
3/27/2021 4:00:00 PM 10.94 51.692 0.34 9.25 10.28 12.66
3/27/2021 4:15:00 PM 11 51.8 0.34 9.25 11.02 12.63
3/27/2021 4:30:00 PM 11.05 51.89 0.34 9.26 10.22 12.63
3/27/2021 4:45:00 PM 11.08 51.944 0.341 9.27 10.35 12.6
3/27/2021 5:00:00 PM 11.11 51.998 0.341 9.26 10.53 12.55
3/27/2021 5:15:00 PM 11.14 52.052 0.341 9.29 11 12.52
3/27/2021 5:30:00 PM 11.19 52.142 0.341 9.29 10.69 12.48
3/27/2021 5:45:00 PM 11.23 52.214 0.341 9.29 10.62 12.42
3/27/2021 6:00:00 PM 11.25 52.25 0.341 9.3 10.53 12.34
3/27/2021 6:15:00 PM 11.25 52.25 0.342 9.27 9.97 12.24
3/27/2021 6:30:00 PM 11.26 52.268 0.342 9.24 10 12.14
3/27/2021 6:45:00 PM 11.26 52.268 0.343 9.24 10.09 12.04
3/27/2021 7:00:00 PM 11.25 52.25 0.343 9.23 10.08 11.92
3/27/2021 7:15:00 PM 11.23 52.214 0.343 9.22 9.96 11.83
3/27/2021 7:30:00 PM 11.21 52.178 0.344 9.2 10.33 11.7
3/27/2021 7:45:00 PM 11.18 52.124 0.344 9.16 10.15 11.57
3/27/2021 8:00:00 PM 11.14 52.052 0.345 9.15 9.84 11.45
3/27/2021 8:15:00 PM 11.1 51.98 0.343 9.14 9.96 11.35
3/27/2021 8:30:00 PM 11.05 51.89 0.344 9.11 9.99 11.25
3/27/2021 8:45:00 PM 11.01 51.818 0.344 9.09 10.37 11.11
3/27/2021 9:00:00 PM 10.96 51.728 0.345 9.05 10.37 11.01
3/27/2021 9:15:00 PM 10.9 51.62 0.345 9.06 10.65 10.92
3/27/2021 9:30:00 PM 10.85 51.53 0.345 9.02 10.57 10.83
3/27/2021 9:45:00 PM 10.79 51.422 0.346 9.01 10.9 10.73
3/27/2021 10:00:00 PM 10.74 51.332 0.346 8.98 10.77 10.64
3/27/2021 10:15:00 PM 10.69 51.242 0.346 8.97 10.9 10.56
3/27/2021 10:30:00 PM 10.63 51.134 0.346 8.93 10.83 10.5
3/27/2021 10:45:00 PM 10.58 51.044 0.347 8.93 11.25 10.41
3/27/2021 11:00:00 PM 10.53 50.954 0.347 8.93 10.9 10.36
3/27/2021 11:15:00 PM 10.47 50.846 0.347 8.9 10.67 10.29
3/27/2021 11:30:00 PM 10.41 50.738 0.347 8.9 10.71 10.25
3/27/2021 11:45:00 PM 10.35 50.63 0.347 8.87 10.97 10.19
3/28/2021 12:00:00 AM 10.29 50.522 0.347 8.86 10.88 10.15
3/28/2021 12:15:00 AM 10.22 50.396 0.347 8.86 10.84 10.12
3/28/2021 12:30:00 AM 10.16 50.288 0.348 8.84 10.84 10.08
3/28/2021 12:45:00 AM 10.1 50.18 0.348 8.84 10.99 10.06
3/28/2021 1:00:00 AM 10.04 50.072 0.348 8.82 10.65 10.05
3/28/2021 1:15:00 AM 9.97 49.946 0.349 8.83 10.85 10.04
3/28/2021 1:30:00 AM 9.91 49.838 0.351 8.83 10.65 10.03
3/28/2021 1:45:00 AM 9.85 49.73 0.349 8.81 10.76 10
3/28/2021 2:00:00 AM 9.79 49.622 0.349 8.82 10.76 10
3/28/2021 2:15:00 AM 9.72 49.496 0.349 8.8 10.6 9.99
3/28/2021 2:30:00 AM 9.66 49.388 0.351 8.81 10.79 9.99
3/28/2021 2:45:00 AM 9.59 49.262 0.351 8.81 10.72 9.99
3/28/2021 3:00:00 AM 9.53 49.154 0.351 8.8 10.85 9.99
3/28/2021 3:15:00 AM 9.46 49.028 0.351 8.8 10.87 9.99
3/28/2021 3:30:00 AM 9.39 48.902 0.351 8.8 10.51 10.02
3/28/2021 3:45:00 AM 9.32 48.776 0.352 8.8 10.56 10.02
3/28/2021 4:00:00 AM 9.25 48.65 0.352 8.79 10.63 10.03
3/28/2021 4:15:00 AM 9.18 48.524 0.353 8.78 10.48 10.04
3/28/2021 4:30:00 AM 9.12 48.416 0.353 8.8 10.62 10.05
3/28/2021 4:45:00 AM 9.05 48.29 0.353 8.8 10.76 10.05
3/28/2021 5:00:00 AM 8.99 48.182 0.353 8.8 10.65 10.08
3/28/2021 5:15:00 AM 8.93 48.074 0.354 8.78 10.35 10.08
3/28/2021 5:30:00 AM 8.88 47.984 0.353 8.8 10.61 10.11
3/28/2021 5:45:00 AM 8.82 47.876 0.354 8.8 10.52 10.12
3/28/2021 6:00:00 AM 8.76 47.768 0.354 8.8 10.63 10.15
3/28/2021 6:15:00 AM 8.71 47.678 0.354 8.8 10.62 10.15
3/28/2021 6:30:00 AM 8.66 47.588 0.354 8.81 10.63 10.17
3/28/2021 6:45:00 AM 8.61 47.498 0.355 8.79 10.84 10.17
3/28/2021 7:00:00 AM 8.58 47.444 0.355 8.81 10.78 10.18
3/28/2021 7:15:00 AM 8.56 47.408 0.356 8.78 11.01 10.2
3/28/2021 7:30:00 AM 8.54 47.372 0.356 8.82 11.01 10.24
3/28/2021 7:45:00 AM 8.52 47.336 0.356 8.79 10.92 10.23
3/28/2021 8:00:00 AM 8.51 47.318 0.356 8.8 37.2 10.19
3/28/2021 8:15:00 AM 8.51 47.318 0.356 8.8 13.05 10.27
3/28/2021 8:30:00 AM 8.51 47.318 0.357 8.8 57.52 10.19
3/28/2021 8:45:00 AM 8.5 47.3 0.357 8.8 12.03 10.29
3/28/2021 9:00:00 AM 8.51 47.318 0.357 8.81 15.57 10.23
3/28/2021 9:15:00 AM 8.51 47.318 0.357 8.82 36.92 10.38
3/28/2021 9:30:00 AM 8.51 47.318 0.358 8.83 10.66 10.48
3/28/2021 9:45:00 AM 8.51 47.318 0.359 8.83 10.12 10.49
3/28/2021 10:00:00 AM 8.51 47.318 0.359 8.83 13.69 10.55
3/28/2021 10:15:00 AM 8.51 47.318 0.359 8.83 9.72 10.61
3/28/2021 10:30:00 AM 8.53 47.354 0.358 8.85 9.73 10.7
3/28/2021 10:45:00 AM 8.54 47.372 0.358 8.86 9.7 10.79
3/28/2021 11:00:00 AM 8.55 47.39 0.359 8.86 9.56 10.84
3/28/2021 11:15:00 AM 8.56 47.408 0.358 8.86 9.84 10.91
3/28/2021 11:30:00 AM 8.59 47.462 0.358 8.86 9.81 10.99
3/28/2021 11:45:00 AM 8.62 47.516 0.358 8.88 15.52 11.03
3/28/2021 12:00:00 PM 8.64 47.552 0.358 8.9 9.63 11.17
3/28/2021 12:15:00 PM 8.67 47.606 0.357 8.92 9.32 11.27
3/28/2021 12:30:00 PM 8.71 47.678 0.357 8.94 9.33 11.36
3/28/2021 12:45:00 PM 8.76 47.768 0.357 8.94 9.36 11.47
3/28/2021 1:00:00 PM 8.8 47.84 0.357 8.98 9.49 11.55
3/28/2021 1:15:00 PM 8.84 47.912 0.357 8.95 9.51 11.61
3/28/2021 1:30:00 PM 8.89 48.002 0.358 8.98 9.55 11.67
3/28/2021 1:45:00 PM 8.94 48.092 0.357 8.99 9.51 11.78
3/28/2021 2:00:00 PM 8.99 48.182 0.357 9 9.53 11.84
3/28/2021 2:15:00 PM 9.07 48.326 0.357 9.04 9.43 11.93
3/28/2021 2:30:00 PM 9.16 48.488 0.357 9.06 9.66 12.03
3/28/2021 2:45:00 PM 9.29 48.722 0.357 9.07 9.48 12.12
3/28/2021 3:00:00 PM 9.36 48.848 0.358 9.1 9.71 12.15
3/28/2021 3:15:00 PM 9.39 48.902 0.358 9.09 9.48 12.13
3/28/2021 3:30:00 PM 9.41 48.938 0.355 9.12 9.92 12.13
3/28/2021 3:45:00 PM 9.44 48.992 0.355 9.1 9.82 12.16
3/28/2021 4:00:00 PM 9.47 49.046 0.355 9.12 9.63 12.15
3/28/2021 4:15:00 PM 9.49 49.082 0.354 9.14 9.96 12.13
3/28/2021 4:30:00 PM 9.52 49.136 0.353 9.14 10.1 12.06
3/28/2021 4:45:00 PM 9.54 49.172 0.353 9.13 10.4 11.98
3/28/2021 5:00:00 PM 9.55 49.19 0.357 9.13 10.55 11.94
3/28/2021 5:15:00 PM 9.55 49.19 0.359 9.09 10.43 11.85
3/28/2021 5:30:00 PM 9.56 49.208 0.361 9.1 10.31 11.86
3/28/2021 5:45:00 PM 9.57 49.226 0.361 9.11 10.47 11.87
3/28/2021 6:00:00 PM 9.57 49.226 0.366 9.08 10.19 11.77
3/28/2021 6:15:00 PM 9.57 49.226 0.363 9.1 10.61 11.77
3/28/2021 6:30:00 PM 9.55 49.19 0.364 9.09 10.33 11.74
3/28/2021 6:45:00 PM 9.53 49.154 0.36 9.07 10.43 11.69
3/28/2021 7:00:00 PM 9.49 49.082 0.356 9.12 10.36 11.7
3/28/2021 7:15:00 PM 9.44 48.992 0.353 9.1 10.45 11.6
3/28/2021 7:30:00 PM 9.39 48.902 0.351 9.09 11.4 11.52
3/28/2021 7:45:00 PM 9.34 48.812 0.35 9.05 10.74 11.42
3/28/2021 8:00:00 PM 9.27 48.686 0.348 9.03 10.78 11.33
3/28/2021 8:15:00 PM 9.2 48.56 0.348 9.03 10.26 11.26
3/28/2021 8:30:00 PM 9.13 48.434 0.346 8.99 10.51 11.19
3/28/2021 8:45:00 PM 9.07 48.326 0.346 9 10.63 11.14
3/28/2021 9:00:00 PM 9.02 48.236 0.346 8.99 10.49 11.09
3/28/2021 9:15:00 PM 8.95 48.11 0.346 8.96 10.61 11.04
3/28/2021 9:30:00 PM 8.89 48.002 0.346 8.96 10.95 11
3/28/2021 9:45:00 PM 8.81 47.858 0.348 8.96 10.86 10.96
3/28/2021 10:00:00 PM 8.74 47.732 0.354 8.94 11.34 10.91
3/28/2021 10:15:00 PM 8.68 47.624 0.363 8.93 11.93 10.86
3/28/2021 10:30:00 PM 8.63 47.534 0.371 8.93 11.84 10.79
3/28/2021 10:45:00 PM 8.57 47.426 0.376 8.91 12.06 10.75
3/28/2021 11:00:00 PM 8.51 47.318 0.376 8.89 11.99 10.7
3/28/2021 11:15:00 PM 8.43 47.174 0.37 8.88 11.94 10.65
3/28/2021 11:30:00 PM 8.36 47.048 0.362 8.86 12.29 10.62
3/28/2021 11:45:00 PM 8.28 46.904 0.354 8.87 11.76 10.62
3/29/2021 12:00:00 AM 8.19 46.742 0.347 8.85 11.78 10.63
3/29/2021 12:15:00 AM 8.1 46.58 0.341 8.83 12.04 10.63
3/29/2021 12:30:00 AM 8 46.4 0.337 8.82 11.79 10.64
3/29/2021 12:45:00 AM 7.88 46.184 0.336 8.81 12.12 10.67
3/29/2021 1:00:00 AM 7.8 46.04 0.337 8.82 12.66 10.66
3/29/2021 1:15:00 AM 7.72 45.896 0.343 8.81 13.08 10.66
3/29/2021 1:30:00 AM 7.64 45.752 0.353 8.81 13.83 10.65
3/29/2021 1:45:00 AM 7.58 45.644 0.363 8.81 14.45 10.64
3/29/2021 2:00:00 AM 7.51 45.518 0.37 8.82 15.4 10.62
3/29/2021 2:15:00 AM 7.46 45.428 0.374 8.82 15.51 10.62
3/29/2021 2:30:00 AM 7.39 45.302 0.374 8.79 15.89 10.61
3/29/2021 2:45:00 AM 7.33 45.194 0.37 8.81 15.92 10.63
3/29/2021 3:00:00 AM 7.25 45.05 0.364 8.81 15.13 10.65
3/29/2021 3:15:00 AM 7.19 44.942 0.358 8.8 14.78 10.67
3/29/2021 3:30:00 AM 7.12 44.816 0.351 8.78 14.28 10.7
3/29/2021 3:45:00 AM 7.03 44.654 0.343 8.79 14.25 10.75
3/29/2021 4:00:00 AM 6.95 44.51 0.335 8.78 13.61 10.81
3/29/2021 4:15:00 AM 6.86 44.348 0.329 8.76 12.7 10.85
3/29/2021 4:30:00 AM 6.77 44.186 0.323 8.77 13.05 10.89
3/29/2021 4:45:00 AM 6.67 44.006 0.317 8.76 13.28 10.96
3/29/2021 5:00:00 AM 6.57 43.826 0.313 8.77 13.32 11.02
3/29/2021 5:15:00 AM 6.5 43.7 0.311 8.74 15.54 11.01
3/29/2021 5:30:00 AM 6.4 43.52 0.308 8.76 14.25 11.08
3/29/2021 5:45:00 AM 6.31 43.358 0.307 8.77 14.1 11.13
3/29/2021 6:00:00 AM 6.23 43.214 0.307 8.76 14.1 11.15
3/29/2021 6:15:00 AM 6.16 43.088 0.306 8.75 14.22 11.18
3/29/2021 6:30:00 AM 6.09 42.962 0.307 8.75 14.26 11.2
3/29/2021 6:45:00 AM 6.03 42.854 0.306 8.76 14.23 11.21
3/29/2021 7:00:00 AM 5.97 42.746 0.305 8.75 14.39 11.24
3/29/2021 7:15:00 AM 5.89 42.602 0.304 8.76 14.35 11.27
3/29/2021 7:30:00 AM 5.82 42.476 0.304 8.77 14.66 11.29
3/29/2021 7:45:00 AM 5.77 42.386 0.304 8.77 13.91 11.32
3/29/2021 8:00:00 AM 5.71 42.278 0.304 8.77 13.81 11.37
3/29/2021 8:15:00 AM 5.65 42.17 0.305 8.78 13.54 11.4
3/29/2021 8:30:00 AM 5.61 42.098 0.306 8.77 13.53 11.43
3/29/2021 8:45:00 AM 5.56 42.008 0.307 8.78 13.98 11.48
3/29/2021 9:00:00 AM 5.52 41.936 0.309 8.78 13.44 11.53
3/29/2021 9:15:00 AM 5.48 41.864 0.31 8.81 13.69 11.59
3/29/2021 9:30:00 AM 5.45 41.81 0.311 8.81 140.79 11.65
3/29/2021 9:45:00 AM 5.42 41.756 0.312 8.82 15.38 11.71
3/29/2021 10:00:00 AM 5.41 41.738 0.313 8.82 13.38 11.81
3/29/2021 10:15:00 AM 5.4 41.72 0.314 8.84 13.77 11.89
3/29/2021 10:30:00 AM 5.39 41.702 0.315 8.82 13.27 11.98
3/29/2021 10:45:00 AM 5.39 41.702 0.316 8.84 13.45 12.07
3/29/2021 11:00:00 AM 5.44 41.792 0.317 8.86 13.26 12.16
3/29/2021 11:15:00 AM 5.52 41.936 0.318 8.87 12.89 12.25
3/29/2021 11:30:00 AM 5.77 42.386 0.327 7.67 4.73 12.16
3/29/2021 11:45:00 AM 5.81 42.458 0.327 7.7 4.51 12.24
3/29/2021 12:00:00 PM 5.92 42.656 0.328 7.7 6.9 12.3
3/29/2021 12:15:00 PM 6.04 42.872 0.328 7.72 4.95 12.4
3/29/2021 12:30:00 PM 6.18 43.124 0.329 7.73 4.32 12.47
3/29/2021 12:45:00 PM 6.32 43.376 0.329 7.75 4.37 12.54
3/29/2021 1:00:00 PM 6.5 43.7 0.328 7.77 4.15 12.62
3/29/2021 1:15:00 PM 6.7 44.06 0.329 7.78 3.93 12.67
3/29/2021 1:30:00 PM 6.91 44.438 0.329 7.8 3.89 12.74
3/29/2021 1:45:00 PM 7.09 44.762 0.33 7.81 3.88 12.79
3/29/2021 2:00:00 PM 7.29 45.122 0.33 7.84 3.86 12.85
3/29/2021 2:15:00 PM 7.46 45.428 0.33 7.85 3.52 12.89
3/29/2021 2:30:00 PM 7.63 45.734 0.331 7.88 3.7 12.94
3/29/2021 2:45:00 PM 7.81 46.058 0.331 7.89 3.63 12.96
3/29/2021 3:00:00 PM 8.01 46.418 0.332 7.92 3.86 12.98
3/29/2021 3:15:00 PM 8.16 46.688 0.331 7.94 3.95 12.99
3/29/2021 3:30:00 PM 8.33 46.994 0.333 7.95 3.89 12.98
3/29/2021 3:45:00 PM 8.47 47.246 0.332 7.97 3.66 12.99
3/29/2021 4:00:00 PM 8.6 47.48 0.333 7.98 3.49 12.97
3/29/2021 4:15:00 PM 8.7 47.66 0.334 7.99 3.41 12.98
3/29/2021 4:30:00 PM 8.79 47.822 0.334 8.01 3.5 12.95
3/29/2021 4:45:00 PM 8.84 47.912 0.333 8.02 3.39 12.93
3/29/2021 5:00:00 PM 8.85 47.93 0.335 8.02 3.79 12.88
3/29/2021 5:15:00 PM 8.86 47.948 0.335 8.03 3.28 12.86
3/29/2021 5:30:00 PM 8.86 47.948 0.336 8.05 3.32 12.82
3/29/2021 5:45:00 PM 8.86 47.948 0.335 8.05 3.21 12.77
3/29/2021 6:00:00 PM 8.84 47.912 0.336 8.04 3.39 12.69
3/29/2021 6:15:00 PM 8.81 47.858 0.337 8.04 3.22 12.62
3/29/2021 6:30:00 PM 8.79 47.822 0.336 8.04 3.31 12.56
3/29/2021 6:45:00 PM 8.75 47.75 0.338 8.02 3.15 12.48
3/29/2021 7:00:00 PM 8.7 47.66 0.339 8.02 3.26 12.4
3/29/2021 7:15:00 PM 8.65 47.57 0.338 8.01 3.18 12.33
3/29/2021 7:30:00 PM 8.6 47.48 0.339 8 3.21 12.23
3/29/2021 7:45:00 PM 8.54 47.372 0.339 7.98 3.15 12.13
3/29/2021 8:00:00 PM 8.48 47.264 0.34 7.96 4.17 12
3/29/2021 8:15:00 PM 8.44 47.192 0.342 7.94 3.09 11.89
3/29/2021 8:30:00 PM 8.39 47.102 0.343 7.91 3.52 11.79
3/29/2021 8:45:00 PM 8.33 46.994 0.343 7.9 3.23 11.72
3/29/2021 9:00:00 PM 8.28 46.904 0.344 7.88 3.09 11.62
3/29/2021 9:15:00 PM 8.23 46.814 0.345 7.86 3.41 11.55
3/29/2021 9:30:00 PM 8.17 46.706 0.345 7.85 3.36 11.46
3/29/2021 9:45:00 PM 8.11 46.598 0.347 7.83 3.38 11.39
3/29/2021 10:00:00 PM 8.05 46.49 0.347 7.82 3.55 11.33
3/29/2021 10:15:00 PM 8 46.4 0.349 7.8 3.65 11.26
3/29/2021 10:30:00 PM 7.94 46.292 0.348 7.8 3.45 11.2
3/29/2021 10:45:00 PM 7.89 46.202 0.349 7.78 3.33 11.12
3/29/2021 11:00:00 PM 7.84 46.112 0.35 7.75 3.64 11.06
3/29/2021 11:15:00 PM 7.78 46.004 0.349 7.76 3.64 11.02
3/29/2021 11:30:00 PM 7.73 45.914 0.349 7.75 3.49 10.99
3/29/2021 11:45:00 PM 7.68 45.824 0.35 7.73 3.26 10.94
3/30/2021 12:00:00 AM 7.63 45.734 0.349 7.72 3.4 10.9
3/30/2021 12:15:00 AM 7.58 45.644 0.349 7.72 3.22 10.87
3/30/2021 12:30:00 AM 7.52 45.536 0.35 7.71 3.17 10.85
3/30/2021 12:45:00 AM 7.46 45.428 0.349 7.7 3.13 10.84
3/30/2021 1:00:00 AM 7.4 45.32 0.351 7.7 3.18 10.82
3/30/2021 1:15:00 AM 7.34 45.212 0.353 7.69 3.15 10.8
3/30/2021 1:30:00 AM 7.27 45.086 0.351 7.69 3.18 10.82
3/30/2021 1:45:00 AM 7.2 44.96 0.352 7.69 3.28 10.83
3/30/2021 2:00:00 AM 7.13 44.834 0.353 7.68 3.25 10.81
3/30/2021 2:15:00 AM 7.06 44.708 0.352 7.68 3.17 10.82
3/30/2021 2:30:00 AM 7 44.6 0.354 7.68 3.18 10.82
3/30/2021 2:45:00 AM 6.94 44.492 0.354 7.67 3.19 10.82
3/30/2021 3:00:00 AM 6.87 44.366 0.353 7.68 3.12 10.85
3/30/2021 3:15:00 AM 6.8 44.24 0.355 7.67 3.15 10.85
3/30/2021 3:30:00 AM 6.74 44.132 0.357 7.67 3.1 10.84
3/30/2021 3:45:00 AM 6.67 44.006 0.355 7.67 3.18 10.86
3/30/2021 4:00:00 AM 6.61 43.898 0.357 7.67 3.26 10.88
3/30/2021 4:15:00 AM 6.54 43.772 0.358 7.66 3.12 10.9
3/30/2021 4:30:00 AM 6.48 43.664 0.359 7.66 3.03 10.89
3/30/2021 4:45:00 AM 6.42 43.556 0.358 7.66 3.07 10.9
3/30/2021 5:00:00 AM 6.35 43.43 0.359 7.66 2.94 10.93
3/30/2021 5:15:00 AM 6.28 43.304 0.359 7.66 2.95 10.94
3/30/2021 5:30:00 AM 6.22 43.196 0.361 7.66 3.2 10.95
3/30/2021 5:45:00 AM 6.15 43.07 0.36 7.66 3.01 10.96
3/30/2021 6:00:00 AM 6.08 42.944 0.36 7.67 2.99 11.01
3/30/2021 6:15:00 AM 6.02 42.836 0.361 7.66 3.03 11.02
3/30/2021 6:30:00 AM 5.95 42.71 0.362 7.66 3.05 11.02
3/30/2021 6:45:00 AM 5.88 42.584 0.364 7.66 3.21 11.05
3/30/2021 7:00:00 AM 5.82 42.476 0.363 7.66 3.31 11.07
3/30/2021 7:15:00 AM 5.76 42.368 0.364 7.66 3.36 11.1
3/30/2021 7:30:00 AM 5.68 42.224 0.363 7.66 3.23 11.14
3/30/2021 7:45:00 AM 5.62 42.116 0.364 7.66 3.43 11.16
3/30/2021 8:00:00 AM 5.55 41.99 0.368 7.67 3.6 11.21
3/30/2021 8:15:00 AM 5.48 41.864 0.365 7.67 3.33 11.27
3/30/2021 8:30:00 AM 5.41 41.738 0.366 7.68 3.21 11.35
3/30/2021 8:45:00 AM 5.35 41.63 0.364 7.69 3.24 11.39
3/30/2021 9:00:00 AM 5.29 41.522 0.366 7.69 3.05 11.45
3/30/2021 9:15:00 AM 5.25 41.45 0.366 7.69 3.17 11.51
3/30/2021 9:30:00 AM 5.21 41.378 0.367 7.7 2.89 11.6
3/30/2021 9:45:00 AM 5.18 41.324 0.367 7.7 2.93 11.7
3/30/2021 10:00:00 AM 5.19 41.342 0.367 7.71 3.14 11.79
3/30/2021 10:15:00 AM 5.2 41.36 0.366 7.73 3.17 11.88
3/30/2021 10:30:00 AM 5.23 41.414 0.366 7.73 3.18 11.94
3/30/2021 10:45:00 AM 5.26 41.468 0.368 7.74 2.74 12.01
3/30/2021 11:00:00 AM 5.33 41.594 0.367 7.75 2.76 12.11
3/30/2021 11:15:00 AM 5.44 41.792 0.367 7.77 3.02 12.24
3/30/2021 11:30:00 AM 5.59 42.062 0.366 7.78 2.81 12.35
3/30/2021 11:45:00 AM 5.77 42.386 0.366 7.8 2.87 12.46
3/30/2021 12:00:00 PM 5.96 42.728 0.368 7.81 2.65 12.56
3/30/2021 12:15:00 PM 6.16 43.088 0.367 7.82 2.82 12.67
3/30/2021 12:30:00 PM 6.39 43.502 0.366 7.84 2.83 12.75
3/30/2021 12:45:00 PM 6.63 43.934 0.367 7.84 2.85 12.81
3/30/2021 1:00:00 PM 6.9 44.42 0.367 7.88 2.8 12.91
3/30/2021 1:15:00 PM 7.18 44.924 0.367 7.9 2.74 12.98
3/30/2021 1:30:00 PM 7.47 45.446 0.366 7.92 2.74 13.04
3/30/2021 1:45:00 PM 7.76 45.968 0.367 7.93 2.77 13.07
3/30/2021 2:00:00 PM 8.04 46.472 0.367 7.93 2.79 13.11
3/30/2021 2:15:00 PM 8.34 47.012 0.367 7.97 2.76 13.14
3/30/2021 2:30:00 PM 8.59 47.462 0.369 7.98 2.67 13.13
3/30/2021 2:45:00 PM 8.85 47.93 0.367 7.99 2.99 13.11
3/30/2021 3:00:00 PM 9.07 48.326 0.367 8 2.64 13.09
3/30/2021 3:15:00 PM 9.32 48.776 0.366 8.04 2.62 13.13
3/30/2021 3:30:00 PM 9.5 49.1 0.366 8.05 2.7 13.11
3/30/2021 3:45:00 PM 9.7 49.46 0.366 8.07 2.85 13.07
3/30/2021 4:00:00 PM 9.87 49.766 0.367 8.09 2.76 13.06
3/30/2021 4:15:00 PM 10.01 50.018 0.366 8.1 2.92 13.02
3/30/2021 4:30:00 PM 10.11 50.198 0.367 8.11 2.73 12.94
3/30/2021 4:45:00 PM 10.19 50.342 0.367 8.11 2.72 12.88
3/30/2021 5:00:00 PM 10.25 50.45 0.367 8.11 2.85 12.83
3/30/2021 5:15:00 PM 10.31 50.558 0.368 8.11 2.96 12.78
3/30/2021 5:30:00 PM 10.38 50.684 0.367 8.15 2.82 12.72
3/30/2021 5:45:00 PM 10.39 50.702 0.367 8.15 2.91 12.63
3/30/2021 6:00:00 PM 10.4 50.72 0.368 8.14 2.81 12.55
3/30/2021 6:15:00 PM 10.39 50.702 0.368 8.15 2.77 12.47
3/30/2021 6:30:00 PM 10.38 50.684 0.368 8.14 2.76 12.36
3/30/2021 6:45:00 PM 10.37 50.666 0.369 8.13 2.89 12.25
3/30/2021 7:00:00 PM 10.37 50.666 0.368 8.12 2.91 12.18
3/30/2021 7:15:00 PM 10.35 50.63 0.369 8.1 2.94 12.06
3/30/2021 7:30:00 PM 10.32 50.576 0.37 8.05 3.81 11.91
3/30/2021 7:45:00 PM 10.31 50.558 0.369 8.07 3.73 11.8
3/30/2021 8:00:00 PM 10.28 50.504 0.37 8.03 2.86 11.69
3/30/2021 8:15:00 PM 10.25 50.45 0.37 8.02 2.7 11.56
3/30/2021 8:30:00 PM 10.22 50.396 0.37 8.01 3.26 11.48
3/30/2021 8:45:00 PM 10.19 50.342 0.37 7.99 2.68 11.36
3/30/2021 9:00:00 PM 10.16 50.288 0.371 7.95 2.83 11.24
3/30/2021 9:15:00 PM 10.13 50.234 0.37 7.95 2.82 11.16
3/30/2021 9:30:00 PM 10.09 50.162 0.371 7.92 2.9 11.07
3/30/2021 9:45:00 PM 10.06 50.108 0.371 7.91 3.1 10.98
3/30/2021 10:00:00 PM 10.02 50.036 0.371 7.89 3.3 10.89
3/30/2021 10:15:00 PM 9.98 49.964 0.371 7.87 3.2 10.8
3/30/2021 10:30:00 PM 9.94 49.892 0.372 7.85 3.12 10.71
3/30/2021 10:45:00 PM 9.91 49.838 0.372 7.84 2.99 10.63
3/30/2021 11:00:00 PM 9.88 49.784 0.373 7.81 3.19 10.55
3/30/2021 11:15:00 PM 9.85 49.73 0.373 7.81 3.33 10.47
3/30/2021 11:30:00 PM 9.82 49.676 0.373 7.78 3.37 10.4
3/30/2021 11:45:00 PM 9.79 49.622 0.373 7.78 3.07 10.36
3/31/2021 12:00:00 AM 9.76 49.568 0.374 7.76 3.42 10.3
3/31/2021 12:15:00 AM 9.73 49.514 0.374 7.75 2.96 10.24
3/31/2021 12:30:00 AM 9.7 49.46 0.374 7.74 3.05 10.18
3/31/2021 12:45:00 AM 9.68 49.424 0.375 7.73 3.03 10.15
3/31/2021 1:00:00 AM 9.65 49.37 0.374 7.72 3.1 10.11
3/31/2021 1:15:00 AM 9.62 49.316 0.376 7.7 2.97 10.08
3/31/2021 1:30:00 AM 9.59 49.262 0.375 7.7 2.94 10.06
3/31/2021 1:45:00 AM 9.56 49.208 0.376 7.69 2.94 10.02
3/31/2021 2:00:00 AM 9.53 49.154 0.376 7.67 2.99 10
3/31/2021 2:15:00 AM 9.5 49.1 0.376 7.67 2.84 10
3/31/2021 2:30:00 AM 9.48 49.064 0.376 7.67 2.99 9.98
3/31/2021 2:45:00 AM 9.45 49.01 0.377 7.66 3.01 9.96
3/31/2021 3:00:00 AM 9.42 48.956 0.377 7.66 3.21 9.96
3/31/2021 3:15:00 AM 9.39 48.902 0.377 7.64 3.13 9.94
3/31/2021 3:30:00 AM 9.36 48.848 0.378 7.65 3.05 9.94
3/31/2021 3:45:00 AM 9.32 48.776 0.378 7.65 3.07 9.93
3/31/2021 4:00:00 AM 9.29 48.722 0.378 7.65 2.92 9.92
3/31/2021 4:15:00 AM 9.27 48.686 0.38 7.64 3.08 9.94
3/31/2021 4:30:00 AM 9.24 48.632 0.38 7.64 3.08 9.92
3/31/2021 4:45:00 AM 9.22 48.596 0.379 7.64 2.97 9.94
3/31/2021 5:00:00 AM 9.19 48.542 0.379 7.64 3.12 9.95
3/31/2021 5:15:00 AM 9.16 48.488 0.379 7.64 3.07 9.95
3/31/2021 5:30:00 AM 9.14 48.452 0.38 7.65 3.08 9.94
3/31/2021 5:45:00 AM 9.11 48.398 0.38 7.64 3.08 9.93
3/31/2021 6:00:00 AM 9.08 48.344 0.379 7.64 3.18 9.97
3/31/2021 6:15:00 AM 9.06 48.308 0.382 7.63 3.3 9.96
3/31/2021 6:30:00 AM 9.04 48.272 0.38 7.64 3.31 9.96
3/31/2021 6:45:00 AM 9.02 48.236 0.383 7.62 3.88 9.94
3/31/2021 7:00:00 AM 9 48.2 0.381 7.63 3.67 9.93
3/31/2021 7:15:00 AM 8.98 48.164 0.383 7.61 2.98 9.95
3/31/2021 7:30:00 AM 8.96 48.128 0.383 7.62 2.95 9.97
3/31/2021 7:45:00 AM 8.95 48.11 0.382 7.64 3.13 10.02
3/31/2021 8:00:00 AM 8.94 48.092 0.383 7.65 3.32 10.06
3/31/2021 8:15:00 AM 8.93 48.074 0.384 7.64 3.25 10.09
3/31/2021 8:30:00 AM 8.92 48.056 0.383 7.65 3.26 10.15
3/31/2021 8:45:00 AM 8.91 48.038 0.384 7.64 8.94 10.17
3/31/2021 9:00:00 AM 8.9 48.02 0.383 7.66 10.01 10.2
3/31/2021 9:15:00 AM 8.89 48.002 0.383 7.66 2.66 10.27
3/31/2021 9:30:00 AM 8.89 48.002 0.385 7.66 3.5 10.31
3/31/2021 9:45:00 AM 8.89 48.002 0.385 7.65 3.18 10.35
3/31/2021 10:00:00 AM 8.88 47.984 0.387 7.69 2.89 10.46
3/31/2021 10:15:00 AM 8.88 47.984 0.385 7.7 2.63 10.56
3/31/2021 10:30:00 AM 8.88 47.984 0.386 7.7 2.67 10.6
3/31/2021 10:45:00 AM 8.87 47.966 0.386 7.71 2.65 10.67
3/31/2021 11:00:00 AM 8.86 47.948 0.385 7.73 2.62 10.76
3/31/2021 11:15:00 AM 8.86 47.948 0.385 7.73 2.48 10.83
3/31/2021 11:30:00 AM 8.86 47.948 0.384 7.75 2.54 10.93
3/31/2021 11:45:00 AM 8.85 47.93 0.384 7.77 2.44 11.02
3/31/2021 12:00:00 PM 8.84 47.912 0.384 7.78 2.77 11.11
3/31/2021 12:15:00 PM 8.84 47.912 0.385 7.79 2.63 11.17
3/31/2021 12:30:00 PM 8.83 47.894 0.385 7.81 2.49 11.27
3/31/2021 12:45:00 PM 8.83 47.894 0.386 7.81 2.95 11.35
3/31/2021 1:00:00 PM 8.83 47.894 0.385 7.83 2.83 11.44
3/31/2021 1:15:00 PM 8.83 47.894 0.384 7.85 2.69 11.52
3/31/2021 1:30:00 PM 8.83 47.894 0.384 7.84 2.56 11.54
3/31/2021 1:45:00 PM 8.89 48.002 0.385 7.88 2.64 11.71
3/31/2021 2:00:00 PM 8.94 48.092 0.384 7.89 2.47 11.81
3/31/2021 2:15:00 PM 8.99 48.182 0.384 7.91 2.46 11.89
3/31/2021 2:30:00 PM 9.01 48.218 0.386 7.93 2.47 11.97
3/31/2021 2:45:00 PM 9.06 48.308 0.383 7.97 2.5 12.12
3/31/2021 3:00:00 PM 9.09 48.362 0.384 7.98 2.28 12.15
3/31/2021 3:15:00 PM 9.12 48.416 0.383 7.99 2.42 12.25
3/31/2021 3:30:00 PM 9.13 48.434 0.383 8.02 2.51 12.27
3/31/2021 3:45:00 PM 9.14 48.452 0.383 8.03 2.29 12.29
3/31/2021 4:00:00 PM 9.14 48.452 0.383 8.04 2.37 12.27
3/31/2021 4:15:00 PM 9.15 48.47 0.383 8.03 2.23 12.25
3/31/2021 4:30:00 PM 9.15 48.47 0.383 8.04 2.8 12.24
3/31/2021 4:45:00 PM 9.16 48.488 0.383 8.04 2.37 12.22
3/31/2021 5:00:00 PM 9.16 48.488 0.383 8.05 2.34 12.23
3/31/2021 5:15:00 PM 9.16 48.488 0.384 8.05 2.24 12.17
3/31/2021 5:30:00 PM 9.15 48.47 0.383 8.02 2.21 12.07
3/31/2021 5:45:00 PM 9.13 48.434 0.382 8.03 2.26 12.06
3/31/2021 6:00:00 PM 9.11 48.398 0.382 8.02 2.27 11.99
3/31/2021 6:15:00 PM 9.08 48.344 0.382 8.01 2.29 11.91
3/31/2021 6:30:00 PM 9.07 48.326 0.382 8 2.52 11.84
3/31/2021 6:45:00 PM 9.04 48.272 0.382 8 2.67 11.78
3/31/2021 7:00:00 PM 9.01 48.218 0.383 7.98 2.35 11.69
3/31/2021 7:15:00 PM 8.98 48.164 0.383 7.96 2.5 11.59
3/31/2021 7:30:00 PM 8.93 48.074 0.385 7.93 2.38 11.48
3/31/2021 7:45:00 PM 8.88 47.984 0.387 7.93 2.46 11.42
3/31/2021 8:00:00 PM 8.82 47.876 0.39 7.91 2.42 11.33
3/31/2021 8:15:00 PM 8.77 47.786 0.393 7.88 2.62 11.23
3/31/2021 8:30:00 PM 8.72 47.696 0.394 7.87 2.51 11.15
3/31/2021 8:45:00 PM 8.66 47.588 0.394 7.85 2.66 11.08
3/31/2021 9:00:00 PM 8.62 47.516 0.395 7.83 2.91 11.01
3/31/2021 9:15:00 PM 8.57 47.426 0.393 7.82 2.84 10.95
3/31/2021 9:30:00 PM 8.52 47.336 0.393 7.8 2.78 10.91
3/31/2021 9:45:00 PM 8.48 47.264 0.39 7.79 2.87 10.85
3/31/2021 10:00:00 PM 8.43 47.174 0.387 7.78 2.7 10.81
3/31/2021 10:15:00 PM 8.39 47.102 0.386 7.77 2.86 10.76
3/31/2021 10:30:00 PM 8.35 47.03 0.384 7.75 2.72 10.7
3/31/2021 10:45:00 PM 8.31 46.958 0.384 7.74 2.59 10.68
3/31/2021 11:00:00 PM 8.27 46.886 0.382 7.73 2.81 10.68
3/31/2021 11:15:00 PM 8.23 46.814 0.381 7.73 2.78 10.66
3/31/2021 11:30:00 PM 8.2 46.76 0.381 7.72 2.49 10.61
3/31/2021 11:45:00 PM 8.16 46.688 0.381 7.71 2.85 10.61
4/1/2021 12:00:00 AM 8.13 46.634 0.38 7.71 2.56 10.6
4/1/2021 12:15:00 AM 8.1 46.58 0.382 7.69 2.93 10.58
4/1/2021 12:30:00 AM 8.07 46.526 0.385 7.69 2.53 10.55
4/1/2021 12:45:00 AM 8.03 46.454 0.386 7.71 3.05 10.6
4/1/2021 1:00:00 AM 7.99 46.382 0.389 7.7 2.98 10.57
4/1/2021 1:15:00 AM 7.96 46.328 0.393 7.69 2.79 10.51
4/1/2021 1:30:00 AM 7.91 46.238 0.397 7.69 3.06 10.52
4/1/2021 1:45:00 AM 7.87 46.166 0.399 7.68 2.96 10.5
4/1/2021 2:00:00 AM 7.81 46.058 0.4 7.68 2.99 10.52
4/1/2021 2:15:00 AM 7.76 45.968 0.4 7.67 2.88 10.5
4/1/2021 2:30:00 AM 7.68 45.824 0.399 7.66 2.91 10.49
4/1/2021 2:45:00 AM 7.57 45.626 0.397 7.67 3.23 10.51
4/1/2021 3:00:00 AM 7.48 45.464 0.395 7.67 3.21 10.5
4/1/2021 3:15:00 AM 7.42 45.356 0.394 7.66 3.14 10.48
4/1/2021 3:30:00 AM 7.28 45.104 0.39 7.66 3.12 10.52
4/1/2021 3:45:00 AM 7.24 45.032 0.386 7.67 3.08 10.52
4/1/2021 4:00:00 AM 7.23 45.014 0.384 7.66 3.06 10.54
4/1/2021 4:15:00 AM 7.2 44.96 0.382 7.66 3.1 10.55
4/1/2021 4:30:00 AM 7.17 44.906 0.379 7.66 2.96 10.57
4/1/2021 4:45:00 AM 7.13 44.834 0.377 7.67 3.1 10.58
4/1/2021 5:00:00 AM 7.08 44.744 0.375 7.67 3.17 10.62
4/1/2021 5:15:00 AM 7.04 44.672 0.375 7.66 3.12 10.62
4/1/2021 5:30:00 AM 7 44.6 0.373 7.66 3.15 10.61
4/1/2021 5:45:00 AM 6.96 44.528 0.373 7.66 3.21 10.64
4/1/2021 6:00:00 AM 6.92 44.456 0.372 7.65 3.15 10.66
4/1/2021 6:15:00 AM 6.89 44.402 0.372 7.65 3.28 10.66
4/1/2021 6:30:00 AM 6.84 44.312 0.372 7.65 3.3 10.66
4/1/2021 6:45:00 AM 6.78 44.204 0.372 7.66 6.83 10.7
4/1/2021 7:00:00 AM 6.72 44.096 0.371 7.66 2.99 10.71
4/1/2021 7:15:00 AM 6.67 44.006 0.373 7.65 3.13 10.73
4/1/2021 7:30:00 AM 6.61 43.898 0.374 7.65 3.18 10.77
4/1/2021 7:45:00 AM 6.56 43.808 0.372 7.66 3.46 10.82
4/1/2021 8:00:00 AM 6.52 43.736 0.373 7.66 2.91 10.89
4/1/2021 8:15:00 AM 6.49 43.682 0.374 7.67 3.55 10.96
4/1/2021 8:30:00 AM 6.46 43.628 0.373 7.69 2.96 11.06
4/1/2021 8:45:00 AM 6.44 43.592 0.373 7.69 2.8 11.1
4/1/2021 9:00:00 AM 6.4 43.52 0.373 7.7 2.89 11.19
4/1/2021 9:15:00 AM 6.36 43.448 0.373 7.72 2.81 11.29
4/1/2021 9:30:00 AM 6.34 43.412 0.373 7.73 2.93 11.42
4/1/2021 9:45:00 AM 6.32 43.376 0.375 7.74 2.81 11.5
4/1/2021 10:00:00 AM 6.34 43.412 0.376 7.75 2.97 11.61
4/1/2021 10:15:00 AM 6.33 43.394 0.377 7.77 2.82 11.69
4/1/2021 10:30:00 AM 6.35 43.43 0.378 7.77 2.63 11.77
4/1/2021 10:45:00 AM 6.36 43.448 0.377 7.78 2.61 11.82
4/1/2021 11:00:00 AM 6.41 43.538 0.377 7.8 2.54 11.99
4/1/2021 11:15:00 AM 6.49 43.682 0.381 7.81 2.61 12.08
4/1/2021 11:30:00 AM 6.57 43.826 0.386 7.83 2.61 12.19
4/1/2021 11:45:00 AM 6.56 43.808 0.393 7.84 2.51 12.3
4/1/2021 12:00:00 PM 6.58 43.844 0.401 7.86 2.5 12.44
4/1/2021 12:15:00 PM 6.63 43.934 0.404 7.88 2.54 12.51
4/1/2021 12:30:00 PM 6.73 44.114 0.403 7.9 2.51 12.61
4/1/2021 12:45:00 PM 6.81 44.258 0.4 7.92 2.5 12.7
4/1/2021 1:00:00 PM 6.88 44.384 0.396 7.94 2.57 12.77
4/1/2021 1:15:00 PM 6.99 44.582 0.391 7.97 2.62 12.84
4/1/2021 1:30:00 PM 7.09 44.762 0.386 7.99 2.6 12.91
4/1/2021 1:45:00 PM 7.16 44.888 0.384 8 5.29 12.97
4/1/2021 2:00:00 PM 7.25 45.05 0.381 8.03 2.79 13.03
4/1/2021 2:15:00 PM 7.39 45.302 0.379 8.05 2.87 13.08
4/1/2021 2:30:00 PM 7.55 45.59 0.379 8.06 4.48 13.08
4/1/2021 2:45:00 PM 7.7 45.86 0.379 8.09 2.92 13.15
4/1/2021 3:00:00 PM 7.78 46.004 0.381 8.11 3.02 13.12
4/1/2021 3:15:00 PM 7.97 46.346 0.382 8.12 2.76 13.12
4/1/2021 3:30:00 PM 8.02 46.436 0.382 8.17 2.75 13.23
4/1/2021 3:45:00 PM 8.02 46.436 0.38 8.18 3.4 13.21
4/1/2021 4:00:00 PM 8.05 46.49 0.38 8.2 3.46 13.25
4/1/2021 4:15:00 PM 8.15 46.67 0.379 8.21 2.87 13.25
4/1/2021 4:30:00 PM 8.18 46.724 0.379 8.22 2.66 13.23
4/1/2021 4:45:00 PM 8.17 46.706 0.377 8.25 2.77 13.25
4/1/2021 5:00:00 PM 8.11 46.598 0.377 8.25 2.98 13.22
4/1/2021 5:15:00 PM 8.05 46.49 0.378 8.26 2.83 13.19
4/1/2021 5:30:00 PM 8.01 46.418 0.38 8.27 3.84 13.18
4/1/2021 5:45:00 PM 7.99 46.382 0.379 8.27 3.42 13.13
4/1/2021 6:00:00 PM 7.93 46.274 0.379 8.26 3.95 13.07
4/1/2021 6:15:00 PM 7.89 46.202 0.379 8.27 2.76 13.05
4/1/2021 6:30:00 PM 7.85 46.13 0.374 8.26 2.69 12.98
4/1/2021 6:45:00 PM 7.77 45.986 0.373 8.24 3.05 12.87
4/1/2021 7:00:00 PM 7.7 45.86 0.369 8.25 3.71 12.83
4/1/2021 7:15:00 PM 7.63 45.734 0.368 8.23 2.64 12.76
4/1/2021 7:30:00 PM 7.56 45.608 0.365 8.2 2.75 12.68
4/1/2021 7:45:00 PM 7.49 45.482 0.363 8.18 3.07 12.58
4/1/2021 8:00:00 PM 7.43 45.374 0.361 8.16 3.21 12.48
4/1/2021 8:15:00 PM 7.37 45.266 0.36 8.15 2.96 12.4
4/1/2021 8:30:00 PM 7.31 45.158 0.359 8.13 2.95 12.33
4/1/2021 8:45:00 PM 7.25 45.05 0.358 8.1 3.16 12.24
4/1/2021 9:00:00 PM 7.19 44.942 0.358 8.08 3.96 12.15
4/1/2021 9:15:00 PM 7.12 44.816 0.359 8.06 3.2 12.06
4/1/2021 9:30:00 PM 7.03 44.654 0.359 8.04 3.19 12
4/1/2021 9:45:00 PM 6.95 44.51 0.359 8.01 3.18 11.92
4/1/2021 10:00:00 PM 6.86 44.348 0.366 7.97 3.3 11.8
4/1/2021 10:15:00 PM 6.77 44.186 0.362 7.96 2.95 11.79
4/1/2021 10:30:00 PM 6.69 44.042 0.362 7.94 3.23 11.71
4/1/2021 10:45:00 PM 6.6 43.88 0.363 7.92 3.48 11.64
4/1/2021 11:00:00 PM 6.53 43.754 0.365 7.9 3.86 11.58
4/1/2021 11:15:00 PM 6.45 43.61 0.365 7.88 3.37 11.54
4/1/2021 11:30:00 PM 6.41 43.538 0.366 7.85 3.06 11.49
4/1/2021 11:45:00 PM 6.35 43.43 0.367 7.83 3.44 11.4
4/2/2021 12:00:00 AM 6.27 43.286 0.365 7.82 3.51 11.36
4/2/2021 12:15:00 AM 6.2 43.16 0.366 7.81 4.15 11.34
4/2/2021 12:30:00 AM 6.11 42.998 0.364 7.79 3.24 11.31
4/2/2021 12:45:00 AM 6.03 42.854 0.365 7.78 3.22 11.28
4/2/2021 1:00:00 AM 5.97 42.746 0.365 7.77 3.26 11.25
4/2/2021 1:15:00 AM 5.87 42.566 0.363 7.76 3.35 11.27
4/2/2021 1:30:00 AM 5.78 42.404 0.362 7.75 3.16 11.27
4/2/2021 1:45:00 AM 5.69 42.242 0.362 7.74 3.13 11.27
4/2/2021 2:00:00 AM 5.6 42.08 0.36 7.73 2.94 11.27
4/2/2021 2:15:00 AM 5.51 41.918 0.358 7.73 3.1 11.28
4/2/2021 2:30:00 AM 5.42 41.756 0.358 7.72 3.1 11.33
4/2/2021 2:45:00 AM 5.34 41.612 0.357 7.71 3.08 11.28
4/2/2021 3:00:00 AM 5.25 41.45 0.357 7.7 5.69 11.33
4/2/2021 3:15:00 AM 5.16 41.288 0.357 7.71 3.22 11.38
4/2/2021 3:30:00 AM 5.08 41.144 0.357 7.7 3.03 11.37
4/2/2021 3:45:00 AM 5 41 0.357 7.7 3.24 11.42
4/2/2021 4:00:00 AM 4.92 40.856 0.356 7.69 3.03 11.42
4/2/2021 4:15:00 AM 4.85 40.73 0.357 7.68 3.17 11.41
4/2/2021 4:30:00 AM 4.79 40.622 0.355 7.69 3.08 11.44
4/2/2021 4:45:00 AM 4.73 40.514 0.356 7.68 3.33 11.45
4/2/2021 5:00:00 AM 4.65 40.37 0.357 7.68 3.14 11.49
4/2/2021 5:15:00 AM 4.58 40.244 0.356 7.68 3.18 11.49
4/2/2021 5:30:00 AM 4.5 40.1 0.358 7.67 3 11.5
4/2/2021 5:45:00 AM 4.43 39.974 0.357 7.68 3.15 11.55
4/2/2021 6:00:00 AM 4.37 39.866 0.358 7.66 3.14 11.55
4/2/2021 6:15:00 AM 4.31 39.758 0.358 7.67 3.2 11.57
4/2/2021 6:30:00 AM 4.22 39.596 0.36 7.67 3.14 11.62
4/2/2021 6:45:00 AM 4.15 39.47 0.361 7.66 3.15 11.62
4/2/2021 7:00:00 AM 4.05 39.29 0.358 7.66 3.16 11.71
4/2/2021 7:15:00 AM 3.99 39.182 0.359 7.67 3.01 11.74
4/2/2021 7:30:00 AM 3.92 39.056 0.361 7.67 2.88 11.78
4/2/2021 7:45:00 AM 3.84 38.912 0.36 7.68 3.2 11.85
4/2/2021 8:00:00 AM 3.78 38.804 0.363 7.67 3.11 11.84
4/2/2021 8:15:00 AM 3.7 38.66 0.363 7.68 3.21 11.93
4/2/2021 8:30:00 AM 3.65 38.57 0.365 7.68 3.17 11.97
4/2/2021 8:45:00 AM 3.55 38.39 0.363 7.69 5.5 12.07
4/2/2021 9:00:00 AM 3.47 38.246 0.363 7.7 3.04 12.14
4/2/2021 9:15:00 AM 3.39 38.102 0.363 7.71 3.01 12.22
4/2/2021 9:30:00 AM 3.34 38.012 0.365 7.72 3.03 12.32
4/2/2021 9:45:00 AM 3.3 37.94 0.365 7.72 2.98 12.39
4/2/2021 10:00:00 AM 3.29 37.922 0.365 7.73 2.95 12.48
4/2/2021 10:15:00 AM 3.27 37.886 0.365 7.74 3.12 12.56
4/2/2021 10:30:00 AM 3.27 37.886 0.371 7.75 2.97 12.65
4/2/2021 10:45:00 AM 3.26 37.868 0.366 7.76 2.96 12.75
4/2/2021 11:00:00 AM 3.32 37.976 0.365 7.78 2.87 12.89
4/2/2021 11:15:00 AM 3.41 38.138 0.369 7.78 3.11 12.96
4/2/2021 11:30:00 AM 3.54 38.372 0.367 7.8 2.98 13.04
4/2/2021 11:45:00 AM 3.69 38.642 0.366 7.83 3.07 13.23
4/2/2021 12:00:00 PM 3.87 38.966 0.366 7.84 2.97 13.31
4/2/2021 12:15:00 PM 4.04 39.272 0.365 7.85 2.93 13.38
4/2/2021 12:30:00 PM 4.24 39.632 0.367 7.86 2.85 13.49
4/2/2021 12:45:00 PM 4.47 40.046 0.366 7.89 2.88 13.56
4/2/2021 1:00:00 PM 4.69 40.442 0.368 7.89 2.87 13.59
4/2/2021 1:15:00 PM 4.94 40.892 0.366 7.93 2.76 13.68
4/2/2021 1:30:00 PM 5.18 41.324 0.367 7.94 2.8 13.73
4/2/2021 1:45:00 PM 5.43 41.774 0.367 7.96 2.79 13.76
4/2/2021 2:00:00 PM 5.67 42.206 0.366 7.98 2.69 13.8
4/2/2021 2:15:00 PM 5.92 42.656 0.367 7.99 2.72 13.81
4/2/2021 2:30:00 PM 6.14 43.052 0.367 8.01 2.84 13.81
4/2/2021 2:45:00 PM 6.34 43.412 0.366 8.03 2.78 13.84
4/2/2021 3:00:00 PM 6.53 43.754 0.368 8.03 2.71 13.81
4/2/2021 3:15:00 PM 6.69 44.042 0.369 8.04 3.47 13.78
4/2/2021 3:30:00 PM 6.83 44.294 0.368 8.06 2.87 13.76
4/2/2021 3:45:00 PM 6.95 44.51 0.371 8.05 2.63 13.74
4/2/2021 4:00:00 PM 7.07 44.726 0.37 8.06 2.93 13.73
4/2/2021 4:15:00 PM 7.16 44.888 0.371 8.06 2.75 13.7
4/2/2021 4:30:00 PM 7.25 45.05 0.368 8.02 2.73 13.64
4/2/2021 4:45:00 PM 7.3 45.14 0.37 8.11 2.53 13.64
4/2/2021 5:00:00 PM 7.33 45.194 0.371 8.11 2.72 13.59
4/2/2021 5:15:00 PM 7.34 45.212 0.372 8.1 2.79 13.54
4/2/2021 5:30:00 PM 7.35 45.23 0.371 8.1 2.62 13.46
4/2/2021 5:45:00 PM 7.34 45.212 0.372 8.12 2.59 13.38
4/2/2021 6:00:00 PM 7.3 45.14 0.371 8.13 2.68 13.36
4/2/2021 6:15:00 PM 7.25 45.05 0.371 8.15 2.6 13.34
4/2/2021 6:30:00 PM 7.2 44.96 0.372 8.14 2.88 13.26
4/2/2021 6:45:00 PM 7.14 44.852 0.372 8.13 2.63 13.15
4/2/2021 7:00:00 PM 7.07 44.726 0.372 8.13 2.51 13.09
4/2/2021 7:15:00 PM 7.01 44.618 0.373 8.12 2.64 12.98
4/2/2021 7:30:00 PM 6.94 44.492 0.373 8.11 2.55 12.91
4/2/2021 7:45:00 PM 6.87 44.366 0.374 8.1 2.68 12.8
4/2/2021 8:00:00 PM 6.81 44.258 0.375 8.08 2.59 12.7
4/2/2021 8:15:00 PM 6.76 44.168 0.376 8.07 2.63 12.62
4/2/2021 8:30:00 PM 6.71 44.078 0.378 8.03 2.6 12.47
4/2/2021 8:45:00 PM 6.65 43.97 0.381 8.01 2.68 12.38
4/2/2021 9:00:00 PM 6.58 43.844 0.382 7.99 2.87 12.29
4/2/2021 9:15:00 PM 6.51 43.718 0.385 7.99 2.81 12.21
4/2/2021 9:30:00 PM 6.45 43.61 0.386 7.95 3.03 12.13
4/2/2021 9:45:00 PM 6.38 43.484 0.386 7.93 2.96 12.05
4/2/2021 10:00:00 PM 6.32 43.376 0.386 7.93 2.95 12
4/2/2021 10:15:00 PM 6.26 43.268 0.385 7.91 2.88 11.9
4/2/2021 10:30:00 PM 6.19 43.142 0.383 7.9 2.95 11.86
4/2/2021 10:45:00 PM 6.12 43.016 0.381 7.89 2.81 11.8
4/2/2021 11:00:00 PM 6.05 42.89 0.381 7.87 2.75 11.75
4/2/2021 11:15:00 PM 5.98 42.764 0.38 7.85 2.83 11.67
4/2/2021 11:30:00 PM 5.91 42.638 0.378 7.84 2.98 11.64
4/2/2021 11:45:00 PM 5.85 42.53 0.382 7.82 3.02 11.58
4/3/2021 12:00:00 AM 5.78 42.404 0.379 7.81 3.1 11.54
4/3/2021 12:15:00 AM 5.71 42.278 0.38 7.8 3.03 11.51
4/3/2021 12:30:00 AM 5.66 42.188 0.38 7.78 2.9 11.46
4/3/2021 12:45:00 AM 5.59 42.062 0.38 7.77 2.91 11.45
4/3/2021 1:00:00 AM 5.51 41.918 0.382 7.77 2.92 11.44
4/3/2021 1:15:00 AM 5.44 41.792 0.38 7.76 2.83 11.44
4/3/2021 1:30:00 AM 5.39 41.702 0.379 7.75 2.86 11.4
4/3/2021 1:45:00 AM 5.32 41.576 0.38 7.74 2.9 11.41
4/3/2021 2:00:00 AM 5.26 41.468 0.381 7.74 2.85 11.39
4/3/2021 2:15:00 AM 5.19 41.342 0.383 7.74 2.83 11.43
4/3/2021 2:30:00 AM 5.11 41.198 0.382 7.74 2.89 11.44
4/3/2021 2:45:00 AM 5.04 41.072 0.382 7.73 2.92 11.44
4/3/2021 3:00:00 AM 4.96 40.928 0.385 7.73 3.05 11.45
4/3/2021 3:15:00 AM 4.9 40.82 0.382 7.73 3.06 11.46
4/3/2021 3:30:00 AM 4.82 40.676 0.381 7.72 2.99 11.48
4/3/2021 3:45:00 AM 4.76 40.568 0.385 7.72 3 11.5
4/3/2021 4:00:00 AM 4.67 40.406 0.383 7.72 3.03 11.51
4/3/2021 4:15:00 AM 4.61 40.298 0.382 7.71 3.03 11.53
4/3/2021 4:30:00 AM 4.53 40.154 0.382 7.71 3.1 11.52
4/3/2021 4:45:00 AM 4.46 40.028 0.384 7.7 2.98 11.55
4/3/2021 5:00:00 AM 4.39 39.902 0.386 7.7 2.93 11.57
4/3/2021 5:15:00 AM 4.33 39.794 0.386 7.7 3.05 11.6
4/3/2021 5:30:00 AM 4.25 39.65 0.389 7.69 2.95 11.62
4/3/2021 5:45:00 AM 4.19 39.542 0.384 7.7 3.13 11.61
4/3/2021 6:00:00 AM 4.13 39.434 0.386 7.7 3.16 11.66
4/3/2021 6:15:00 AM 4.05 39.29 0.385 7.7 3.05 11.69
4/3/2021 6:30:00 AM 4 39.2 0.392 7.7 3.27 11.7
4/3/2021 6:45:00 AM 3.93 39.074 0.39 7.7 2.94 11.72
4/3/2021 7:00:00 AM 3.88 38.984 0.389 7.69 3.07 11.74
4/3/2021 7:15:00 AM 3.81 38.858 0.388 7.7 2.95 11.77
4/3/2021 7:30:00 AM 3.76 38.768 0.386 7.69 2.88 11.81
4/3/2021 7:45:00 AM 3.7 38.66 0.387 7.7 2.94 11.86
4/3/2021 8:00:00 AM 3.63 38.534 0.387 7.71 3.03 11.93
4/3/2021 8:15:00 AM 3.59 38.462 0.388 7.71 2.85 11.96
4/3/2021 8:30:00 AM 3.54 38.372 0.387 7.71 2.81 12.05
4/3/2021 8:45:00 AM 3.51 38.318 0.387 7.71 2.81 12.09
4/3/2021 9:00:00 AM 3.46 38.228 0.386 7.71 2.8 12.16
4/3/2021 9:15:00 AM 3.42 38.156 0.39 7.72 2.94 12.24
4/3/2021 9:30:00 AM 3.4 38.12 0.385 7.74 2.85 12.34
4/3/2021 9:45:00 AM 3.39 38.102 0.388 7.75 2.91 12.44
4/3/2021 10:00:00 AM 3.42 38.156 0.386 7.76 2.7 12.55
4/3/2021 10:15:00 AM 3.45 38.21 0.387 7.77 3.82 12.62
4/3/2021 10:30:00 AM 3.48 38.264 0.39 7.77 2.77 12.69
4/3/2021 10:45:00 AM 3.51 38.318 0.388 7.78 2.74 12.81
4/3/2021 11:00:00 AM 3.61 38.498 0.389 7.79 2.66 12.87
4/3/2021 11:15:00 AM 3.71 38.678 0.387 7.8 2.84 12.99
4/3/2021 11:30:00 AM 3.86 38.948 0.388 7.83 2.67 13.04
4/3/2021 11:45:00 AM 4.02 39.236 0.388 7.83 2.67 13.2
4/3/2021 12:00:00 PM 4.2 39.56 0.396 7.84 2.63 13.3
4/3/2021 12:15:00 PM 4.4 39.92 0.389 7.86 2.67 13.4
4/3/2021 12:30:00 PM 4.62 40.316 0.389 7.88 2.57 13.5
4/3/2021 12:45:00 PM 4.84 40.712 0.39 7.88 3.06 13.54
4/3/2021 1:00:00 PM 5.08 41.144 0.391 7.91 2.55 13.64
4/3/2021 1:15:00 PM 5.32 41.576 0.395 7.93 2.85 13.69
4/3/2021 1:30:00 PM 5.62 42.116 0.391 7.93 2.52 13.78
4/3/2021 1:45:00 PM 5.87 42.566 0.387 7.96 2.63 13.82
4/3/2021 2:00:00 PM 6.03 42.854 0.388 7.97 2.58 13.86
4/3/2021 2:15:00 PM 6.23 43.214 0.387 7.98 2.56 13.89
4/3/2021 2:30:00 PM 6.41 43.538 0.391 8 2.7 13.91
4/3/2021 2:45:00 PM 6.58 43.844 0.388 8.02 2.5 13.94
4/3/2021 3:00:00 PM 6.72 44.096 0.389 8.03 2.76 13.9
4/3/2021 3:15:00 PM 6.85 44.33 0.392 8.07 2.45 13.95
4/3/2021 3:30:00 PM 7.02 44.636 0.388 8.07 2.48 13.93
4/3/2021 3:45:00 PM 7.11 44.798 0.39 8.08 2.44 13.93
4/3/2021 4:00:00 PM 7.18 44.924 0.387 8.11 2.51 13.93
4/3/2021 4:15:00 PM 7.26 45.068 0.388 8.09 2.44 13.86
4/3/2021 4:30:00 PM 7.36 45.248 0.388 8.12 2.45 13.87
4/3/2021 4:45:00 PM 7.46 45.428 0.389 8.16 2.43 13.88
4/3/2021 5:00:00 PM 7.51 45.518 0.392 8.15 2.29 13.81
4/3/2021 5:15:00 PM 7.55 45.59 0.391 8.18 2.32 13.76
4/3/2021 5:30:00 PM 7.57 45.626 0.387 8.19 2.35 13.78
4/3/2021 5:45:00 PM 7.59 45.662 0.389 8.21 2.37 13.72
4/3/2021 6:00:00 PM 7.61 45.698 0.388 8.22 2.31 13.62
4/3/2021 6:15:00 PM 7.6 45.68 0.388 8.2 2.31 13.58
4/3/2021 6:30:00 PM 7.59 45.662 0.389 8.21 2.35 13.48
4/3/2021 6:45:00 PM 7.58 45.644 0.389 8.2 2.42 13.41
4/3/2021 7:00:00 PM 7.57 45.626 0.391 8.2 2.42 13.29
4/3/2021 7:15:00 PM 7.55 45.59 0.389 8.2 2.26 13.2
4/3/2021 7:30:00 PM 7.51 45.518 0.388 8.18 2.53 13.06
4/3/2021 7:45:00 PM 7.47 45.446 0.391 8.16 2.41 12.95
4/3/2021 8:00:00 PM 7.45 45.41 0.393 8.15 2.41 12.85
4/3/2021 8:15:00 PM 7.43 45.374 0.392 8.12 2.41 12.71
4/3/2021 8:30:00 PM 7.4 45.32 0.392 8.11 2.39 12.6
4/3/2021 8:45:00 PM 7.37 45.266 0.392 8.08 2.47 12.48
4/3/2021 9:00:00 PM 7.34 45.212 0.394 8.06 2.44 12.36
4/3/2021 9:15:00 PM 7.33 45.194 0.393 8.04 2.49 12.23
4/3/2021 9:30:00 PM 7.31 45.158 0.399 8.01 2.61 12.15
4/3/2021 9:45:00 PM 7.31 45.158 0.391 8 2.66 12.03
4/3/2021 10:00:00 PM 7.29 45.122 0.395 7.97 2.68 11.94
4/3/2021 10:15:00 PM 7.27 45.086 0.396 7.96 2.78 11.85
4/3/2021 10:30:00 PM 7.25 45.05 0.393 7.93 2.69 11.69
4/3/2021 10:45:00 PM 7.23 45.014 0.394 7.92 2.7 11.64
4/3/2021 11:00:00 PM 7.21 44.978 0.398 7.91 2.8 11.58
4/3/2021 11:15:00 PM 7.19 44.942 0.392 7.89 2.78 11.52
4/3/2021 11:30:00 PM 7.16 44.888 0.394 7.87 2.83 11.42
4/3/2021 11:45:00 PM 7.14 44.852 0.392 7.85 2.76 11.37
4/4/2021 12:00:00 AM 7.12 44.816 0.398 7.83 2.63 11.27
4/4/2021 12:15:00 AM 7.1 44.78 0.399 7.81 2.85 11.18
4/4/2021 12:30:00 AM 7.08 44.744 0.396 7.8 2.93 11.18
4/4/2021 12:45:00 AM 7.06 44.708 0.398 7.79 2.76 11.09
4/4/2021 1:00:00 AM 7.04 44.672 0.394 7.78 2.74 11.03
4/4/2021 1:15:00 AM 7.03 44.654 0.397 7.77 2.73 11.03
4/4/2021 1:30:00 AM 7.01 44.618 0.397 7.76 2.75 10.97
4/4/2021 1:45:00 AM 7 44.6 0.4 7.74 2.75 10.86
4/4/2021 2:00:00 AM 6.99 44.582 0.394 7.74 2.61 10.92
4/4/2021 2:15:00 AM 6.98 44.564 0.402 7.73 2.65 10.91
4/4/2021 2:30:00 AM 6.97 44.546 0.395 7.73 2.78 10.89
4/4/2021 2:45:00 AM 6.97 44.546 0.397 7.71 2.64 10.84
4/4/2021 3:00:00 AM 6.96 44.528 0.395 7.72 2.58 10.84
4/4/2021 3:15:00 AM 6.95 44.51 0.395 7.71 2.71 10.82
4/4/2021 3:30:00 AM 6.93 44.474 0.397 7.71 2.76 10.81
4/4/2021 3:45:00 AM 6.92 44.456 0.397 7.7 2.8 10.8
4/4/2021 4:00:00 AM 6.9 44.42 0.395 7.7 2.5 10.77
4/4/2021 4:15:00 AM 6.88 44.384 0.395 7.69 2.69 10.76
4/4/2021 4:30:00 AM 6.86 44.348 0.395 7.69 2.69 10.76
4/4/2021 4:45:00 AM 6.84 44.312 0.395 7.69 2.85 10.76
4/4/2021 5:00:00 AM 6.81 44.258 0.395 7.69 2.67 10.76
4/4/2021 5:15:00 AM 6.78 44.204 0.396 7.69 2.74 10.76
4/4/2021 5:30:00 AM 6.76 44.168 0.396 7.68 2.56 10.74
4/4/2021 5:45:00 AM 6.74 44.132 0.396 7.68 2.51 10.74
4/4/2021 6:00:00 AM 6.72 44.096 0.396 7.68 2.66 10.76
4/4/2021 6:15:00 AM 6.7 44.06 0.396 7.67 2.82 10.75
4/4/2021 6:30:00 AM 6.67 44.006 0.396 7.66 2.68 10.74
4/4/2021 6:45:00 AM 6.64 43.952 0.396 7.67 2.59 10.74
4/4/2021 7:00:00 AM 6.6 43.88 0.397 7.67 2.64 10.74
4/4/2021 7:15:00 AM 6.56 43.808 0.396 7.66 2.71 10.75
4/4/2021 7:30:00 AM 6.53 43.754 0.397 7.67 2.55 10.78
4/4/2021 7:45:00 AM 6.5 43.7 0.397 7.67 2.78 10.82
4/4/2021 8:00:00 AM 6.47 43.646 0.398 7.67 2.69 10.87
4/4/2021 8:15:00 AM 6.44 43.592 0.398 7.67 2.73 10.93
4/4/2021 8:30:00 AM 6.41 43.538 0.398 7.68 3.58 10.97
4/4/2021 8:45:00 AM 6.39 43.502 0.399 7.69 2.66 11.03
4/4/2021 9:00:00 AM 6.37 43.466 0.399 7.69 2.6 11.11
4/4/2021 9:15:00 AM 6.36 43.448 0.4 7.69 2.75 11.15
4/4/2021 9:30:00 AM 6.35 43.43 0.399 7.71 2.66 11.3
4/4/2021 9:45:00 AM 6.37 43.466 0.399 7.72 2.51 11.36
4/4/2021 10:00:00 AM 6.42 43.556 0.399 7.73 2.54 11.49
4/4/2021 10:15:00 AM 6.47 43.646 0.4 7.73 2.77 11.56
4/4/2021 10:30:00 AM 6.53 43.754 0.4 7.75 2.57 11.66
4/4/2021 10:45:00 AM 6.59 43.862 0.399 7.77 2.71 11.79
4/4/2021 11:00:00 AM 6.7 44.06 0.4 7.79 2.81 11.88
4/4/2021 11:15:00 AM 6.81 44.258 0.401 7.79 2.68 11.97
4/4/2021 11:30:00 AM 6.97 44.546 0.4 7.81 2.61 12.08
4/4/2021 11:45:00 AM 7.15 44.87 0.399 7.83 2.65 12.22
4/4/2021 12:00:00 PM 7.33 45.194 0.4 7.82 2.56 12.3
4/4/2021 12:15:00 PM 7.54 45.572 0.398 7.88 2.61 12.5
4/4/2021 12:30:00 PM 7.76 45.968 0.399 7.89 2.54 12.55
4/4/2021 12:45:00 PM 8 46.4 0.398 7.92 2.96 12.74
4/4/2021 1:00:00 PM 8.28 46.904 0.397 7.96 2.54 12.9
4/4/2021 1:15:00 PM 8.44 47.192 0.397 7.97 2.47 12.96
4/4/2021 1:30:00 PM 8.57 47.426 0.401 7.99 2.54 13.02
4/4/2021 1:45:00 PM 8.79 47.822 0.397 8.01 2.55 13.09
4/4/2021 2:00:00 PM 9.04 48.272 0.398 8.05 2.52 13.09
4/4/2021 2:15:00 PM 9.32 48.776 0.396 8.08 2.52 13.22
4/4/2021 2:30:00 PM 9.53 49.154 0.398 8.08 2.51 13.22
4/4/2021 2:45:00 PM 9.75 49.55 0.396 8.13 2.52 13.28
4/4/2021 3:00:00 PM 9.96 49.928 0.396 8.16 2.56 13.3
4/4/2021 3:15:00 PM 10.11 50.198 0.397 8.15 2.67 13.34
4/4/2021 3:30:00 PM 10.28 50.504 0.396 8.17 2.7 13.34
4/4/2021 3:45:00 PM 10.36 50.648 0.397 8.22 2.55 13.31
4/4/2021 4:00:00 PM 10.51 50.918 0.396 8.17 2.48 13.27
4/4/2021 4:15:00 PM 10.65 51.17 0.395 8.26 2.42 13.28
4/4/2021 4:30:00 PM 10.75 51.35 0.395 8.24 2.47 13.23
4/4/2021 4:45:00 PM 10.8 51.44 0.397 8.27 2.92 13.19
4/4/2021 5:00:00 PM 10.84 51.512 0.395 8.29 2.45 13.13
4/4/2021 5:15:00 PM 10.86 51.548 0.396 8.28 2.44 13.06
4/4/2021 5:30:00 PM 10.87 51.566 0.396 8.27 2.52 13.01
4/4/2021 5:45:00 PM 10.87 51.566 0.396 8.28 2.49 12.93
4/4/2021 6:00:00 PM 10.85 51.53 0.396 8.25 2.68 12.82
4/4/2021 6:15:00 PM 10.85 51.53 0.397 8.29 2.53 12.76
4/4/2021 6:30:00 PM 10.84 51.512 0.397 8.28 2.82 12.66
4/4/2021 6:45:00 PM 10.82 51.476 0.395 8.27 2.98 12.63
4/4/2021 7:00:00 PM 10.79 51.422 0.395 8.3 2.47 12.54
4/4/2021 7:15:00 PM 10.74 51.332 0.395 8.29 2.54 12.4
4/4/2021 7:30:00 PM 10.7 51.26 0.395 8.3 2.53 12.32
4/4/2021 7:45:00 PM 10.66 51.188 0.395 8.27 2.5 12.19
4/4/2021 8:00:00 PM 10.6 51.08 0.395 8.25 2.62 12.05
4/4/2021 8:15:00 PM 10.54 50.972 0.395 8.22 2.59 11.89
4/4/2021 8:30:00 PM 10.49 50.882 0.395 8.19 2.63 11.75
4/4/2021 8:45:00 PM 10.44 50.792 0.395 8.17 2.65 11.59
4/4/2021 9:00:00 PM 10.39 50.702 0.395 8.13 2.66 11.49
4/4/2021 9:15:00 PM 10.34 50.612 0.395 8.12 2.66 11.35
4/4/2021 9:30:00 PM 10.29 50.522 0.396 8.08 2.7 11.2
4/4/2021 9:45:00 PM 10.22 50.396 0.397 8.03 2.74 11.08
4/4/2021 10:00:00 PM 10.15 50.27 0.396 8.03 2.88 11.01
4/4/2021 10:15:00 PM 10.07 50.126 0.398 7.99 2.88 10.89
4/4/2021 10:30:00 PM 9.99 49.982 0.398 7.96 3 10.77
4/4/2021 10:45:00 PM 9.9 49.82 0.398 7.96 2.88 10.74
4/4/2021 11:00:00 PM 9.81 49.658 0.398 7.92 2.98 10.64
4/4/2021 11:15:00 PM 9.72 49.496 0.398 7.91 3 10.56
4/4/2021 11:30:00 PM 9.63 49.334 0.399 7.87 2.87 10.48
4/4/2021 11:45:00 PM 9.54 49.172 0.398 7.86 2.93 10.44
4/5/2021 12:00:00 AM 9.45 49.01 0.399 7.84 2.92 10.37
4/5/2021 12:15:00 AM 9.37 48.866 0.398 7.83 2.92 10.32
4/5/2021 12:30:00 AM 9.28 48.704 0.399 7.81 2.93 10.28
4/5/2021 12:45:00 AM 9.19 48.542 0.399 7.78 2.9 10.21
4/5/2021 1:00:00 AM 9.1 48.38 0.399 7.76 2.78 10.18
4/5/2021 1:15:00 AM 9.02 48.236 0.4 7.74 2.91 10.12
4/5/2021 1:30:00 AM 8.94 48.092 0.399 7.74 2.91 10.12
4/5/2021 1:45:00 AM 8.86 47.948 0.399 7.73 2.87 10.1
4/5/2021 2:00:00 AM 8.78 47.804 0.4 7.71 3.07 10.07
4/5/2021 2:15:00 AM 8.71 47.678 0.4 7.71 2.81 10.07
4/5/2021 2:30:00 AM 8.62 47.516 0.4 7.7 2.7 10.07
4/5/2021 2:45:00 AM 8.55 47.39 0.401 7.69 2.79 10.05
4/5/2021 3:00:00 AM 8.47 47.246 0.401 7.68 3.26 10.05
4/5/2021 3:15:00 AM 8.39 47.102 0.401 7.67 3.07 10.07
4/5/2021 3:30:00 AM 8.31 46.958 0.401 7.68 2.84 10.09
4/5/2021 3:45:00 AM 8.24 46.832 0.402 7.67 2.96 10.1
4/5/2021 4:00:00 AM 8.17 46.706 0.402 7.67 2.84 10.09
4/5/2021 4:15:00 AM 8.09 46.562 0.403 7.67 2.82 10.12
4/5/2021 4:30:00 AM 8.02 46.436 0.403 7.66 2.79 10.12
4/5/2021 4:45:00 AM 7.95 46.31 0.404 7.66 2.7 10.13
4/5/2021 5:00:00 AM 7.88 46.184 0.404 7.66 2.79 10.14
4/5/2021 5:15:00 AM 7.81 46.058 0.406 7.64 2.94 10.16
4/5/2021 5:30:00 AM 7.75 45.95 0.407 7.65 2.76 10.17
4/5/2021 5:45:00 AM 7.68 45.824 0.405 7.65 2.66 10.2
4/5/2021 6:00:00 AM 7.62 45.716 0.407 7.65 4.65 10.2
4/5/2021 6:15:00 AM 7.57 45.626 0.406 7.64 2.61 10.18
4/5/2021 6:30:00 AM 7.51 45.518 0.408 7.64 2.63 10.19
4/5/2021 6:45:00 AM 7.43 45.374 0.406 7.65 3.23 10.23
4/5/2021 7:00:00 AM 7.37 45.266 0.409 7.63 2.66 10.24
4/5/2021 7:15:00 AM 7.31 45.158 0.41 7.63 3 10.24
4/5/2021 7:30:00 AM 7.23 45.014 0.41 7.63 2.7 10.32
4/5/2021 7:45:00 AM 7.16 44.888 0.409 7.64 2.68 10.38
4/5/2021 8:00:00 AM 7.1 44.78 0.41 7.64 2.51 10.43
4/5/2021 8:15:00 AM 7.04 44.672 0.41 7.65 2.51 10.49
4/5/2021 8:30:00 AM 6.98 44.564 0.411 7.64 2.59 10.58
4/5/2021 8:45:00 AM 6.92 44.456 0.411 7.67 2.65 10.67
4/5/2021 9:00:00 AM 6.88 44.384 0.413 7.67 2.66 10.71
4/5/2021 9:15:00 AM 6.83 44.294 0.412 7.68 2.72 10.88
4/5/2021 9:30:00 AM 6.81 44.258 0.411 7.68 2.61 10.97
4/5/2021 9:45:00 AM 6.83 44.294 0.415 7.69 2.64 11
4/5/2021 10:00:00 AM 6.85 44.33 0.412 7.72 2.63 11.13
4/5/2021 10:15:00 AM 6.88 44.384 0.413 7.72 2.66 11.23
4/5/2021 10:30:00 AM 6.94 44.492 0.412 7.72 2.58 11.35
4/5/2021 10:45:00 AM 6.98 44.564 0.413 7.74 2.62 11.47
4/5/2021 11:00:00 AM 7.06 44.708 0.416 7.73 2.49 11.51
4/5/2021 11:15:00 AM 7.17 44.906 0.413 7.77 2.65 11.67
4/5/2021 11:30:00 AM 7.31 45.158 0.412 7.8 2.45 11.82
4/5/2021 11:45:00 AM 7.48 45.464 0.413 7.81 2.39 11.96
4/5/2021 12:00:00 PM 7.64 45.752 0.415 7.82 2.35 12.12
4/5/2021 12:15:00 PM 7.86 46.148 0.413 7.83 2.41 12.19
4/5/2021 12:30:00 PM 8.09 46.562 0.412 7.87 2.38 12.4
4/5/2021 12:45:00 PM 8.3 46.94 0.412 7.87 2.52 12.46
4/5/2021 1:00:00 PM 8.52 47.336 0.412 7.91 2.21 12.6
4/5/2021 1:15:00 PM 8.75 47.75 0.413 7.94 2.23 12.71
4/5/2021 1:30:00 PM 8.98 48.164 0.414 7.95 2.29 12.86
4/5/2021 1:45:00 PM 9.3 48.74 0.411 8.01 2.22 12.97
4/5/2021 2:00:00 PM 9.53 49.154 0.413 8.06 2.37 13.05
4/5/2021 2:15:00 PM 9.76 49.568 0.413 8.07 2.55 13.14
4/5/2021 2:30:00 PM 10.01 50.018 0.412 8.11 2.16 13.12
4/5/2021 2:45:00 PM 10.24 50.432 0.411 8.14 2.14 13.25
4/5/2021 3:00:00 PM 10.49 50.882 0.411 8.19 2.2 13.31
4/5/2021 3:15:00 PM 10.74 51.332 0.411 8.23 2.16 13.37
4/5/2021 3:30:00 PM 10.92 51.656 0.411 8.26 2.18 13.4
4/5/2021 3:45:00 PM 11.07 51.926 0.41 8.25 2.24 13.34
4/5/2021 4:00:00 PM 11.21 52.178 0.411 8.27 2.21 13.39
4/5/2021 4:15:00 PM 11.33 52.394 0.411 8.28 2.23 13.28
4/5/2021 4:30:00 PM 11.44 52.592 0.41 8.32 2.15 13.32
4/5/2021 4:45:00 PM 11.53 52.754 0.41 8.27 2.13 13.28
4/5/2021 5:00:00 PM 11.59 52.862 0.41 8.31 3.05 13.25
4/5/2021 5:15:00 PM 11.63 52.934 0.409 8.34 2.09 13.25
4/5/2021 5:30:00 PM 11.65 52.97 0.409 8.4 2.03 13.28
4/5/2021 5:45:00 PM 11.67 53.006 0.409 8.41 2.21 13.22
4/5/2021 6:00:00 PM 11.68 53.024 0.409 8.43 2.04 13.14
4/5/2021 6:15:00 PM 11.66 52.988 0.409 8.43 2.05 13.1
4/5/2021 6:30:00 PM 11.63 52.934 0.409 8.44 1.95 12.99
4/5/2021 6:45:00 PM 11.59 52.862 0.408 8.44 2.06 12.94
4/5/2021 7:00:00 PM 11.55 52.79 0.409 8.44 2.02 12.83
4/5/2021 7:15:00 PM 11.48 52.664 0.409 8.42 2.17 12.7
4/5/2021 7:30:00 PM 11.41 52.538 0.409 8.41 2.13 12.57
4/5/2021 7:45:00 PM 11.33 52.394 0.409 8.4 2.09 12.42
4/5/2021 8:00:00 PM 11.25 52.25 0.409 8.37 2.08 12.26
4/5/2021 8:15:00 PM 11.18 52.124 0.41 8.35 2.17 12.1
4/5/2021 8:30:00 PM 11.11 51.998 0.409 8.33 2.14 11.96
4/5/2021 8:45:00 PM 11.04 51.872 0.409 8.3 2.16 11.8
4/5/2021 9:00:00 PM 10.97 51.746 0.41 8.28 2.38 11.66
4/5/2021 9:15:00 PM 10.9 51.62 0.41 8.24 2.47 11.5
4/5/2021 9:30:00 PM 10.84 51.512 0.409 8.22 2.34 11.4
4/5/2021 9:45:00 PM 10.77 51.386 0.41 8.18 2.45 11.23
4/5/2021 10:00:00 PM 10.71 51.278 0.41 8.16 2.44 11.14
4/5/2021 10:15:00 PM 10.65 51.17 0.41 8.13 2.49 11.02
4/5/2021 10:30:00 PM 10.58 51.044 0.411 8.1 2.42 10.92
4/5/2021 10:45:00 PM 10.51 50.918 0.41 8.08 2.49 10.82
4/5/2021 11:00:00 PM 10.44 50.792 0.411 8.05 3.04 10.71
4/5/2021 11:15:00 PM 10.36 50.648 0.411 8.02 2.51 10.64
4/5/2021 11:30:00 PM 10.28 50.504 0.411 7.99 2.45 10.55
4/5/2021 11:45:00 PM 10.19 50.342 0.412 7.96 2.34 10.46
4/6/2021 12:00:00 AM 10.11 50.198 0.412 7.93 2.48 10.37
4/6/2021 12:15:00 AM 10.03 50.054 0.413 7.91 2.41 10.29
4/6/2021 12:30:00 AM 9.95 49.91 0.413 7.87 2.5 10.2
4/6/2021 12:45:00 AM 9.86 49.748 0.413 7.85 2.38 10.13
4/6/2021 1:00:00 AM 9.78 49.604 0.413 7.83 2.4 10.07
4/6/2021 1:15:00 AM 9.69 49.442 0.413 7.81 2.54 10.03
4/6/2021 1:30:00 AM 9.6 49.28 0.413 7.8 2.38 10.01
4/6/2021 1:45:00 AM 9.52 49.136 0.414 7.78 2.63 9.93
4/6/2021 2:00:00 AM 9.44 48.992 0.414 7.76 2.48 9.93
4/6/2021 2:15:00 AM 9.35 48.83 0.414 7.75 2.66 9.91
4/6/2021 2:30:00 AM 9.27 48.686 0.414 7.73 2.43 9.89
4/6/2021 2:45:00 AM 9.18 48.524 0.414 7.73 2.53 9.88
4/6/2021 3:00:00 AM 9.1 48.38 0.414 7.71 2.61 9.84
4/6/2021 3:15:00 AM 9.02 48.236 0.414 7.71 2.46 9.85
4/6/2021 3:30:00 AM 8.93 48.074 0.414 7.71 2.33 9.88
4/6/2021 3:45:00 AM 8.85 47.93 0.415 7.7 2.51 9.88
4/6/2021 4:00:00 AM 8.76 47.768 0.415 7.7 2.7 9.89
4/6/2021 4:15:00 AM 8.67 47.606 0.416 7.69 2.67 9.88
4/6/2021 4:30:00 AM 8.59 47.462 0.416 7.69 2.55 9.89
4/6/2021 4:45:00 AM 8.51 47.318 0.418 7.68 2.53 9.9
4/6/2021 5:00:00 AM 8.42 47.156 0.417 7.68 2.44 9.92
4/6/2021 5:15:00 AM 8.34 47.012 0.418 7.68 2.36 9.94
4/6/2021 5:30:00 AM 8.25 46.85 0.418 7.68 2.51 9.94
4/6/2021 5:45:00 AM 8.17 46.706 0.418 7.67 2.49 9.95
4/6/2021 6:00:00 AM 8.08 46.544 0.418 7.67 2.49 9.97
4/6/2021 6:15:00 AM 7.99 46.382 0.42 7.67 2.42 9.99
4/6/2021 6:30:00 AM 7.91 46.238 0.419 7.67 2.43 10.01
4/6/2021 6:45:00 AM 7.82 46.076 0.42 7.67 2.34 10.05
4/6/2021 7:00:00 AM 7.74 45.932 0.421 7.67 2.33 10.07
4/6/2021 7:15:00 AM 7.65 45.77 0.42 7.67 2.37 10.12
4/6/2021 7:30:00 AM 7.57 45.626 0.421 7.67 2.63 10.17
4/6/2021 7:45:00 AM 7.5 45.5 0.423 7.67 2.72 10.2
4/6/2021 8:00:00 AM 7.43 45.374 0.423 7.67 2.48 10.28
4/6/2021 8:15:00 AM 7.37 45.266 0.425 7.68 2.49 10.35
4/6/2021 8:30:00 AM 7.3 45.14 0.423 7.69 2.52 10.41
4/6/2021 8:45:00 AM 7.24 45.032 0.426 7.69 2.37 10.49
4/6/2021 9:00:00 AM 7.19 44.942 0.425 7.7 2.55 10.58
4/6/2021 9:15:00 AM 7.15 44.87 0.424 7.71 2.24 10.68
4/6/2021 9:30:00 AM 7.14 44.852 0.425 7.72 2.28 10.79
4/6/2021 9:45:00 AM 7.13 44.834 0.426 7.73 2.3 10.91
4/6/2021 10:00:00 AM 7.16 44.888 0.424 7.74 2.53 11.05
4/6/2021 10:15:00 AM 7.2 44.96 0.425 7.76 2.23 11.16
4/6/2021 10:30:00 AM 7.25 45.05 0.43 7.76 2.15 11.22
4/6/2021 10:45:00 AM 7.29 45.122 0.425 7.79 2.1 11.4
4/6/2021 11:00:00 AM 7.39 45.302 0.425 7.8 2.16 11.54
4/6/2021 11:15:00 AM 7.52 45.536 0.425 7.82 2.2 11.69
4/6/2021 11:30:00 AM 7.67 45.806 0.426 7.84 2.12 11.84
4/6/2021 11:45:00 AM 7.85 46.13 0.426 7.86 2.15 11.97
4/6/2021 12:00:00 PM 8.06 46.508 0.426 7.89 3.51 12.13
4/6/2021 12:15:00 PM 8.28 46.904 0.426 7.91 2.09 12.3
4/6/2021 12:30:00 PM 8.52 47.336 0.426 7.93 2.1 12.43
4/6/2021 12:45:00 PM 8.75 47.75 0.425 7.96 2.04 12.58
4/6/2021 1:00:00 PM 9 48.2 0.425 7.99 2.09 12.73
4/6/2021 1:15:00 PM 9.28 48.704 0.425 8.02 2.06 12.85
4/6/2021 1:30:00 PM 9.55 49.19 0.425 8.05 2 12.99
4/6/2021 1:45:00 PM 9.84 49.712 0.425 8.07 2.06 13.09
4/6/2021 2:00:00 PM 10.15 50.27 0.424 8.11 1.85 13.21
4/6/2021 2:15:00 PM 10.43 50.774 0.424 8.14 1.75 13.3
4/6/2021 2:30:00 PM 10.72 51.296 0.423 8.18 1.65 13.39
4/6/2021 2:45:00 PM 10.98 51.764 0.427 8.2 1.75 13.47
4/6/2021 3:00:00 PM 11.22 52.196 0.426 8.23 1.75 13.52
4/6/2021 3:15:00 PM 11.45 52.61 0.426 8.27 1.69 13.57
4/6/2021 3:30:00 PM 11.65 52.97 0.426 8.29 1.61 13.58
4/6/2021 3:45:00 PM 11.85 53.33 0.426 8.32 1.73 13.61
4/6/2021 4:00:00 PM 12.02 53.636 0.425 8.35 1.76 13.61
4/6/2021 4:15:00 PM 12.18 53.924 0.425 8.37 1.78 13.58
4/6/2021 4:30:00 PM 12.3 54.14 0.425 8.38 1.81 13.56
4/6/2021 4:45:00 PM 12.41 54.338 0.425 8.41 1.7 13.54
4/6/2021 5:00:00 PM 12.46 54.428 0.425 8.42 1.74 13.47
4/6/2021 5:15:00 PM 12.53 54.554 0.425 8.43 1.71 13.42
4/6/2021 5:30:00 PM 12.55 54.59 0.425 8.44 1.83 13.33
4/6/2021 5:45:00 PM 12.57 54.626 0.425 8.45 1.71 13.27
4/6/2021 6:00:00 PM 12.57 54.626 0.425 8.45 1.78 13.18
4/6/2021 6:15:00 PM 12.55 54.59 0.425 8.46 1.7 13.06
4/6/2021 6:30:00 PM 12.53 54.554 0.425 8.45 1.63 12.95
4/6/2021 6:45:00 PM 12.51 54.518 0.424 8.45 1.57 12.86
4/6/2021 7:00:00 PM 12.48 54.464 0.425 8.45 1.76 12.73
4/6/2021 7:15:00 PM 12.42 54.356 0.425 8.43 1.8 12.57
4/6/2021 7:30:00 PM 12.36 54.248 0.425 8.42 1.86 12.42
4/6/2021 7:45:00 PM 12.3 54.14 0.425 8.4 1.68 12.24
4/6/2021 8:00:00 PM 12.23 54.014 0.426 8.37 1.74 12.05
4/6/2021 8:15:00 PM 12.16 53.888 0.426 8.35 1.76 11.9
4/6/2021 8:30:00 PM 12.1 53.78 0.426 8.32 1.87 11.73
4/6/2021 8:45:00 PM 12.03 53.654 0.426 8.29 1.85 11.57
4/6/2021 9:00:00 PM 11.96 53.528 0.427 8.25 1.86 11.39
4/6/2021 9:15:00 PM 11.91 53.438 0.427 8.23 2.04 11.25
4/6/2021 9:30:00 PM 11.85 53.33 0.427 8.2 2.08 11.08
4/6/2021 9:45:00 PM 11.79 53.222 0.427 8.17 2.19 10.96
4/6/2021 10:00:00 PM 11.73 53.114 0.427 8.14 2.12 10.82
4/6/2021 10:15:00 PM 11.67 53.006 0.427 8.1 2.22 10.66
4/6/2021 10:30:00 PM 11.61 52.898 0.427 8.08 2.23 10.56
4/6/2021 10:45:00 PM 11.55 52.79 0.428 8.05 2.66 10.45
4/6/2021 11:00:00 PM 11.49 52.682 0.428 8.02 2.49 10.36
4/6/2021 11:15:00 PM 11.43 52.574 0.428 7.99 2.59 10.25
4/6/2021 11:30:00 PM 11.38 52.484 0.429 7.97 2.89 10.16
4/6/2021 11:45:00 PM 11.32 52.376 0.429 7.94 2.68 10.09
4/7/2021 12:00:00 AM 11.26 52.268 0.429 7.92 2.68 9.99
4/7/2021 12:15:00 AM 11.21 52.178 0.43 7.89 2.36 9.92
4/7/2021 12:30:00 AM 11.16 52.088 0.43 7.87 2.44 9.84
4/7/2021 12:45:00 AM 11.11 51.998 0.43 7.85 2.45 9.77
4/7/2021 1:00:00 AM 11.06 51.908 0.43 7.83 2.25 9.69
4/7/2021 1:15:00 AM 11.01 51.818 0.43 7.8 2.26 9.62
4/7/2021 1:30:00 AM 10.97 51.746 0.431 7.79 2.42 9.55
4/7/2021 1:45:00 AM 10.92 51.656 0.431 7.77 2.64 9.53
4/7/2021 2:00:00 AM 10.87 51.566 0.431 7.75 2.48 9.46
4/7/2021 2:15:00 AM 10.82 51.476 0.431 7.74 2.36 9.45
4/7/2021 2:30:00 AM 10.78 51.404 0.431 7.73 2.39 9.41
4/7/2021 2:45:00 AM 10.74 51.332 0.431 7.71 2.5 9.38
4/7/2021 3:00:00 AM 10.69 51.242 0.431 7.71 2.29 9.36
4/7/2021 3:15:00 AM 10.65 51.17 0.431 7.69 2.38 9.32
4/7/2021 3:30:00 AM 10.61 51.098 0.431 7.69 2.29 9.34
4/7/2021 3:45:00 AM 10.57 51.026 0.432 7.68 2.44 9.32
4/7/2021 4:00:00 AM 10.53 50.954 0.431 7.68 2.48 9.32
4/7/2021 4:15:00 AM 10.48 50.864 0.431 7.68 2.31 9.33
4/7/2021 4:30:00 AM 10.44 50.792 0.432 7.67 2.45 9.3
4/7/2021 4:45:00 AM 10.4 50.72 0.432 7.67 2.31 9.31
4/7/2021 5:00:00 AM 10.35 50.63 0.433 7.66 2.51 9.3
4/7/2021 5:15:00 AM 10.32 50.576 0.433 7.66 2.35 9.31
4/7/2021 5:30:00 AM 10.28 50.504 0.434 7.66 2.35 9.31
4/7/2021 5:45:00 AM 10.24 50.432 0.434 7.65 2.44 9.31
4/7/2021 6:00:00 AM 10.2 50.36 0.434 7.65 2.32 9.32
4/7/2021 6:15:00 AM 10.16 50.288 0.434 7.65 2.32 9.33
4/7/2021 6:30:00 AM 10.12 50.216 0.435 7.64 2.31 9.32
4/7/2021 6:45:00 AM 10.08 50.144 0.435 7.64 2.43 9.32
4/7/2021 7:00:00 AM 10.04 50.072 0.435 7.64 2.42 9.35
4/7/2021 7:15:00 AM 10.01 50.018 0.436 7.64 2.32 9.32
4/7/2021 7:30:00 AM 9.98 49.964 0.436 7.63 2.8 9.34
4/7/2021 7:45:00 AM 9.95 49.91 0.437 7.64 2.58 9.37
4/7/2021 8:00:00 AM 9.93 49.874 0.437 7.65 2.62 9.43
4/7/2021 8:15:00 AM 9.9 49.82 0.439 7.64 2.68 9.46
4/7/2021 8:30:00 AM 9.89 49.802 0.44 7.65 2.48 9.54
4/7/2021 8:45:00 AM 9.87 49.766 0.439 7.66 2.4 9.65
4/7/2021 9:00:00 AM 9.85 49.73 0.438 7.67 2.01 9.81
4/7/2021 9:15:00 AM 9.83 49.694 0.439 7.67 2.09 9.82
4/7/2021 9:30:00 AM 9.82 49.676 0.443 7.68 2.07 9.93
4/7/2021 9:45:00 AM 9.83 49.694 0.441 7.71 1.94 10.09
4/7/2021 10:00:00 AM 9.87 49.766 0.507 7.7 2.19 10.15
4/7/2021 10:15:00 AM 9.94 49.892 0.569 7.71 2.2 10.32
4/7/2021 10:30:00 AM 10 50 0.766 7.74 2.11 10.49
4/7/2021 10:45:00 AM 10.02 50.036 0.905 7.74 1.95 10.59
4/7/2021 11:00:00 AM 10.06 50.108 1.096 7.75 2.07 10.69
4/7/2021 11:15:00 AM 10.16 50.288 0.983 7.8 2.13 11.01
4/7/2021 11:30:00 AM 10.27 50.486 0.922 7.83 2.08 11.13
4/7/2021 11:45:00 AM 10.44 50.792 0.864 7.85 2.2 11.34
4/7/2021 12:00:00 PM 10.63 51.134 1.085 7.89 2.09 11.52
4/7/2021 12:15:00 PM 10.77 51.386 1.013 7.92 2.09 11.72
4/7/2021 12:30:00 PM 10.95 51.71 4.373 7.94 2.19 11.77
4/7/2021 12:45:00 PM 11.19 52.142 0.445 7.96 2 12.07
4/7/2021 1:00:00 PM 11.42 52.556 1.299 8 1.94 12.26
4/7/2021 1:15:00 PM 11.55 52.79 4.027 8.02 2.03 12.3
4/7/2021 1:30:00 PM 11.72 53.096 1.003 8.07 1.84 12.56
4/7/2021 1:45:00 PM 12.01 53.618 7.357 8.09 2.2 12.37
4/7/2021 2:00:00 PM 12.26 54.068 0.437 8.13 1.78 12.83
4/7/2021 2:15:00 PM 12.53 54.554 0.199 8.16 1.93 12.89
4/7/2021 2:30:00 PM 12.77 54.986 4.461 8.22 1.78 12.88
4/7/2021 2:45:00 PM 12.94 55.292 0.435 8.26 1.68 13.17
4/7/2021 3:00:00 PM 13.14 55.652 0.435 8.29 1.85 13.23
4/7/2021 3:15:00 PM 13.33 55.994 0.435 8.33 2 13.3
4/7/2021 3:30:00 PM 13.5 56.3 2.526 8.3 1.9 13.19
4/7/2021 3:45:00 PM 13.64 56.552 6.388 8.35 1.92 13
4/7/2021 4:00:00 PM 13.84 56.912 0.487 8.39 1.82 13.35
4/7/2021 4:15:00 PM 13.99 57.182 5.196 8.4 1.89 13.12
4/7/2021 4:30:00 PM 14.13 57.434 0.439 8.45 2.11 13.38
4/7/2021 4:45:00 PM 14.23 57.614 0.439 8.46 1.94 13.09
4/7/2021 5:00:00 PM 14.32 57.776 0.438 8.47 2.28 13.2
4/7/2021 5:15:00 PM 14.39 57.902 0.439 8.5 2.28 13.2
4/7/2021 5:30:00 PM 14.43 57.974 0.439 8.5 2.02 13.05
4/7/2021 5:45:00 PM 14.45 58.01 0.438 8.49 2.79 13
4/7/2021 6:00:00 PM 14.45 58.01 0.437 8.5 1.87 12.76
4/7/2021 6:15:00 PM 14.44 57.992 0.437 8.5 1.98 12.78
4/7/2021 6:30:00 PM 14.37 57.866 0.437 8.49 2.04 12.59
4/7/2021 6:45:00 PM 14.33 57.794 0.436 8.5 2.05 12.39
4/7/2021 7:00:00 PM 14.27 57.686 0.437 8.5 1.81 12.31
4/7/2021 7:15:00 PM 14.2 57.56 0.437 8.47 1.94 12.14
4/7/2021 7:30:00 PM 14.15 57.47 0.436 8.46 1.83 12.05
4/7/2021 7:45:00 PM 14.08 57.344 0.437 8.43 1.8 11.84
4/7/2021 8:00:00 PM 14.02 57.236 0.436 8.43 1.86 11.68
4/7/2021 8:15:00 PM 13.97 57.146 0.436 8.4 2.03 11.52
4/7/2021 8:30:00 PM 13.9 57.02 0.436 8.38 1.93 11.32
4/7/2021 8:45:00 PM 13.84 56.912 0.435 8.34 2.06 11.12
4/7/2021 9:00:00 PM 13.79 56.822 0.435 8.31 2.19 10.93
4/7/2021 9:15:00 PM 13.72 56.696 0.435 8.28 2.15 10.77
4/7/2021 9:30:00 PM 13.64 56.552 0.434 8.25 2.23 10.59
4/7/2021 9:45:00 PM 13.57 56.426 0.434 8.22 2.24 10.43
4/7/2021 10:00:00 PM 13.49 56.282 0.434 8.17 2.18 10.29
4/7/2021 10:15:00 PM 13.4 56.12 0.434 8.14 2.36 10.17
4/7/2021 10:30:00 PM 13.31 55.958 18.162 8.08 2.8 9.38
4/7/2021 10:45:00 PM 13.22 55.796 12.273 8.05 2.37 9.47
4/7/2021 11:00:00 PM 13.13 55.634 0.436 8.04 2.5 9.78
4/7/2021 11:15:00 PM 13.03 55.454 0.438 8.01 2.95 9.69
4/7/2021 11:30:00 PM 12.94 55.292 0.44 7.98 2.59 9.58
4/7/2021 11:45:00 PM 12.85 55.13 0.443 7.94 2.25 9.5
4/8/2021 12:00:00 AM 12.75 54.95 0.446 7.92 2.75 9.36
4/8/2021 12:15:00 AM 12.66 54.788 0.448 7.89 2.35 9.34
4/8/2021 12:30:00 AM 12.56 54.608 0.451 7.86 2.25 9.22
4/8/2021 12:45:00 AM 12.47 54.446 0.454 7.83 2.63 9.13
4/8/2021 1:00:00 AM 12.39 54.302 0.457 7.8 2.47 9.09
4/8/2021 1:15:00 AM 12.3 54.14 0.459 7.77 2.33 8.95
4/8/2021 1:30:00 AM 12.21 53.978 0.461 7.76 2.29 8.97
4/8/2021 1:45:00 AM 12.11 53.798 0.461 7.75 2.29 8.95
4/8/2021 2:00:00 AM 12.03 53.654 0.462 7.72 2.24 8.86
4/8/2021 2:15:00 AM 11.94 53.492 0.461 7.71 2.17 8.86
4/8/2021 2:30:00 AM 11.85 53.33 0.461 7.7 2.28 8.88
4/8/2021 2:45:00 AM 11.76 53.168 0.46 7.68 2.09 8.76
4/8/2021 3:00:00 AM 11.66 52.988 0.459 7.67 2.24 8.83
4/8/2021 3:15:00 AM 11.57 52.826 0.457 7.67 2.27 8.86
4/8/2021 3:30:00 AM 11.49 52.682 0.456 7.66 2.28 8.78
4/8/2021 3:45:00 AM 11.39 52.502 0.454 7.65 2.47 8.84
4/8/2021 4:00:00 AM 11.3 52.34 0.453 7.64 2.31 8.81
4/8/2021 4:15:00 AM 11.19 52.142 0.452 7.64 2.36 8.85
4/8/2021 4:30:00 AM 11.1 51.98 0.451 7.64 2.23 8.89
4/8/2021 4:45:00 AM 11.02 51.836 0.45 7.63 2.28 8.9
4/8/2021 5:00:00 AM 10.92 51.656 0.449 7.63 2.15 8.92
4/8/2021 5:15:00 AM 10.81 51.458 0.448 7.63 2.29 8.94
4/8/2021 5:30:00 AM 10.72 51.296 1.175 7.61 2.04 8.92
4/8/2021 5:45:00 AM 10.64 51.152 15.461 7.58 2.28 8.48
4/8/2021 6:00:00 AM 10.54 50.972 0.947 7.61 2.11 9
4/8/2021 6:15:00 AM 10.45 50.81 0.452 7.61 3.65 9.01
4/8/2021 6:30:00 AM 10.37 50.666 0.448 7.6 2.04 9.01
4/8/2021 6:45:00 AM 10.27 50.486 0.941 7.59 2.37 9
4/8/2021 7:00:00 AM 10.2 50.36 1.014 7.6 2.18 9.04
4/8/2021 7:15:00 AM 10.11 50.198 1.006 7.61 2.75 9.12
4/8/2021 7:30:00 AM 10.02 50.036 1.153 7.62 2.27 9.2
4/8/2021 7:45:00 AM 9.97 49.946 1.071 7.61 3.35 9.19
4/8/2021 8:00:00 AM 9.91 49.838 1.067 7.6 3.29 9.24
4/8/2021 8:15:00 AM 9.84 49.712 1.096 7.61 3.53 9.32
4/8/2021 8:30:00 AM 9.79 49.622 1.082 7.62 2.15 9.38
4/8/2021 8:45:00 AM 9.75 49.55 0.455 7.61 1.99 9.43
4/8/2021 9:00:00 AM 9.69 49.442 14.562 7.6 2.08 9.14
4/8/2021 9:15:00 AM 9.65 49.37 1.062 7.63 2.07 9.73
4/8/2021 9:30:00 AM 9.64 49.352 0.432 7.64 2.12 9.88
4/8/2021 9:45:00 AM 9.63 49.334 1.097 7.67 2.17 10.04
4/8/2021 10:00:00 AM 9.67 49.406 0.037 7.66 2.34 10.16
4/8/2021 10:15:00 AM 9.72 49.496 0.45 7.7 2.65 10.3
4/8/2021 10:30:00 AM 9.78 49.604 14.296 7.7 2.09 9.99
4/8/2021 10:45:00 AM 9.84 49.712 14.189 7.69 2.23 10.1
4/8/2021 11:00:00 AM 9.93 49.874 14.41 7.72 2.16 10.3
4/8/2021 11:15:00 AM 10.06 50.108 0.77 7.74 2.26 10.89
4/8/2021 11:30:00 AM 10.22 50.396 1.084 7.81 2.47 11.15
4/8/2021 11:45:00 AM 10.4 50.72 1.314 7.85 2.46 11.36
4/8/2021 12:00:00 PM 10.59 51.062 1.297 7.88 2.11 11.55
4/8/2021 12:15:00 PM 10.81 51.458 1.261 7.91 2.45 11.55
4/8/2021 12:30:00 PM 11.05 51.89 1.294 7.94 2.17 11.87
4/8/2021 12:45:00 PM 11.32 52.376 1.373 7.97 2.29 12.13
4/8/2021 1:00:00 PM 11.56 52.808 1.422 7.98 2.02 12.25
4/8/2021 1:15:00 PM 11.8 53.24 0.888 8 2.21 12.34
4/8/2021 1:30:00 PM 12.11 53.798 1.118 8.05 2.03 12.55
4/8/2021 1:45:00 PM 12.43 54.374 5.066 8.11 1.94 12.58
4/8/2021 2:00:00 PM 12.71 54.878 1.805 8.13 1.94 12.53
4/8/2021 2:15:00 PM 13 55.4 9.394 8.17 1.98 12.6
4/8/2021 2:30:00 PM 13.27 55.886 0.44 8.2 2.2 13.15
4/8/2021 2:45:00 PM 13.55 56.39 7.824 8.23 2.09 12.89
4/8/2021 3:00:00 PM 13.81 56.858 11.805 8.27 1.92 12.81
4/8/2021 3:15:00 PM 13.99 57.182 9.464 8.28 1.98 12.89
4/8/2021 3:30:00 PM 14.29 57.722 10.287 8.34 4.33 12.92
4/8/2021 3:45:00 PM 14.49 58.082 0.446 8.38 1.82 13.41
4/8/2021 4:00:00 PM 14.7 58.46 10.892 8.4 1.84 12.99
4/8/2021 4:15:00 PM 14.86 58.748 10.899 8.4 1.89 12.93
4/8/2021 4:30:00 PM 14.99 58.982 11.557 8.44 1.73 12.83
4/8/2021 4:45:00 PM 15.12 59.216 0.443 8.48 1.84 13.35
4/8/2021 5:00:00 PM 15.23 59.414 0.366 8.5 1.96 13.34
4/8/2021 5:15:00 PM 15.31 59.558 0.439 8.51 1.73 13.28
4/8/2021 5:30:00 PM 15.38 59.684 13.566 8.49 1.78 12.57
4/8/2021 5:45:00 PM 15.39 59.702 11.237 8.49 1.75 12.55
4/8/2021 6:00:00 PM 15.41 59.738 0.522 8.52 1.79 12.88
4/8/2021 6:15:00 PM 15.4 59.72 0.444 8.52 1.7 12.8
4/8/2021 6:30:00 PM 15.41 59.738 0.442 8.53 1.78 12.69
4/8/2021 6:45:00 PM 15.38 59.684 0.441 8.51 1.84 12.52
4/8/2021 7:00:00 PM 15.34 59.612 0.444 8.5 1.81 12.36
4/8/2021 7:15:00 PM 15.32 59.576 0.444 8.51 2.02 12.21
4/8/2021 7:30:00 PM 15.26 59.468 0.444 8.48 1.89 12
4/8/2021 7:45:00 PM 15.2 59.36 0.443 8.47 2.11 11.83
4/8/2021 8:00:00 PM 15.14 59.252 0.445 8.44 2.24 11.61
4/8/2021 8:15:00 PM 15.07 59.126 0.445 8.41 1.92 11.42
4/8/2021 8:30:00 PM 15.02 59.036 0.443 8.39 2.09 11.24
4/8/2021 8:45:00 PM 14.94 58.892 0.443 8.37 2.24 11.05
4/8/2021 9:00:00 PM 14.87 58.766 0.443 8.33 2.1 10.83
4/8/2021 9:15:00 PM 14.8 58.64 0.443 8.3 2.99 10.67
4/8/2021 9:30:00 PM 14.73 58.514 0.444 8.27 2.87 10.45
4/8/2021 9:45:00 PM 14.66 58.388 0.443 8.24 2.49 10.34
4/8/2021 10:00:00 PM 14.58 58.244 19.071 8.19 2.16 9.51
4/8/2021 10:15:00 PM 14.5 58.1 12.879 8.16 2.31 9.58
4/8/2021 10:30:00 PM 14.42 57.956 13.916 8.12 2.14 9.39
4/8/2021 10:45:00 PM 14.33 57.794 13.903 8.09 2.37 9.26
4/8/2021 11:00:00 PM 14.24 57.632 13.294 8.06 2.31 9.18
4/8/2021 11:15:00 PM 14.15 57.47 1.704 8.04 2.3 9.46
4/8/2021 11:30:00 PM 14.06 57.308 0.447 8.02 2.29 9.37
4/8/2021 11:45:00 PM 13.97 57.146 0.445 7.99 2.28 9.29
4/9/2021 12:00:00 AM 13.89 57.002 0.445 7.96 2.2 9.19
4/9/2021 12:15:00 AM 13.81 56.858 0.445 7.94 2.27 9.08
4/9/2021 12:30:00 AM 13.72 56.696 0.445 7.9 2.37 9
4/9/2021 12:45:00 AM 13.64 56.552 0.446 7.87 2.54 8.9
4/9/2021 1:00:00 AM 13.57 56.426 0.446 7.85 2.24 8.81
4/9/2021 1:15:00 AM 13.51 56.318 0.446 7.83 2.31 8.77
4/9/2021 1:30:00 AM 13.44 56.192 0.447 7.81 2.3 8.7
4/9/2021 1:45:00 AM 13.37 56.066 0.446 7.78 2.53 8.65
4/9/2021 2:00:00 AM 13.3 55.94 0.447 7.77 2.26 8.6
4/9/2021 2:15:00 AM 13.22 55.796 0.446 7.75 2.51 8.58
4/9/2021 2:30:00 AM 13.15 55.67 2.943 7.73 2.14 8.46
4/9/2021 2:45:00 AM 13.08 55.544 12.041 7.71 2.44 8.13
4/9/2021 3:00:00 AM 13.02 55.436 13.147 7.69 2.53 8.09
4/9/2021 3:15:00 AM 12.95 55.31 0.45 7.69 2.39 8.42
4/9/2021 3:30:00 AM 12.89 55.202 0.472 7.67 2.41 8.42
4/9/2021 3:45:00 AM 12.83 55.094 11.671 7.65 2.38 8.08
4/9/2021 4:00:00 AM 12.75 54.95 13.47 7.66 2.21 8.05
4/9/2021 4:15:00 AM 12.7 54.86 10.499 7.65 2.34 8.12
4/9/2021 4:30:00 AM 12.64 54.752 11.196 7.64 2.42 8.13
4/9/2021 4:45:00 AM 12.58 54.644 0.395 7.64 2.46 8.42
4/9/2021 5:00:00 AM 12.52 54.536 12.698 7.63 2.42 8.41
4/9/2021 5:15:00 AM 12.46 54.428 12.358 7.63 2.45 8.04
4/9/2021 5:30:00 AM 12.4 54.32 0.451 7.65 2.4 8.4
4/9/2021 5:45:00 AM 12.34 54.212 0.452 7.64 2.36 8.4
4/9/2021 6:00:00 AM 12.27 54.086 0.452 7.64 2.58 8.45
4/9/2021 6:15:00 AM 12.21 53.978 0.452 7.63 2.33 8.44
4/9/2021 6:30:00 AM 12.14 53.852 0.453 7.64 2.4 8.49
4/9/2021 6:45:00 AM 12.07 53.726 0.454 7.63 2.44 8.48
4/9/2021 7:00:00 AM 12.01 53.618 0.454 7.64 2.33 8.54
4/9/2021 7:15:00 AM 11.95 53.51 0.455 7.63 2.36 8.57
4/9/2021 7:30:00 AM 11.92 53.456 0.456 7.64 3.05 8.63
4/9/2021 7:45:00 AM 11.89 53.402 0.456 7.65 2.25 8.75
4/9/2021 8:00:00 AM 11.88 53.384 0.456 7.65 2.52 8.86
4/9/2021 8:15:00 AM 11.86 53.348 0.457 7.66 2.22 8.96
4/9/2021 8:30:00 AM 11.84 53.312 0.457 7.67 3.51 9
4/9/2021 8:45:00 AM 11.82 53.276 0.458 7.66 2.19 9.14
4/9/2021 9:00:00 AM 11.8 53.24 0.457 7.68 8 9.29
4/9/2021 9:15:00 AM 11.81 53.258 0.458 7.7 2.37 9.43
4/9/2021 9:30:00 AM 11.83 53.294 0.457 7.72 2.5 9.68
4/9/2021 9:45:00 AM 11.83 53.294 0.458 7.74 3.52 9.76
4/9/2021 10:00:00 AM 11.81 53.258 0.457 7.76 2.62 9.93
4/9/2021 10:15:00 AM 11.82 53.276 0.456 7.79 2.57 10.11
4/9/2021 10:30:00 AM 11.85 53.33 0.456 7.81 2.42 10.29
4/9/2021 10:45:00 AM 11.88 53.384 0.457 7.82 2.45 10.42
4/9/2021 11:00:00 AM 11.89 53.402 0.457 7.85 2.38 10.65
4/9/2021 11:15:00 AM 11.91 53.438 0.457 7.88 2.37 10.8
4/9/2021 11:30:00 AM 11.91 53.438 0.457 7.9 2.25 10.92
4/9/2021 11:45:00 AM 11.95 53.51 0.458 7.92 2.05 11.09
4/9/2021 12:00:00 PM 12.01 53.618 0.46 7.95 1.89 11.3
4/9/2021 12:15:00 PM 12.09 53.762 0.458 7.97 2.02 11.43
4/9/2021 12:30:00 PM 12.17 53.906 0.457 8.02 2.05 11.66
4/9/2021 12:45:00 PM 12.35 54.23 0.457 8.05 2.2 11.86
4/9/2021 1:00:00 PM 12.53 54.554 0.457 8.08 2.03 11.98
4/9/2021 1:15:00 PM 12.65 54.77 0.457 8.11 1.96 12.16
4/9/2021 1:30:00 PM 12.68 54.824 0.457 8.14 1.99 12.3
4/9/2021 1:45:00 PM 12.73 54.914 0.458 8.16 1.97 12.4
4/9/2021 2:00:00 PM 12.75 54.95 0.457 8.2 1.89 12.55
4/9/2021 2:15:00 PM 12.77 54.986 0.457 8.23 1.95 12.7
4/9/2021 2:30:00 PM 12.87 55.166 0.456 8.28 1.91 12.85
4/9/2021 2:45:00 PM 13.03 55.454 0.456 8.31 1.95 12.96
4/9/2021 3:00:00 PM 13.14 55.652 0.455 8.34 2.21 13.04
4/9/2021 3:15:00 PM 13.2 55.76 0.455 8.37 2.21 13.11
4/9/2021 3:30:00 PM 13.28 55.904 0.456 8.4 2.04 13.24
4/9/2021 3:45:00 PM 13.35 56.03 0.455 8.43 2.65 13.29
4/9/2021 4:00:00 PM 13.38 56.084 0.454 8.46 2.49 13.3
4/9/2021 4:15:00 PM 13.42 56.156 0.454 8.47 2.31 13.31
4/9/2021 4:30:00 PM 13.45 56.21 0.454 8.49 3.98 13.33
4/9/2021 4:45:00 PM 13.46 56.228 0.454 8.5 2.26 13.32
4/9/2021 5:00:00 PM 13.47 56.246 0.455 8.51 2 13.26
4/9/2021 5:15:00 PM 13.5 56.3 0.455 8.52 2.34 13.22
4/9/2021 5:30:00 PM 13.56 56.408 0.456 8.54 2.31 13.33
4/9/2021 5:45:00 PM 13.61 56.498 0.455 8.56 2.09 13.3
4/9/2021 6:00:00 PM 13.63 56.534 0.454 8.55 1.97 13.23
4/9/2021 6:15:00 PM 13.64 56.552 0.456 8.56 1.93 13.09
4/9/2021 6:30:00 PM 13.64 56.552 0.454 8.56 1.99 13.02
4/9/2021 6:45:00 PM 13.65 56.57 0.455 8.56 2.06 12.93
4/9/2021 7:00:00 PM 13.65 56.57 0.455 8.56 1.98 12.76
4/9/2021 7:15:00 PM 13.65 56.57 0.455 8.55 1.83 12.6
4/9/2021 7:30:00 PM 13.65 56.57 0.455 8.53 1.88 12.4
4/9/2021 7:45:00 PM 13.64 56.552 0.455 8.51 1.95 12.07
4/9/2021 8:00:00 PM 13.64 56.552 0.455 8.49 1.99 12.01
4/9/2021 8:15:00 PM 13.63 56.534 0.455 8.48 1.93 11.81
4/9/2021 8:30:00 PM 13.62 56.516 0.456 8.46 1.92 11.64
4/9/2021 8:45:00 PM 13.59 56.462 0.458 8.42 1.98 11.45
4/9/2021 9:00:00 PM 13.57 56.426 0.456 8.41 1.98 11.29
4/9/2021 9:15:00 PM 13.52 56.336 0.457 8.37 2.14 11.07
4/9/2021 9:30:00 PM 13.47 56.246 0.458 8.32 2.57 10.88
4/9/2021 9:45:00 PM 13.41 56.138 0.459 8.29 2.13 10.72
4/9/2021 10:00:00 PM 13.36 56.048 0.457 8.27 2.17 10.57
4/9/2021 10:15:00 PM 13.31 55.958 0.459 8.23 2.02 10.39
4/9/2021 10:30:00 PM 13.26 55.868 0.459 8.18 2.35 10.27
4/9/2021 10:45:00 PM 13.2 55.76 0.46 8.16 2.2 10.11
4/9/2021 11:00:00 PM 13.15 55.67 1.333 8.12 2.19 9.97
4/9/2021 11:15:00 PM 13.09 55.562 2.044 8.09 2.35 9.87
4/9/2021 11:30:00 PM 13.04 55.472 13.045 8.05 2.16 9.36
4/9/2021 11:45:00 PM 12.99 55.382 9.579 8.01 2.32 9.35
4/10/2021 12:00:00 AM 12.93 55.274 8.21 7.98 2.56 9.33
4/10/2021 12:15:00 AM 12.87 55.166 10.279 7.96 2.31 9.2
4/10/2021 12:30:00 AM 12.83 55.094 9.206 7.93 2.7 9.17
4/10/2021 12:45:00 AM 12.78 55.004 9.99 7.91 2.36 9.26
4/10/2021 1:00:00 AM 12.73 54.914 9.768 7.87 2.67 8.96
4/10/2021 1:15:00 AM 12.69 54.842 8.763 7.85 2.52 8.83
4/10/2021 1:30:00 AM 12.65 54.77 0.465 7.84 2.41 9.09
4/10/2021 1:45:00 AM 12.6 54.68 0.462 7.82 2.27 9.02
4/10/2021 2:00:00 AM 12.56 54.608 0.463 7.8 2.46 8.97
4/10/2021 2:15:00 AM 12.52 54.536 0.466 7.78 2.42 8.88
4/10/2021 2:30:00 AM 12.48 54.464 0.465 7.77 2.33 8.85
4/10/2021 2:45:00 AM 12.44 54.392 0.466 7.75 2.23 8.82
4/10/2021 3:00:00 AM 12.41 54.338 7.483 7.72 2.21 8.56
4/10/2021 3:15:00 AM 12.37 54.266 13.662 7.72 2.38 8.33
4/10/2021 3:30:00 AM 12.34 54.212 3.811 7.71 2.39 8.63
4/10/2021 3:45:00 AM 12.3 54.14 4.61 7.7 2.2 8.59
4/10/2021 4:00:00 AM 12.27 54.086 4.749 7.69 4.26 8.56
4/10/2021 4:15:00 AM 12.24 54.032 4.613 7.69 2.43 8.57
4/10/2021 4:30:00 AM 12.2 53.96 4.431 7.68 2.83 8.56
4/10/2021 4:45:00 AM 12.17 53.906 4.073 7.68 2.31 8.56
4/10/2021 5:00:00 AM 12.14 53.852 10.455 7.66 2.22 8.36
4/10/2021 5:15:00 AM 12.11 53.798 0.467 7.67 2.19 8.66
4/10/2021 5:30:00 AM 12.08 53.744 4.472 7.66 2.27 8.55
4/10/2021 5:45:00 AM 12.05 53.69 5.659 7.65 2.42 8.49
4/10/2021 6:00:00 AM 12.02 53.636 0.47 7.65 2.41 8.65
4/10/2021 6:15:00 AM 11.99 53.582 5.037 7.65 2.56 8.43
4/10/2021 6:30:00 AM 11.97 53.546 6.23 7.65 2.4 8.46
4/10/2021 6:45:00 AM 11.94 53.492 3.413 7.64 2.22 8.55
4/10/2021 7:00:00 AM 11.92 53.456 10.075 7.63 2.25 8.4
4/10/2021 7:15:00 AM 11.9 53.42 8.491 7.64 2.3 8.44
4/10/2021 7:30:00 AM 11.88 53.384 0.47 7.65 3.25 8.73
4/10/2021 7:45:00 AM 11.87 53.366 0.469 7.67 2.36 8.81
4/10/2021 8:00:00 AM 11.87 53.366 7.075 7.65 2.25 8.56
4/10/2021 8:15:00 AM 11.86 53.348 8.692 7.65 2.34 8.57
4/10/2021 8:30:00 AM 11.86 53.348 5.94 7.67 2.21 8.86
4/10/2021 8:45:00 AM 11.86 53.348 11.803 7.67 2.35 8.75
4/10/2021 9:00:00 AM 11.88 53.384 10.704 7.68 1.96 8.93
4/10/2021 9:15:00 AM 11.89 53.402 2.644 7.7 2.01 9.34
4/10/2021 9:30:00 AM 11.91 53.438 6.827 7.71 2.14 9.3
4/10/2021 9:45:00 AM 11.95 53.51 6.394 7.72 2.98 9.49
4/10/2021 10:00:00 AM 11.99 53.582 8.393 7.73 2.46 9.51
4/10/2021 10:15:00 AM 12.06 53.708 10.377 7.76 2.36 9.74
4/10/2021 10:30:00 AM 12.16 53.888 10.946 7.77 2.22 9.81
4/10/2021 10:45:00 AM 12.3 54.14 0.467 7.81 2.26 10.53
4/10/2021 11:00:00 AM 12.45 54.41 7.326 7.84 2.41 10.46
4/10/2021 11:15:00 AM 12.58 54.644 7.042 7.86 2.76 10.5
4/10/2021 11:30:00 AM 12.79 55.022 10.935 7.9 2.2 10.73
4/10/2021 11:45:00 AM 12.96 55.328 10.231 7.92 2.29 10.94
4/10/2021 12:00:00 PM 13.13 55.634 0.47 7.95 2.07 11.51
4/10/2021 12:15:00 PM 13.3 55.94 9.676 7.99 6.86 11.32
4/10/2021 12:30:00 PM 13.46 56.228 10.353 8.01 2.38 11.46
4/10/2021 12:45:00 PM 13.6 56.48 0.472 8.07 2.01 12.05
4/10/2021 1:00:00 PM 13.74 56.732 11.497 8.1 2.02 11.75
4/10/2021 1:15:00 PM 13.91 57.038 11.365 8.11 2.22 11.92
4/10/2021 1:30:00 PM 14.06 57.308 9.573 8.15 2.02 12.13
4/10/2021 1:45:00 PM 14.25 57.65 7.873 8.18 1.99 12.41
4/10/2021 2:00:00 PM 14.46 58.028 9.01 8.21 1.92 12.43
4/10/2021 2:15:00 PM 14.69 58.442 9.847 8.24 1.91 12.54
4/10/2021 2:30:00 PM 14.91 58.838 10.359 8.27 1.99 12.63
4/10/2021 2:45:00 PM 15.09 59.162 9.978 8.3 1.92 12.76
4/10/2021 3:00:00 PM 15.24 59.432 7.942 8.34 1.92 12.95
4/10/2021 3:15:00 PM 15.38 59.684 9.671 8.37 1.85 12.97
4/10/2021 3:30:00 PM 15.55 59.99 9.875 8.41 1.87 13.08
4/10/2021 3:45:00 PM 15.68 60.224 10.012 8.44 1.81 13.13
4/10/2021 4:00:00 PM 15.8 60.44 9.445 8.46 1.86 13.21
4/10/2021 4:15:00 PM 15.9 60.62 10.056 8.49 1.92 13.19
4/10/2021 4:30:00 PM 16.01 60.818 10.122 8.51 1.88 13.2
4/10/2021 4:45:00 PM 16.11 60.998 11.098 8.53 2.06 13.17
4/10/2021 5:00:00 PM 16.2 61.16 10.723 8.55 2.14 13.17
4/10/2021 5:15:00 PM 16.27 61.286 0.467 8.58 2.19 13.6
4/10/2021 5:30:00 PM 16.32 61.376 0.466 8.6 2.04 13.54
4/10/2021 5:45:00 PM 16.35 61.43 0.468 8.61 2.11 13.45
4/10/2021 6:00:00 PM 16.36 61.448 0.466 8.61 1.94 13.34
4/10/2021 6:15:00 PM 16.35 61.43 0.466 8.62 1.99 13.2
4/10/2021 6:30:00 PM 16.34 61.412 0.465 8.61 1.95 13.07
4/10/2021 6:45:00 PM 16.31 61.358 8.001 8.59 2.05 12.59
4/10/2021 7:00:00 PM 16.27 61.286 8.041 8.58 1.91 12.41
4/10/2021 7:15:00 PM 16.23 61.214 8.32 8.57 1.94 12.15
4/10/2021 7:30:00 PM 16.19 61.142 8.859 8.56 1.98 11.97
4/10/2021 7:45:00 PM 16.13 61.034 8.484 8.54 1.98 11.76
4/10/2021 8:00:00 PM 16.07 60.926 9.289 8.52 2.09 11.5
4/10/2021 8:15:00 PM 16.01 60.818 10.789 8.5 2.03 11.21
4/10/2021 8:30:00 PM 15.95 60.71 11.299 8.47 2.06 10.97
4/10/2021 8:45:00 PM 15.88 60.584 8.545 8.47 2.21 10.86
4/10/2021 9:00:00 PM 15.81 60.458 11.77 8.42 2.42 10.54
4/10/2021 9:15:00 PM 15.75 60.35 9.576 8.4 2.42 10.41
4/10/2021 9:30:00 PM 15.68 60.224 11.515 8.37 2.62 10.15
4/10/2021 9:45:00 PM 15.6 60.08 0.343 8.36 2.48 10.33
4/10/2021 10:00:00 PM 15.53 59.954 10.344 8.32 2.73 9.8
4/10/2021 10:15:00 PM 15.46 59.828 0.472 8.3 2.77 10
4/10/2021 10:30:00 PM 15.39 59.702 8.74 8.25 2.75 9.54
4/10/2021 10:45:00 PM 15.32 59.576 9.542 8.2 2.72 9.36
4/10/2021 11:00:00 PM 15.24 59.432 10.032 8.18 2.69 9.2
4/10/2021 11:15:00 PM 15.17 59.306 9.271 8.14 2.51 9.03
4/10/2021 11:30:00 PM 15.1 59.18 11.381 8.11 2.85 8.88
4/10/2021 11:45:00 PM 15.02 59.036 0.473 8.11 2.52 9.12
4/11/2021 12:00:00 AM 14.95 58.91 0.473 8.06 2.43 9
4/11/2021 12:15:00 AM 14.88 58.784 11.005 8.01 2.61 8.55
4/11/2021 12:30:00 AM 14.81 58.658 11.163 7.97 3.45 8.42
4/11/2021 12:45:00 AM 14.73 58.514 0.484 7.98 2.69 8.7
4/11/2021 1:00:00 AM 14.66 58.388 11.432 7.93 2.58 8.27
4/11/2021 1:15:00 AM 14.59 58.262 11.564 7.87 2.85 8.15
4/11/2021 1:30:00 AM 14.52 58.136 0.465 7.87 2.59 8.4
4/11/2021 1:45:00 AM 14.45 58.01 0.486 7.84 2.53 8.28
4/11/2021 2:00:00 AM 14.39 57.902 10.029 7.82 2.6 7.97
4/11/2021 2:15:00 AM 14.33 57.794 9.79 7.8 2.88 7.92
4/11/2021 2:30:00 AM 14.27 57.686 9.753 7.77 2.57 7.86
4/11/2021 2:45:00 AM 14.21 57.578 9.929 7.75 2.85 7.8
4/11/2021 3:00:00 AM 14.17 57.506 9.839 7.74 2.66 7.75
4/11/2021 3:15:00 AM 14.12 57.416 9.979 7.72 2.69 7.72
4/11/2021 3:30:00 AM 14.07 57.326 10.315 7.7 2.64 7.67
4/11/2021 3:45:00 AM 14.02 57.236 9.105 7.69 2.61 7.66
4/11/2021 4:00:00 AM 13.97 57.146 11.785 7.69 2.57 7.58
4/11/2021 4:15:00 AM 13.92 57.056 0.479 7.69 2.42 7.88
4/11/2021 4:30:00 AM 13.88 56.984 12.253 7.67 2.54 7.55
4/11/2021 4:45:00 AM 13.84 56.912 11.921 7.65 2.63 7.55
4/11/2021 5:00:00 AM 13.79 56.822 10.411 7.65 2.68 7.59
4/11/2021 5:15:00 AM 13.75 56.75 10.566 7.64 2.73 7.59
4/11/2021 5:30:00 AM 13.71 56.678 10.41 7.64 2.59 7.59
4/11/2021 5:45:00 AM 13.66 56.588 11.355 7.64 2.98 7.53
4/11/2021 6:00:00 AM 13.62 56.516 11.494 7.64 2.64 7.54
4/11/2021 6:15:00 AM 13.58 56.444 10.892 7.62 2.48 7.58
4/11/2021 6:30:00 AM 13.54 56.372 10.975 7.62 2.58 7.58
4/11/2021 6:45:00 AM 13.49 56.282 10.708 7.62 2.48 7.59
4/11/2021 7:00:00 AM 13.45 56.21 10.71 7.63 2.51 7.61
4/11/2021 7:15:00 AM 13.41 56.138 9.678 7.62 2.46 7.65
4/11/2021 7:30:00 AM 13.37 56.066 0.481 7.64 2.43 7.93
4/11/2021 7:45:00 AM 13.33 55.994 0.473 7.64 2.45 7.98
4/11/2021 8:00:00 AM 13.32 55.976 11.078 7.62 2.93 7.75
4/11/2021 8:15:00 AM 13.29 55.922 11.295 7.62 2.41 7.79
4/11/2021 8:30:00 AM 13.26 55.868 0.486 7.63 2.71 8.17
4/11/2021 8:45:00 AM 13.23 55.814 0.48 7.65 2.71 8.24
4/11/2021 9:00:00 AM 13.21 55.778 11.738 7.64 2.84 7.98
4/11/2021 9:15:00 AM 13.19 55.742 11.041 7.64 2.53 8.08
4/11/2021 9:30:00 AM 13.17 55.706 0.48 7.67 2.59 8.47
4/11/2021 9:45:00 AM 13.16 55.688 11.879 7.67 3.29 8.24
4/11/2021 10:00:00 AM 13.15 55.67 0.476 7.67 2.89 8.69
4/11/2021 10:15:00 AM 13.14 55.652 10.968 7.68 2.77 8.49
4/11/2021 10:30:00 AM 13.14 55.652 7.324 7.7 2.77 8.74
4/11/2021 10:45:00 AM 13.14 55.652 0.479 7.73 2.99 9.12
4/11/2021 11:00:00 AM 13.15 55.67 0.477 7.74 4.07 9.25
4/11/2021 11:15:00 AM 13.17 55.706 0.474 7.77 2.95 9.46
4/11/2021 11:30:00 AM 13.19 55.742 0.476 7.79 2.75 9.61
4/11/2021 11:45:00 AM 13.22 55.796 0.475 7.81 4.07 9.82
4/11/2021 12:00:00 PM 13.26 55.868 0.475 7.84 2.91 10.04
4/11/2021 12:15:00 PM 13.33 55.994 0.474 7.87 3.05 10.24
4/11/2021 12:30:00 PM 13.43 56.174 0.472 7.9 3.07 10.47
4/11/2021 12:45:00 PM 13.49 56.282 0.474 7.93 2.88 10.68
4/11/2021 1:00:00 PM 13.52 56.336 0.472 7.94 3.91 10.79
4/11/2021 1:15:00 PM 13.55 56.39 13.605 7.95 2.83 10.47
4/11/2021 1:30:00 PM 13.56 56.408 12.424 7.98 2.8 10.64
4/11/2021 1:45:00 PM 13.56 56.408 11.771 8 2.95 10.73
4/11/2021 2:00:00 PM 13.57 56.426 11.759 8.02 2.97 10.82
4/11/2021 2:15:00 PM 13.63 56.534 11.905 8.06 3.17 10.99
4/11/2021 2:30:00 PM 13.71 56.678 0.47 8.13 3.17 11.63
4/11/2021 2:45:00 PM 13.85 56.93 0.469 8.16 2.82 11.83
4/11/2021 3:00:00 PM 13.95 57.11 0.466 8.2 2.74 11.98
4/11/2021 3:15:00 PM 13.99 57.182 0.133 8.24 2.75 12.08
4/11/2021 3:30:00 PM 14.04 57.272 0.467 8.26 2.68 12.16
4/11/2021 3:45:00 PM 14.05 57.29 0.465 8.29 2.5 12.21
4/11/2021 4:00:00 PM 14.04 57.272 0.464 8.3 2.6 12.19
4/11/2021 4:15:00 PM 14.05 57.29 0.462 8.31 8.55 12.17
4/11/2021 4:30:00 PM 14.06 57.308 0.462 8.31 5.07 12.16
4/11/2021 4:45:00 PM 14.1 57.38 13.236 8.3 7.87 11.63
4/11/2021 5:00:00 PM 14.12 57.416 11.89 8.32 6.78 11.63
4/11/2021 5:15:00 PM 14.15 57.47 11.861 8.33 4.38 11.58
4/11/2021 5:30:00 PM 14.17 57.506 0.466 8.36 4.53 11.96
4/11/2021 5:45:00 PM 14.18 57.524 11.67 8.35 5.52 11.43
4/11/2021 6:00:00 PM 14.17 57.506 0.461 8.38 5.1 11.78
4/11/2021 6:15:00 PM 14.14 57.452 11.96 8.31 6.19 11.11
4/11/2021 6:30:00 PM 14.12 57.416 0.401 8.33 6.33 11.43
4/11/2021 6:45:00 PM 14.1 57.38 11.044 8.27 4.73 10.85
4/11/2021 7:00:00 PM 14.08 57.344 11.071 8.26 5.07 10.71
4/11/2021 7:15:00 PM 14.04 57.272 10.982 8.21 6.37 10.52
4/11/2021 7:30:00 PM 14.02 57.236 0.475 8.22 6.52 10.8
4/11/2021 7:45:00 PM 13.99 57.182 3.765 8.2 7.33 10.54
4/11/2021 8:00:00 PM 13.96 57.128 0.478 8.16 8.74 10.48
4/11/2021 8:15:00 PM 13.93 57.074 12.82 8.13 9.54 9.9
4/11/2021 8:30:00 PM 13.88 56.984 0.463 8.08 7.82 10.14
4/11/2021 8:45:00 PM 13.82 56.876 12.057 8 12.44 9.53
4/11/2021 9:00:00 PM 13.74 56.732 11.676 7.94 15.57 9.37
4/11/2021 9:15:00 PM 13.64 56.552 10.516 7.87 14.34 9.27
4/11/2021 9:30:00 PM 13.52 56.336 0.441 7.83 16.09 9.49
4/11/2021 9:45:00 PM 13.43 56.174 10.814 7.74 27.77 9.03
4/11/2021 10:00:00 PM 13.33 55.994 10.987 7.67 35.99 8.93
4/11/2021 10:15:00 PM 13.23 55.814 10.375 7.62 94.81 8.89
4/11/2021 10:30:00 PM 13.16 55.688 10.257 7.58 92.39 8.92
4/11/2021 10:45:00 PM 13.01 55.418 9.53 7.53 137.46 8.97
4/11/2021 11:00:00 PM 12.73 54.914 8.901 7.47 213.37 9.03
4/11/2021 11:15:00 PM 12.39 54.302 7.905 7.42 305.91 9.22
4/11/2021 11:30:00 PM 12.1 53.78 7.203 7.35 349.71 9.34
4/11/2021 11:45:00 PM 11.88 53.384 6.802 7.33 291.68 9.48
4/12/2021 12:00:00 AM 11.66 52.988 4.583 7.29 388 9.65
4/12/2021 12:15:00 AM 11.45 52.61 4.388 7.27 501.23 9.74
4/12/2021 12:30:00 AM 11.32 52.376 4.426 7.23 351.88 9.8
4/12/2021 12:45:00 AM 11.26 52.268 0.221 7.22 368.3 9.94
4/12/2021 1:00:00 AM 11.24 52.232 6.62 7.22 378.36 9.71
4/12/2021 1:15:00 AM 11.21 52.178 6.496 7.19 334.56 9.72
4/12/2021 1:30:00 AM 11.16 52.088 6.43 7.21 330.59 9.75
4/12/2021 1:45:00 AM 11.1 51.98 0.116 7.21 362.62 9.99
4/12/2021 2:00:00 AM 11.05 51.89 6.248 7.2 269.75 9.81
4/12/2021 2:15:00 AM 11.01 51.818 0.203 7.22 441.53 10.04
4/12/2021 2:30:00 AM 10.98 51.764 3.749 7.2 268.43 9.93
4/12/2021 2:45:00 AM 10.95 51.71 6.112 7.19 179.67 9.85
4/12/2021 3:00:00 AM 10.92 51.656 6.1 7.17 197.76 9.85
4/12/2021 3:15:00 AM 10.89 51.602 4.605 7.19 182.89 9.91
4/12/2021 3:30:00 AM 10.85 51.53 5.891 7.19 140.72 10.06
4/12/2021 3:45:00 AM 10.82 51.476 0.11 7.21 152.42 10.06
4/12/2021 4:00:00 AM 10.79 51.422 0.109 7.2 187.99 10.07
4/12/2021 4:15:00 AM 10.75 51.35 0.114 7.19 153.35 10.08
4/12/2021 4:30:00 AM 10.72 51.296 0.345 7.21 139.81 10.07
4/12/2021 4:45:00 AM 10.69 51.242 6.324 7.16 93.02 9.87
4/12/2021 5:00:00 AM 10.65 51.17 6.158 7.18 84.07 9.89
4/12/2021 5:15:00 AM 10.62 51.116 6.391 7.19 86.89 9.89
4/12/2021 5:30:00 AM 10.6 51.08 6.379 7.19 79.12 9.91
4/12/2021 5:45:00 AM 10.57 51.026 6.373 7.21 88.67 10.13
4/12/2021 6:00:00 AM 10.55 50.99 6.324 7.21 84.85 9.93
4/12/2021 6:15:00 AM 10.53 50.954 0.211 7.23 87.33 10.15
4/12/2021 6:30:00 AM 10.5 50.9 6.272 7.22 85.64 9.95
4/12/2021 6:45:00 AM 10.48 50.864 6.336 7.22 61.86 9.95
4/12/2021 7:00:00 AM 10.45 50.81 6.475 7.22 63.16 9.96
4/12/2021 7:15:00 AM 10.42 50.756 6.391 7.23 73.44 9.97
4/12/2021 7:30:00 AM 10.4 50.72 6.428 7.23 56.96 9.98
4/12/2021 7:45:00 AM 10.38 50.684 6.471 7.23 76.02 9.99
4/12/2021 8:00:00 AM 10.36 50.648 6.387 7.24 60.12 10
4/12/2021 8:15:00 AM 10.34 50.612 6.213 7.24 54.69 10.01
4/12/2021 8:30:00 AM 10.32 50.576 6.591 7.25 59.76 10.01
4/12/2021 8:45:00 AM 10.3 50.54 6.513 7.25 44.91 10.02
4/12/2021 9:00:00 AM 10.28 50.504 6.511 7.26 38.97 10.03
4/12/2021 9:15:00 AM 10.26 50.468 6.56 7.26 45.89 10.04
4/12/2021 9:30:00 AM 10.25 50.45 6.513 7.27 55.1 10.06
4/12/2021 9:45:00 AM 10.24 50.432 6.565 7.27 35.68 10.07
4/12/2021 10:00:00 AM 10.23 50.414 6.644 7.28 32.94 10.08
4/12/2021 10:15:00 AM 10.22 50.396 6.632 7.28 45.57 10.09
4/12/2021 10:30:00 AM 10.21 50.378 6.638 7.28 31.33 10.1
4/12/2021 10:45:00 AM 10.2 50.36 6.562 7.29 31.97 10.12
4/12/2021 11:00:00 AM 10.19 50.342 6.381 7.3 30.93 10.14
4/12/2021 11:15:00 AM 10.19 50.342 6.592 7.31 27.33 10.15
4/12/2021 11:30:00 AM 10.19 50.342 6.542 7.31 27.75 10.17
4/12/2021 11:45:00 AM 10.21 50.378 6.641 7.32 28.78 10.2
4/12/2021 12:00:00 PM 10.25 50.45 6.624 7.33 28.32 10.24
4/12/2021 12:15:00 PM 10.31 50.558 6.623 7.34 19.68 10.27
4/12/2021 12:30:00 PM 10.39 50.702 6.582 7.36 24.66 10.31
4/12/2021 12:45:00 PM 10.44 50.792 6.737 7.36 22.61 10.33
4/12/2021 1:00:00 PM 10.48 50.864 6.726 7.38 24.94 10.36
4/12/2021 1:15:00 PM 10.51 50.918 6.768 7.39 22.17 10.39
4/12/2021 1:30:00 PM 10.53 50.954 0.225 7.41 17.25 10.65
4/12/2021 1:45:00 PM 10.53 50.954 0.223 7.42 21.43 10.66
4/12/2021 2:00:00 PM 10.54 50.972 0.223 7.43 21.16 10.68
4/12/2021 2:15:00 PM 10.53 50.954 6.164 7.42 21.53 10.47
4/12/2021 2:30:00 PM 10.51 50.918 6.534 7.43 22.93 10.46
4/12/2021 2:45:00 PM 10.49 50.882 6.391 7.43 21.76 10.47
4/12/2021 3:00:00 PM 10.47 50.846 6.478 7.43 22.93 10.47
4/12/2021 3:15:00 PM 10.43 50.774 6.423 7.44 19.92 10.5
4/12/2021 3:30:00 PM 10.4 50.72 6.589 7.44 22.7 10.49
4/12/2021 3:45:00 PM 10.35 50.63 6.468 7.45 17.49 10.49
4/12/2021 4:00:00 PM 10.31 50.558 6.568 7.45 20.13 10.49
4/12/2021 4:15:00 PM 10.28 50.504 6.576 7.45 19.97 10.5
4/12/2021 4:30:00 PM 10.25 50.45 6.558 7.45 21.33 10.51
4/12/2021 4:45:00 PM 10.22 50.396 6.669 7.45 18.82 10.51
4/12/2021 5:00:00 PM 10.19 50.342 6.618 7.45 15.49 10.5
4/12/2021 5:15:00 PM 10.16 50.288 6.624 7.46 19.23 10.5
4/12/2021 5:30:00 PM 10.14 50.252 6.667 7.46 18.72 10.49
4/12/2021 5:45:00 PM 10.11 50.198 6.792 7.46 17.81 10.49
4/12/2021 6:00:00 PM 10.09 50.162 6.868 7.46 19.23 10.47
4/12/2021 6:15:00 PM 10.06 50.108 6.778 7.45 15.49 10.46
4/12/2021 6:30:00 PM 10.04 50.072 6.819 7.45 16.81 10.45
4/12/2021 6:45:00 PM 10.02 50.036 6.785 7.45 17.33 10.44
4/12/2021 7:00:00 PM 9.99 49.982 6.512 7.45 18.07 10.44
4/12/2021 7:15:00 PM 9.97 49.946 6.834 7.44 16.89 10.41
4/12/2021 7:30:00 PM 9.94 49.892 6.833 7.44 16.88 10.4
4/12/2021 7:45:00 PM 9.91 49.838 7.374 7.44 17.33 10.37
4/12/2021 8:00:00 PM 9.88 49.784 0.166 7.44 16.65 10.62
4/12/2021 8:15:00 PM 9.84 49.712 0.241 7.45 16.29 10.61
4/12/2021 8:30:00 PM 9.82 49.676 0.241 7.45 13.35 10.6
4/12/2021 8:45:00 PM 9.8 49.64 7.29 7.43 17.17 10.33
4/12/2021 9:00:00 PM 9.78 49.604 0.259 7.43 16.65 10.57
4/12/2021 9:15:00 PM 9.77 49.586 7.365 7.42 16.33 10.29
4/12/2021 9:30:00 PM 9.75 49.55 0.234 7.44 16.81 10.54
4/12/2021 9:45:00 PM 9.73 49.514 7.293 7.42 16.31 10.27
4/12/2021 10:00:00 PM 9.71 49.478 0.241 7.43 16.38 10.53
4/12/2021 10:15:00 PM 9.68 49.424 0.237 7.43 14.37 10.53
4/12/2021 10:30:00 PM 9.65 49.37 6.51 7.42 16.71 10.29
4/12/2021 10:45:00 PM 9.62 49.316 6.478 7.41 13.25 10.3
4/12/2021 11:00:00 PM 9.58 49.244 6.473 7.42 15.28 10.3
4/12/2021 11:15:00 PM 9.55 49.19 6.514 7.41 15.1 10.3
4/12/2021 11:30:00 PM 9.52 49.136 6.602 7.41 15.46 10.3
4/12/2021 11:45:00 PM 9.49 49.082 6.487 7.41 14.71 10.3
4/13/2021 12:00:00 AM 9.46 49.028 6.469 7.41 14.2 10.31
4/13/2021 12:15:00 AM 9.43 48.974 6.564 7.41 13.98 10.31
4/13/2021 12:30:00 AM 9.4 48.92 6.52 7.41 14.74 10.31
4/13/2021 12:45:00 AM 9.37 48.866 7.44 7.41 14.29 10.28
4/13/2021 1:00:00 AM 9.34 48.812 7.393 7.41 14.25 10.29
4/13/2021 1:15:00 AM 9.31 48.758 6.722 7.41 13.97 10.32
4/13/2021 1:30:00 AM 9.27 48.686 6.893 7.41 13.92 10.32
4/13/2021 1:45:00 AM 9.24 48.632 7.02 7.41 13.29 10.32
4/13/2021 2:00:00 AM 9.21 48.578 7.107 7.41 13.47 10.32
4/13/2021 2:15:00 AM 9.18 48.524 6.971 7.42 13.41 10.33
4/13/2021 2:30:00 AM 9.16 48.488 6.923 7.42 12.84 10.34
4/13/2021 2:45:00 AM 9.13 48.434 6.9 7.42 12.83 10.35
4/13/2021 3:00:00 AM 9.1 48.38 0.247 7.43 12.48 10.61
4/13/2021 3:15:00 AM 9.07 48.326 7.421 7.42 12.85 10.36
4/13/2021 3:30:00 AM 9.04 48.272 7.032 7.42 12.78 10.38
4/13/2021 3:45:00 AM 9.01 48.218 7.074 7.41 12.64 10.39
4/13/2021 4:00:00 AM 8.98 48.164 6.807 7.42 12.01 10.41
4/13/2021 4:15:00 AM 8.96 48.128 7.052 7.42 12.62 10.4
4/13/2021 4:30:00 AM 8.93 48.074 6.979 7.42 12.01 10.42
4/13/2021 4:45:00 AM 8.9 48.02 7.076 7.42 12.26 10.42
4/13/2021 5:00:00 AM 8.88 47.984 7.48 7.42 11.91 10.42
4/13/2021 5:15:00 AM 8.85 47.93 7.512 7.42 12.02 10.41
4/13/2021 5:30:00 AM 8.83 47.894 7.476 7.42 12.38 10.42
4/13/2021 5:45:00 AM 8.8 47.84 7.464 7.42 12.47 10.43
4/13/2021 6:00:00 AM 8.77 47.786 0.248 7.43 11.92 10.71
4/13/2021 6:15:00 AM 8.75 47.75 0.248 7.43 11.74 10.72
4/13/2021 6:30:00 AM 8.73 47.714 0.247 7.43 11.91 10.72
4/13/2021 6:45:00 AM 8.71 47.678 0.246 7.43 12.11 10.74
4/13/2021 7:00:00 AM 8.69 47.642 0.246 7.43 11.96 10.74
4/13/2021 7:15:00 AM 8.68 47.624 0.245 7.43 11.59 10.75
4/13/2021 7:30:00 AM 8.67 47.606 0.245 7.43 11.12 10.77
4/13/2021 7:45:00 AM 8.66 47.588 0.244 7.43 11.29 10.78
4/13/2021 8:00:00 AM 8.65 47.57 0.244 7.44 10.86 10.81
4/13/2021 8:15:00 AM 8.65 47.57 7.835 7.43 10.43 10.53
4/13/2021 8:30:00 AM 8.64 47.552 7.635 7.43 10.25 10.57
4/13/2021 8:45:00 AM 8.65 47.57 7.664 7.44 10.61 10.6
4/13/2021 9:00:00 AM 8.67 47.606 7.675 7.44 10.71 10.63
4/13/2021 9:15:00 AM 8.7 47.66 7.587 7.45 9.84 10.69
4/13/2021 9:30:00 AM 8.75 47.75 7.747 7.47 9.59 10.74
4/13/2021 9:45:00 AM 8.82 47.876 7.531 7.48 9.24 10.81
4/13/2021 10:00:00 AM 8.87 47.966 8.514 7.5 8.89 10.83
4/13/2021 10:15:00 AM 8.9 48.02 7.788 7.51 8.89 10.91
4/13/2021 10:30:00 AM 8.93 48.074 7.631 7.52 8.88 10.96
4/13/2021 10:45:00 AM 8.95 48.11 7.624 7.53 8.74 10.98
4/13/2021 11:00:00 AM 8.99 48.182 7.663 7.54 8.6 11.02
4/13/2021 11:15:00 AM 9.02 48.236 8.616 7.56 8.74 11.03
4/13/2021 11:30:00 AM 9.09 48.362 7.627 7.57 8.76 11.12
4/13/2021 11:45:00 AM 9.16 48.488 7.641 7.58 8.28 11.15
4/13/2021 12:00:00 PM 9.26 48.668 7.642 7.6 8.08 11.19
4/13/2021 12:15:00 PM 9.41 48.938 0.249 7.63 8.4 11.55
4/13/2021 12:30:00 PM 9.51 49.118 0.248 7.64 8.28 11.59
4/13/2021 12:45:00 PM 9.6 49.28 0.248 7.66 8.14 11.62
4/13/2021 1:00:00 PM 9.77 49.586 0.249 7.67 8.33 11.64
4/13/2021 1:15:00 PM 9.92 49.856 0.249 7.69 8.21 11.67
4/13/2021 1:30:00 PM 10.12 50.216 0.416 7.7 8.24 11.7
4/13/2021 1:45:00 PM 10.32 50.576 7.812 7.7 7.74 11.41
4/13/2021 2:00:00 PM 10.5 50.9 0.249 7.73 7.92 11.74
4/13/2021 2:15:00 PM 10.64 51.152 7.83 7.74 7.88 11.44
4/13/2021 2:30:00 PM 10.78 51.404 7.922 7.75 7.67 11.44
4/13/2021 2:45:00 PM 10.9 51.62 0.251 7.78 7.61 11.76
4/13/2021 3:00:00 PM 11.05 51.89 0.251 7.79 8.04 11.75
4/13/2021 3:15:00 PM 11.29 52.322 0.252 7.8 7.91 11.75
4/13/2021 3:30:00 PM 11.38 52.484 0.252 7.82 7.87 11.72
4/13/2021 3:45:00 PM 11.4 52.52 0.251 7.82 7.6 11.68
4/13/2021 4:00:00 PM 11.43 52.574 0.256 7.82 7.38 11.66
4/13/2021 4:15:00 PM 11.54 52.772 7.872 7.82 7.53 11.35
4/13/2021 4:30:00 PM 11.61 52.898 7.713 7.83 7.42 11.34
4/13/2021 4:45:00 PM 11.67 53.006 7.762 7.84 7.41 11.29
4/13/2021 5:00:00 PM 11.72 53.096 7.626 7.84 7.51 11.26
4/13/2021 5:15:00 PM 11.79 53.222 0.24 7.84 7.64 11.51
4/13/2021 5:30:00 PM 11.85 53.33 7.552 7.83 7.52 11.16
4/13/2021 5:45:00 PM 11.9 53.42 0.254 7.84 7.27 11.4
4/13/2021 6:00:00 PM 11.95 53.51 7.756 7.82 7.7 11.04
4/13/2021 6:15:00 PM 12 53.6 8.15 7.82 7.45 10.97
4/13/2021 6:30:00 PM 12.03 53.654 7.795 7.81 7.55 10.9
4/13/2021 6:45:00 PM 12.03 53.654 7.808 7.79 7.49 10.81
4/13/2021 7:00:00 PM 12.03 53.654 7.628 7.77 7.63 10.75
4/13/2021 7:15:00 PM 12.02 53.636 7.582 7.76 8.27 10.69
4/13/2021 7:30:00 PM 12.02 53.636 0.385 7.74 7.02 10.89
4/13/2021 7:45:00 PM 12.03 53.654 0.071 7.74 7.39 10.8
4/13/2021 8:00:00 PM 12.05 53.69 7.047 7.7 7.21 10.46
4/13/2021 8:15:00 PM 12.05 53.69 7.397 7.69 7.2 10.38
4/13/2021 8:30:00 PM 12.03 53.654 7.477 7.67 7.84 10.31
4/13/2021 8:45:00 PM 12 53.6 7.741 7.66 7.69 10.23
4/13/2021 9:00:00 PM 11.98 53.564 7.099 7.64 7.69 10.17
4/13/2021 9:15:00 PM 11.95 53.51 9.77 7.63 7.62 10.01
4/13/2021 9:30:00 PM 11.92 53.456 0.26 7.62 7.78 10.29
4/13/2021 9:45:00 PM 11.89 53.402 0.272 7.59 7.93 10.23
4/13/2021 10:00:00 PM 11.85 53.33 8.104 7.58 7.83 9.91
4/13/2021 10:15:00 PM 11.79 53.222 8.056 7.56 7.9 9.87
4/13/2021 10:30:00 PM 11.73 53.114 0.262 7.56 8.08 10.11
4/13/2021 10:45:00 PM 11.67 53.006 7.85 7.54 8.21 9.81
4/13/2021 11:00:00 PM 11.6 52.88 0.263 7.53 8.18 10.05
4/13/2021 11:15:00 PM 11.53 52.754 0.262 7.53 8.26 10.04
4/13/2021 11:30:00 PM 11.46 52.628 0.262 7.52 8.22 10.02
4/13/2021 11:45:00 PM 11.38 52.484 0.263 7.51 8.39 10.01
4/14/2021 12:00:00 AM 11.3 52.34 0.263 7.5 8.2 10.01
4/14/2021 12:15:00 AM 11.22 52.196 0.263 7.5 8.15 10.01
4/14/2021 12:30:00 AM 11.14 52.052 0.263 7.49 8.17 10.01
4/14/2021 12:45:00 AM 11.05 51.89 0.263 7.49 8.21 10.02
4/14/2021 1:00:00 AM 10.97 51.746 0.263 7.48 7.97 10.03
4/14/2021 1:15:00 AM 10.88 51.584 0.264 7.48 8.16 10.05
4/14/2021 1:30:00 AM 10.79 51.422 0.264 7.48 7.98 10.06
4/14/2021 1:45:00 AM 10.7 51.26 0.265 7.48 8.01 10.08
4/14/2021 2:00:00 AM 10.6 51.08 0.265 7.48 8.06 10.09
4/14/2021 2:15:00 AM 10.5 50.9 0.265 7.48 8.11 10.12
4/14/2021 2:30:00 AM 10.4 50.72 0.266 7.47 8.19 10.14
4/14/2021 2:45:00 AM 10.31 50.558 0.266 7.47 8.18 10.16
4/14/2021 3:00:00 AM 10.22 50.396 0.266 7.47 8.25 10.19
4/14/2021 3:15:00 AM 10.13 50.234 0.266 7.47 8.16 10.21
4/14/2021 3:30:00 AM 10.05 50.09 0.267 7.47 8.02 10.23
4/14/2021 3:45:00 AM 9.96 49.928 0.267 7.47 8.04 10.26
4/14/2021 4:00:00 AM 9.87 49.766 0.268 7.47 7.68 10.28
4/14/2021 4:15:00 AM 9.78 49.604 0.268 7.47 7.61 10.3
4/14/2021 4:30:00 AM 9.71 49.478 0.268 7.47 7.64 10.33
4/14/2021 4:45:00 AM 9.63 49.334 0.269 7.47 7.5 10.35
4/14/2021 5:00:00 AM 9.56 49.208 0.269 7.47 7.9 10.38
4/14/2021 5:15:00 AM 9.49 49.082 0.269 7.47 7.67 10.4
4/14/2021 5:30:00 AM 9.43 48.974 0.269 7.47 7.61 10.42
4/14/2021 5:45:00 AM 9.37 48.866 0.27 7.47 7.36 10.44
4/14/2021 6:00:00 AM 9.3 48.74 0.27 7.47 7.22 10.45
4/14/2021 6:15:00 AM 9.25 48.65 0.27 7.47 7.62 10.47
4/14/2021 6:30:00 AM 9.19 48.542 0.271 7.47 7.45 10.49
4/14/2021 6:45:00 AM 9.13 48.434 0.271 7.47 7.51 10.5
4/14/2021 7:00:00 AM 9.08 48.344 0.271 7.47 7.61 10.53
4/14/2021 7:15:00 AM 9.03 48.254 0.271 7.48 7.58 10.56
4/14/2021 7:30:00 AM 8.99 48.182 0.272 7.48 6.88 10.6
4/14/2021 7:45:00 AM 8.96 48.128 0.272 7.49 6.73 10.64
4/14/2021 8:00:00 AM 8.93 48.074 0.272 7.49 7 10.67
4/14/2021 8:15:00 AM 8.91 48.038 0.273 7.5 6.69 10.72
4/14/2021 8:30:00 AM 8.89 48.002 0.273 7.5 6.52 10.77
4/14/2021 8:45:00 AM 8.89 48.002 0.273 7.51 6.33 10.85
4/14/2021 9:00:00 AM 8.9 48.02 0.273 7.53 6.4 10.94
4/14/2021 9:15:00 AM 8.91 48.038 0.273 7.54 6.47 11.01
4/14/2021 9:30:00 AM 8.94 48.092 0.273 7.55 6.09 11.09
4/14/2021 9:45:00 AM 8.97 48.146 0.274 7.57 5.86 11.19
4/14/2021 10:00:00 AM 9 48.2 0.274 7.59 5.71 11.27
4/14/2021 10:15:00 AM 9.04 48.272 0.274 7.6 5.67 11.36
4/14/2021 10:30:00 AM 9.1 48.38 0.274 7.62 5.65 11.45
4/14/2021 10:45:00 AM 9.19 48.542 0.274 7.64 5.47 11.54
4/14/2021 11:00:00 AM 9.28 48.704 0.274 7.67 5.42 11.63
4/14/2021 11:15:00 AM 9.39 48.902 0.275 7.69 5.43 11.72
4/14/2021 11:30:00 AM 9.56 49.208 0.275 7.72 5.37 11.81
4/14/2021 11:45:00 AM 9.73 49.514 0.275 7.74 5.29 11.86
4/14/2021 12:00:00 PM 9.92 49.856 0.275 7.76 5.32 11.94
4/14/2021 12:15:00 PM 10.12 50.216 0.275 7.79 4.89 12
4/14/2021 12:30:00 PM 10.33 50.594 0.275 7.82 5.12 12.05
4/14/2021 12:45:00 PM 10.46 50.828 0.275 7.84 5.37 12.06
4/14/2021 1:00:00 PM 10.55 50.99 0.276 7.85 5.13 12.06
4/14/2021 1:15:00 PM 10.83 51.494 0.276 7.88 5.3 12.12
4/14/2021 1:30:00 PM 10.99 51.782 0.276 7.9 5.15 12.13
4/14/2021 1:45:00 PM 11.07 51.926 0.276 7.92 5.05 12.12
4/14/2021 2:00:00 PM 11.19 52.142 0.277 7.93 5.39 12.1
4/14/2021 2:15:00 PM 11.51 52.718 0.277 7.96 5.29 12.13
4/14/2021 2:30:00 PM 11.75 53.15 0.277 7.98 5.23 12.13
4/14/2021 2:45:00 PM 11.8 53.24 0.277 8 5.39 12.11
4/14/2021 3:00:00 PM 11.83 53.294 0.277 8.01 5.42 12.06
4/14/2021 3:15:00 PM 11.92 53.456 0.277 8.02 5.48 12.03
4/14/2021 3:30:00 PM 12.04 53.672 0.277 8.03 5.34 12
4/14/2021 3:45:00 PM 12.12 53.816 0.277 8.04 5.31 11.97
4/14/2021 4:00:00 PM 12.13 53.834 0.278 8.05 5.03 11.92
4/14/2021 4:15:00 PM 12.14 53.852 0.277 8.05 5.07 11.86
4/14/2021 4:30:00 PM 12.18 53.924 0.277 8.05 5.03 11.8
4/14/2021 4:45:00 PM 12.2 53.96 0.275 8.04 5.05 11.74
4/14/2021 5:00:00 PM 12.22 53.996 0.274 8.04 4.99 11.68
4/14/2021 5:15:00 PM 12.24 54.032 0.274 8.03 4.91 11.61
4/14/2021 5:30:00 PM 12.27 54.086 0.274 8.02 5.45 11.52
4/14/2021 5:45:00 PM 12.32 54.176 0.274 7.99 7.14 11.39
4/14/2021 6:00:00 PM 12.38 54.284 0.274 7.96 8.04 11.28
4/14/2021 6:15:00 PM 12.42 54.356 0.274 7.94 7.69 11.17
4/14/2021 6:30:00 PM 12.48 54.464 0.275 7.92 7.42 11.07
4/14/2021 6:45:00 PM 12.52 54.536 0.275 7.9 7.77 10.98
4/14/2021 7:00:00 PM 12.54 54.572 0.276 7.88 6.99 10.87
4/14/2021 7:15:00 PM 12.55 54.59 0.277 7.86 6.69 10.77
4/14/2021 7:30:00 PM 12.55 54.59 0.277 7.84 6.5 10.68
4/14/2021 7:45:00 PM 12.55 54.59 0.277 7.82 6.06 10.58
4/14/2021 8:00:00 PM 12.56 54.608 0.278 7.8 5.74 10.48
4/14/2021 8:15:00 PM 12.56 54.608 0.278 7.78 5.64 10.39
4/14/2021 8:30:00 PM 12.57 54.626 0.278 7.76 5.91 10.3
4/14/2021 8:45:00 PM 12.58 54.644 0.279 7.74 6.14 10.2
4/14/2021 9:00:00 PM 12.59 54.662 0.279 7.71 6.37 10.11
4/14/2021 9:15:00 PM 12.6 54.68 0.28 7.69 6.57 10.03
4/14/2021 9:30:00 PM 12.61 54.698 0.28 7.67 6.28 9.95
4/14/2021 9:45:00 PM 12.62 54.716 0.281 7.66 6.1 9.87
4/14/2021 10:00:00 PM 12.62 54.716 0.281 7.64 6.27 9.81
4/14/2021 10:15:00 PM 12.61 54.698 0.282 7.63 6.3 9.75
4/14/2021 10:30:00 PM 12.58 54.644 0.282 7.62 6.21 9.7
4/14/2021 10:45:00 PM 12.56 54.608 0.282 7.61 6.18 9.66
4/14/2021 11:00:00 PM 12.52 54.536 0.283 7.6 6.01 9.63
4/14/2021 11:15:00 PM 12.49 54.482 0.283 7.59 6.07 9.6
4/14/2021 11:30:00 PM 12.45 54.41 0.284 7.58 5.91 9.58
4/14/2021 11:45:00 PM 12.41 54.338 0.284 7.58 5.96 9.57
4/15/2021 12:00:00 AM 12.37 54.266 0.285 7.57 6.07 9.55
4/15/2021 12:15:00 AM 12.33 54.194 0.285 7.57 6.18 9.54
4/15/2021 12:30:00 AM 12.28 54.104 0.286 7.56 6.1 9.54
4/15/2021 12:45:00 AM 12.22 53.996 0.286 7.56 6.34 9.54
4/15/2021 1:00:00 AM 12.16 53.888 0.286 7.55 6.45 9.54
4/15/2021 1:15:00 AM 12.09 53.762 0.287 7.55 6.42 9.54
4/15/2021 1:30:00 AM 12.03 53.654 0.287 7.55 6.36 9.56
4/15/2021 1:45:00 AM 11.96 53.528 0.288 7.54 6 9.57
4/15/2021 2:00:00 AM 11.88 53.384 0.276 7.53 6.05 9.58
4/15/2021 2:15:00 AM 11.8 53.24 0.29 7.54 6.12 9.59
4/15/2021 2:30:00 AM 11.71 53.078 0.29 7.53 6.28 9.61
4/15/2021 2:45:00 AM 11.62 52.916 0.291 7.53 6.01 9.63
4/15/2021 3:00:00 AM 11.53 52.754 0.292 7.52 5.89 9.65
4/15/2021 3:15:00 AM 11.43 52.574 0.292 7.53 6.09 9.67
4/15/2021 3:30:00 AM 11.34 52.412 0.138 7.52 5.93 9.7
4/15/2021 3:45:00 AM 11.23 52.214 0.17 7.52 6.25 9.72
4/15/2021 4:00:00 AM 11.12 52.016 9.279 7.51 5.7 9.43
4/15/2021 4:15:00 AM 11.01 51.818 0.293 7.52 6.05 9.77
4/15/2021 4:30:00 AM 10.91 51.638 0.293 7.52 5.91 9.8
4/15/2021 4:45:00 AM 10.81 51.458 0.293 7.52 5.99 9.82
4/15/2021 5:00:00 AM 10.7 51.26 0.294 7.52 5.81 9.85
4/15/2021 5:15:00 AM 10.61 51.098 0.126 7.52 6.2 9.87
4/15/2021 5:30:00 AM 10.51 50.918 0.296 7.52 5.86 9.89
4/15/2021 5:45:00 AM 10.42 50.756 0.298 7.52 5.7 9.9
4/15/2021 6:00:00 AM 10.34 50.612 9.423 7.51 5.83 9.6
4/15/2021 6:15:00 AM 10.26 50.468 0.299 7.52 5.4 9.95
4/15/2021 6:30:00 AM 10.18 50.324 0.297 7.51 5.39 9.98
4/15/2021 6:45:00 AM 10.11 50.198 9.472 7.51 5.63 9.67
4/15/2021 7:00:00 AM 10.03 50.054 0.298 7.53 5.59 10.03
4/15/2021 7:15:00 AM 9.96 49.928 9.455 7.51 5.38 9.73
4/15/2021 7:30:00 AM 9.9 49.82 9.626 7.51 5.27 9.75
4/15/2021 7:45:00 AM 9.83 49.694 0.299 7.53 5.43 10.12
4/15/2021 8:00:00 AM 9.78 49.604 0.299 7.54 5.16 10.2
4/15/2021 8:15:00 AM 9.74 49.532 0.299 7.55 5.06 10.28
4/15/2021 8:30:00 AM 9.68 49.424 9.418 7.54 5.4 10.01
4/15/2021 8:45:00 AM 9.64 49.352 0.3 7.56 4.89 10.42
4/15/2021 9:00:00 AM 9.58 49.244 0.3 7.57 5.04 10.44
4/15/2021 9:15:00 AM 9.53 49.154 9.485 7.56 5.16 10.15
4/15/2021 9:30:00 AM 9.49 49.082 0.293 7.58 4.98 10.56
4/15/2021 9:45:00 AM 9.45 49.01 0.299 7.59 4.69 10.63
4/15/2021 10:00:00 AM 9.41 48.938 0.299 7.6 4.45 10.7
4/15/2021 10:15:00 AM 9.37 48.866 0.299 7.61 4.49 10.75
4/15/2021 10:30:00 AM 9.34 48.812 0.299 7.62 4.28 10.82
4/15/2021 10:45:00 AM 9.31 48.758 0.299 7.63 4.24 10.88
4/15/2021 11:00:00 AM 9.28 48.704 0.3 7.65 4.33 10.95
4/15/2021 11:15:00 AM 9.25 48.65 0.301 7.67 4.38 11.04
4/15/2021 11:30:00 AM 9.21 48.578 0.299 7.68 4.15 11.12
4/15/2021 11:45:00 AM 9.19 48.542 0.299 7.7 4.42 11.21
4/15/2021 12:00:00 PM 9.16 48.488 0.3 7.72 4.24 11.3
4/15/2021 12:15:00 PM 9.15 48.47 0.299 7.73 4.27 11.39
4/15/2021 12:30:00 PM 9.16 48.488 0.299 7.76 4.16 11.48
4/15/2021 12:45:00 PM 9.2 48.56 0.3 7.78 4.29 11.58
4/15/2021 1:00:00 PM 9.25 48.65 0.3 7.8 4.39 11.68
4/15/2021 1:15:00 PM 9.24 48.632 0.304 7.82 4.3 11.76
4/15/2021 1:30:00 PM 9.22 48.596 0.302 7.84 4.25 11.79
4/15/2021 1:45:00 PM 9.22 48.596 0.299 7.85 4.37 11.84
4/15/2021 2:00:00 PM 9.19 48.542 0.3 7.86 4.09 11.8
4/15/2021 2:15:00 PM 9.16 48.488 0.301 7.86 4.05 11.79
4/15/2021 2:30:00 PM 9.13 48.434 0.299 7.86 4.03 11.79
4/15/2021 2:45:00 PM 9.1 48.38 0.3 7.87 3.94 11.83
4/15/2021 3:00:00 PM 9.11 48.398 0.299 7.89 4.06 11.89
4/15/2021 3:15:00 PM 9.13 48.434 0.3 7.9 3.88 11.94
4/15/2021 3:30:00 PM 9.13 48.434 0.301 7.91 3.91 11.95
4/15/2021 3:45:00 PM 9.13 48.434 0.301 7.93 3.6 11.97
4/15/2021 4:00:00 PM 9.13 48.434 0.3 7.94 3.85 12.01
4/15/2021 4:15:00 PM 9.12 48.416 0.3 7.95 3.9 12.02
4/15/2021 4:30:00 PM 9.11 48.398 0.301 7.96 4 12.03
4/15/2021 4:45:00 PM 9.08 48.344 6.495 7.94 3.96 11.7
4/15/2021 5:00:00 PM 9.04 48.272 0.306 7.94 3.93 11.9
4/15/2021 5:15:00 PM 9.01 48.218 10.156 7.91 3.97 11.43
4/15/2021 5:30:00 PM 8.99 48.182 0.313 7.91 3.94 11.81
4/15/2021 5:45:00 PM 8.97 48.146 0.315 7.91 3.84 11.76
4/15/2021 6:00:00 PM 8.95 48.11 0.314 7.89 3.94 11.71
4/15/2021 6:15:00 PM 8.93 48.074 11.743 7.87 4.13 11.17
4/15/2021 6:30:00 PM 8.92 48.056 10.605 7.87 4.73 11.18
4/15/2021 6:45:00 PM 8.92 48.056 9.751 7.86 4.98 11.23
4/15/2021 7:00:00 PM 8.88 47.984 0.301 7.85 5.04 11.57
4/15/2021 7:15:00 PM 8.86 47.948 9.7 7.83 5.25 11.11
4/15/2021 7:30:00 PM 8.83 47.894 0.184 7.82 4.86 11.43
4/15/2021 7:45:00 PM 8.79 47.822 7.486 7.8 4.81 11.09
4/15/2021 8:00:00 PM 8.75 47.75 0.295 7.79 4.99 11.31
4/15/2021 8:15:00 PM 8.7 47.66 0.297 7.77 5.08 11.25
4/15/2021 8:30:00 PM 8.66 47.588 0.299 7.75 5.05 11.19
4/15/2021 8:45:00 PM 8.61 47.498 0.304 7.74 5.07 11.13
4/15/2021 9:00:00 PM 8.58 47.444 0.309 7.72 4.88 11.08
4/15/2021 9:15:00 PM 8.55 47.39 0.313 7.7 4.95 11.03
4/15/2021 9:30:00 PM 8.51 47.318 0.32 7.7 4.83 10.99
4/15/2021 9:45:00 PM 8.48 47.264 0.316 7.69 4.9 10.95
4/15/2021 10:00:00 PM 8.44 47.192 0.314 7.67 4.91 10.92
4/15/2021 10:15:00 PM 8.41 47.138 0.312 7.66 4.96 10.89
4/15/2021 10:30:00 PM 8.37 47.066 0.312 7.65 4.89 10.86
4/15/2021 10:45:00 PM 8.32 46.976 0.304 7.64 5.03 10.83
4/15/2021 11:00:00 PM 8.28 46.904 0.302 7.63 4.91 10.8
4/15/2021 11:15:00 PM 8.25 46.85 0.299 7.61 4.95 10.78
4/15/2021 11:30:00 PM 8.21 46.778 9.65 7.59 4.83 10.39
4/15/2021 11:45:00 PM 8.17 46.706 8.647 7.58 4.88 10.41
4/16/2021 12:00:00 AM 8.14 46.652 9.354 7.57 4.91 10.37
4/16/2021 12:15:00 AM 8.1 46.58 0.269 7.56 5.41 10.37
4/16/2021 12:30:00 AM 8.06 46.508 9.34 7.56 5.11 10.36
4/16/2021 12:45:00 AM 8.02 46.436 0.205 7.56 4.88 10.37
4/16/2021 1:00:00 AM 7.99 46.382 0.289 7.56 4.91 10.71
4/16/2021 1:15:00 AM 7.95 46.31 0.289 7.56 4.91 10.7
4/16/2021 1:30:00 AM 7.92 46.256 0.29 7.56 4.92 10.7
4/16/2021 1:45:00 AM 7.89 46.202 9.094 7.54 4.91 10.36
4/16/2021 2:00:00 AM 7.86 46.148 0.292 7.55 4.65 10.71
4/16/2021 2:15:00 AM 7.83 46.094 10.179 7.54 4.84 10.32
4/16/2021 2:30:00 AM 7.8 46.04 9.298 7.54 4.68 10.36
4/16/2021 2:45:00 AM 7.77 45.986 0.293 7.55 4.59 10.72
4/16/2021 3:00:00 AM 7.73 45.914 9.751 7.54 4.48 10.36
4/16/2021 3:15:00 AM 7.7 45.86 9.179 7.54 4.63 10.39
4/16/2021 3:30:00 AM 7.66 45.788 10.239 7.55 4.74 10.35
4/16/2021 3:45:00 AM 7.62 45.716 0.294 7.55 4.74 10.75
4/16/2021 4:00:00 AM 7.59 45.662 0.303 7.56 4.36 10.75
4/16/2021 4:15:00 AM 7.56 45.608 9.126 7.54 4.34 10.42
4/16/2021 4:30:00 AM 7.53 45.554 10.055 7.55 4.53 10.38
4/16/2021 4:45:00 AM 7.49 45.482 0.313 7.56 4.31 10.77
4/16/2021 5:00:00 AM 7.46 45.428 0.262 7.56 4.35 10.78
4/16/2021 5:15:00 AM 7.43 45.374 0.314 7.56 4.58 10.79
4/16/2021 5:30:00 AM 7.4 45.32 0.31 7.56 4.24 10.79
4/16/2021 5:45:00 AM 7.36 45.248 9.432 7.55 9.13 10.44
4/16/2021 6:00:00 AM 7.33 45.194 0.308 7.56 4.29 10.81
4/16/2021 6:15:00 AM 7.29 45.122 9.744 7.55 4.57 10.45
4/16/2021 6:30:00 AM 7.26 45.068 9.442 7.55 4.22 10.47
4/16/2021 6:45:00 AM 7.22 44.996 0.3 7.57 4.14 10.84
4/16/2021 7:00:00 AM 7.18 44.924 10.239 7.55 4.29 10.46
4/16/2021 7:15:00 AM 7.16 44.888 0.306 7.57 4.4 10.87
4/16/2021 7:30:00 AM 7.13 44.834 0.3 7.57 4.27 10.9
4/16/2021 7:45:00 AM 7.1 44.78 0.291 7.57 4.11 10.92
4/16/2021 8:00:00 AM 7.08 44.744 9.139 7.56 4.17 10.61
4/16/2021 8:15:00 AM 7.05 44.69 0.301 7.58 4.2 11
4/16/2021 8:30:00 AM 7.04 44.672 9.14 7.57 4.3 10.71
4/16/2021 8:45:00 AM 7.02 44.636 9.135 7.58 4.09 10.77
4/16/2021 9:00:00 AM 7.01 44.618 9.052 7.59 3.86 10.84
4/16/2021 9:15:00 AM 6.99 44.582 9.047 7.6 3.96 10.92
4/16/2021 9:30:00 AM 6.99 44.582 10.837 7.63 3.95 10.92
4/16/2021 9:45:00 AM 6.99 44.582 0.304 7.65 3.92 11.48
4/16/2021 10:00:00 AM 6.99 44.582 0.302 7.66 3.73 11.57
4/16/2021 10